Provisional Data: Sing Sing Creek near Big Flats, NY


Please select a monitoring station.
Please select start date.
Please select start date.

Toggle Unit: C/F Toggle Unit: C/F
Sample Time Temperature (C) Temperature (F) Specific Conductivity (mS/cm) pH   Turbidity (NTU+) DO (mg/L)
5/4/2021 12:00:00 AM 11.63 52.934 0.323 7.4 6.71 9.6
5/4/2021 12:15:00 AM 11.62 52.916 0.323 7.39 6.88 9.6
5/4/2021 12:30:00 AM 11.6 52.88 0.323 7.39 6.79 9.59
5/4/2021 12:45:00 AM 11.59 52.862 0.323 7.39 6.78 9.58
5/4/2021 1:00:00 AM 11.58 52.844 0.323 7.39 6.84 9.59
5/4/2021 1:15:00 AM 11.57 52.826 0.323 7.39 6.8 9.58
5/4/2021 1:30:00 AM 11.56 52.808 0.323 7.39 7.06 9.58
5/4/2021 1:45:00 AM 11.55 52.79 0.323 7.39 7.09 9.58
5/4/2021 2:00:00 AM 11.53 52.754 0.324 7.38 6.9 9.58
5/4/2021 2:15:00 AM 11.51 52.718 0.325 7.38 6.9 9.57
5/4/2021 2:30:00 AM 11.5 52.7 0.326 7.37 7.12 9.57
5/4/2021 2:45:00 AM 11.48 52.664 0.326 7.37 7.36 9.58
5/4/2021 3:00:00 AM 11.46 52.628 0.323 7.37 7.44 9.59
5/4/2021 3:15:00 AM 11.43 52.574 0.32 7.37 7.47 9.6
5/4/2021 3:30:00 AM 11.4 52.52 0.317 7.37 7.39 9.61
5/4/2021 3:45:00 AM 11.38 52.484 0.314 7.36 7.4 9.62
5/4/2021 4:00:00 AM 11.35 52.43 0.312 7.36 7.74 9.63
5/4/2021 4:15:00 AM 11.32 52.376 0.312 7.36 7.61 9.65
5/4/2021 4:30:00 AM 11.29 52.322 0.312 7.36 7.83 9.65
5/4/2021 4:45:00 AM 11.26 52.268 0.313 7.36 7.68 9.66
5/4/2021 5:00:00 AM 11.23 52.214 0.316 7.35 8.05 9.67
5/4/2021 5:15:00 AM 11.21 52.178 0.318 7.35 8.18 9.68
5/4/2021 5:30:00 AM 11.18 52.124 0.319 7.34 8.24 9.67
5/4/2021 5:45:00 AM 11.16 52.088 0.316 7.33 8.4 9.68
5/4/2021 6:00:00 AM 11.14 52.052 0.311 7.33 8.68 9.68
5/4/2021 6:15:00 AM 11.12 52.016 0.305 7.32 9.12 9.69
5/4/2021 6:30:00 AM 11.09 51.962 0.3 7.32 8.93 9.7
5/4/2021 6:45:00 AM 11.07 51.926 0.295 7.31 8.62 9.72
5/4/2021 7:00:00 AM 11.06 51.908 0.29 7.31 10.41 9.75
5/4/2021 7:15:00 AM 11.04 51.872 0.286 7.3 9.47 9.77
5/4/2021 7:30:00 AM 11.03 51.854 0.283 7.3 8.9 9.8
5/4/2021 7:45:00 AM 11.02 51.836 0.28 7.3 9.2 9.84
5/4/2021 8:00:00 AM 11.01 51.818 0.278 7.3 9.43 9.87
5/4/2021 8:15:00 AM 11.01 51.818 0.277 7.31 10.12 9.91
5/4/2021 8:30:00 AM 11.01 51.818 0.277 7.31 8.89 9.95
5/4/2021 8:45:00 AM 11.01 51.818 0.276 7.32 8.28 10
5/4/2021 9:00:00 AM 11 51.8 0.276 7.33 8.74 10.04
5/4/2021 9:15:00 AM 11.01 51.818 0.276 7.33 8.08 10.08
5/4/2021 9:30:00 AM 11.04 51.872 0.277 7.35 7.77 10.15
5/4/2021 9:45:00 AM 11.08 51.944 0.278 7.37 8.27 10.24
5/4/2021 10:00:00 AM 11.13 52.034 0.281 7.39 8.09 10.33
5/4/2021 10:15:00 AM 11.2 52.16 0.284 7.41 8.21 10.39
5/4/2021 10:30:00 AM 11.26 52.268 0.286 7.42 8.06 10.46
5/4/2021 10:45:00 AM 11.32 52.376 0.285 7.44 7.93 10.55
5/4/2021 11:00:00 AM 11.44 52.592 0.283 7.46 7.88 10.64
5/4/2021 11:15:00 AM 11.6 52.88 0.281 7.48 8.19 10.74
5/4/2021 11:30:00 AM 11.7 53.06 0.28 7.5 8.1 10.82
5/4/2021 11:45:00 AM 11.85 53.33 0.278 7.52 7.99 10.89
5/4/2021 12:00:00 PM 11.99 53.582 0.278 7.53 7.87 10.97
5/4/2021 12:15:00 PM 12.11 53.798 0.278 7.55 7.99 11.02
5/4/2021 12:30:00 PM 12.21 53.978 0.28 7.57 8.44 11.06
5/4/2021 12:45:00 PM 12.34 54.212 0.284 7.59 8.02 11.1
5/4/2021 1:00:00 PM 12.55 54.59 0.289 7.61 7.51 11.15
5/4/2021 1:15:00 PM 12.79 55.022 0.292 7.63 8.01 11.19
5/4/2021 1:30:00 PM 13.02 55.436 0.292 7.64 7.85 11.22
5/4/2021 1:45:00 PM 13.19 55.742 0.29 7.65 7.56 11.23
5/4/2021 2:00:00 PM 13.31 55.958 0.288 7.67 7.92 11.23
5/4/2021 2:15:00 PM 13.49 56.282 0.285 7.68 9.76 11.22
5/4/2021 2:30:00 PM 13.67 56.606 0.282 7.7 7.87 11.24
5/4/2021 2:45:00 PM 13.8 56.84 0.28 7.71 7.9 11.21
5/4/2021 3:00:00 PM 13.9 57.02 0.278 7.72 7.67 11.19
5/4/2021 3:15:00 PM 13.99 57.182 0.276 7.73 7.71 11.16
5/4/2021 3:30:00 PM 14.12 57.416 0.275 7.74 8.13 11.15
5/4/2021 3:45:00 PM 14.19 57.542 0.274 7.73 7.64 11.08
5/4/2021 4:00:00 PM 14.29 57.722 0.273 7.74 8.77 11.05
5/4/2021 4:15:00 PM 14.39 57.902 0.273 7.74 8.25 11.01
5/4/2021 4:30:00 PM 14.52 58.136 0.273 7.74 7.69 10.98
5/4/2021 4:45:00 PM 14.61 58.298 0.273 7.73 8.29 10.89
5/4/2021 5:00:00 PM 14.69 58.442 0.274 7.73 8.11 10.81
5/4/2021 5:15:00 PM 14.75 58.55 0.274 7.72 7.62 10.74
5/4/2021 5:30:00 PM 14.78 58.604 0.275 7.71 7.25 10.65
5/4/2021 5:45:00 PM 14.81 58.658 0.275 7.69 7.12 10.57
5/4/2021 6:00:00 PM 14.82 58.676 0.276 7.68 6.8 10.49
5/4/2021 6:15:00 PM 14.83 58.694 0.277 7.66 7.05 10.4
5/4/2021 6:30:00 PM 14.82 58.676 0.278 7.64 6.87 10.3
5/4/2021 6:45:00 PM 14.82 58.676 0.278 7.63 8.82 10.22
5/4/2021 7:00:00 PM 14.83 58.694 0.279 7.61 6.71 10.15
5/4/2021 7:15:00 PM 14.83 58.694 0.28 7.6 6.86 10.08
5/4/2021 7:30:00 PM 14.82 58.676 0.281 7.59 6.87 10
5/4/2021 7:45:00 PM 14.81 58.658 0.281 7.57 6.78 9.91
5/4/2021 8:00:00 PM 14.8 58.64 0.282 7.55 6.8 9.82
5/4/2021 8:15:00 PM 14.79 58.622 0.283 7.54 7.03 9.74
5/4/2021 8:30:00 PM 14.78 58.604 0.284 7.52 6.83 9.66
5/4/2021 8:45:00 PM 14.78 58.604 0.285 7.51 6.91 9.57
5/4/2021 9:00:00 PM 14.77 58.586 0.286 7.5 6.94 9.48
5/4/2021 9:15:00 PM 14.77 58.586 0.287 7.48 6.94 9.41
5/4/2021 9:30:00 PM 14.76 58.568 0.287 7.47 7.09 9.34
5/4/2021 9:45:00 PM 14.76 58.568 0.288 7.46 7.12 9.28
5/4/2021 10:00:00 PM 14.76 58.568 0.289 7.45 7.42 9.22
5/4/2021 10:15:00 PM 14.74 58.532 0.29 7.44 7.28 9.16
5/4/2021 10:30:00 PM 14.73 58.514 0.291 7.43 7.36 9.11
5/4/2021 10:45:00 PM 14.71 58.478 0.291 7.42 7.32 9.07
5/4/2021 11:00:00 PM 14.69 58.442 0.292 7.41 7.4 9.03
5/4/2021 11:15:00 PM 14.67 58.406 0.293 7.4 7.05 8.99
5/4/2021 11:30:00 PM 14.65 58.37 0.294 7.4 7.13 8.97
5/4/2021 11:45:00 PM 14.61 58.298 0.294 7.39 7.05 8.95
5/5/2021 12:00:00 AM 14.57 58.226 0.294 7.39 7.32 8.94
5/5/2021 12:15:00 AM 14.53 58.154 0.294 7.38 7.22 8.94
5/5/2021 12:30:00 AM 14.48 58.064 0.295 7.38 7.77 8.93
5/5/2021 12:45:00 AM 14.42 57.956 0.295 7.37 7.37 8.93
5/5/2021 1:00:00 AM 14.36 57.848 0.295 7.37 7.3 8.92
5/5/2021 1:15:00 AM 14.3 57.74 0.295 7.36 7.15 8.93
5/5/2021 1:30:00 AM 14.24 57.632 0.295 7.36 7.21 8.93
5/5/2021 1:45:00 AM 14.18 57.524 0.295 7.36 7.24 8.94
5/5/2021 2:00:00 AM 14.12 57.416 0.295 7.36 7.4 8.95
5/5/2021 2:15:00 AM 14.05 57.29 0.296 7.35 7.32 8.96
5/5/2021 2:30:00 AM 13.98 57.164 0.296 7.35 7.61 8.97
5/5/2021 2:45:00 AM 13.9 57.02 0.296 7.35 7.55 8.98
5/5/2021 3:00:00 AM 13.83 56.894 0.297 7.34 7.71 8.99
5/5/2021 3:15:00 AM 13.76 56.768 0.297 7.34 7.48 9.01
5/5/2021 3:30:00 AM 13.68 56.624 0.298 7.34 7.48 9.02
5/5/2021 3:45:00 AM 13.61 56.498 0.298 7.34 7.7 9.03
5/5/2021 4:00:00 AM 13.54 56.372 0.299 7.34 6.98 9.05
5/5/2021 4:15:00 AM 13.46 56.228 0.299 7.34 7.19 9.07
5/5/2021 4:30:00 AM 13.39 56.102 0.3 7.34 7.48 9.08
5/5/2021 4:45:00 AM 13.32 55.976 0.3 7.34 7.45 9.1
5/5/2021 5:00:00 AM 13.26 55.868 0.301 7.34 7.28 9.11
5/5/2021 5:15:00 AM 13.19 55.742 0.301 7.34 7.4 9.13
5/5/2021 5:30:00 AM 13.13 55.634 0.302 7.34 7.61 9.14
5/5/2021 5:45:00 AM 13.07 55.526 0.303 7.34 7.36 9.15
5/5/2021 6:00:00 AM 13.01 55.418 0.304 7.33 7.23 9.17
5/5/2021 6:15:00 AM 12.95 55.31 0.304 7.33 7.3 9.18
5/5/2021 6:30:00 AM 12.9 55.22 0.303 7.33 7.69 9.21
5/5/2021 6:45:00 AM 12.85 55.13 0.302 7.34 7.51 9.24
5/5/2021 7:00:00 AM 12.81 55.058 0.3 7.33 7.05 9.28
5/5/2021 7:15:00 AM 12.77 54.986 0.298 7.33 7.1 9.33
5/5/2021 7:30:00 AM 12.73 54.914 0.297 7.34 6.52 9.37
5/5/2021 7:45:00 AM 12.69 54.842 0.297 7.34 7.11 9.42
5/5/2021 8:00:00 AM 12.65 54.77 0.299 7.35 6.79 9.49
5/5/2021 8:15:00 AM 12.6 54.68 0.301 7.36 6.66 9.52
5/5/2021 8:30:00 AM 12.57 54.626 0.304 7.36 6.17 9.61
5/5/2021 8:45:00 AM 12.53 54.554 0.304 7.37 6.15 9.64
5/5/2021 9:00:00 AM 12.49 54.482 0.303 7.37 6.31 9.67
5/5/2021 9:15:00 AM 12.44 54.392 0.299 7.37 6.14 9.68
5/5/2021 9:30:00 AM 12.41 54.338 0.293 7.36 6.66 9.7
5/5/2021 9:45:00 AM 12.38 54.284 0.286 7.36 6.14 9.74
5/5/2021 10:00:00 AM 12.35 54.23 0.279 7.35 6.56 9.78
5/5/2021 10:15:00 AM 12.31 54.158 0.273 7.35 6.73 9.8
5/5/2021 10:30:00 AM 12.28 54.104 0.269 7.34 7.13 9.84
5/5/2021 10:45:00 AM 12.24 54.032 0.266 7.34 7.42 9.87
5/5/2021 11:00:00 AM 12.21 53.978 0.265 7.35 7.3 9.92
5/5/2021 11:15:00 AM 12.19 53.942 0.264 7.36 6.9 10
5/5/2021 11:30:00 AM 12.15 53.87 0.266 7.37 6.83 10.04
5/5/2021 11:45:00 AM 12.13 53.834 0.267 7.38 6.56 10.1
5/5/2021 12:00:00 PM 12.09 53.762 0.27 7.39 6.39 10.12
5/5/2021 12:15:00 PM 12.09 53.762 0.272 7.41 7.34 10.22
5/5/2021 12:30:00 PM 12.07 53.726 0.274 7.42 6.32 10.27
5/5/2021 12:45:00 PM 12.1 53.78 0.275 7.45 6.49 10.41
5/5/2021 1:00:00 PM 12.09 53.762 0.277 7.47 6.34 10.48
5/5/2021 1:15:00 PM 12.09 53.762 0.278 7.49 6.41 10.55
5/5/2021 1:30:00 PM 12.09 53.762 0.279 7.51 6.28 10.63
5/5/2021 1:45:00 PM 12.09 53.762 0.279 7.52 6.26 10.69
5/5/2021 2:00:00 PM 12.09 53.762 0.28 7.54 6.33 10.76
5/5/2021 2:15:00 PM 12.09 53.762 0.28 7.56 6.2 10.82
5/5/2021 2:30:00 PM 12.1 53.78 0.281 7.58 6.14 10.89
5/5/2021 2:45:00 PM 12.12 53.816 0.282 7.59 6.96 10.94
5/5/2021 3:00:00 PM 12.14 53.852 0.283 7.62 6.26 10.99
5/5/2021 3:15:00 PM 12.15 53.87 0.285 7.62 6.25 10.99
5/5/2021 3:30:00 PM 12.17 53.906 0.286 7.63 6.18 10.99
5/5/2021 3:45:00 PM 12.19 53.942 0.287 7.63 6.26 11.01
5/5/2021 4:00:00 PM 12.18 53.924 0.288 7.63 6.22 10.96
5/5/2021 4:15:00 PM 12.17 53.906 0.288 7.63 6.38 10.91
5/5/2021 4:30:00 PM 12.17 53.906 0.288 7.63 6.48 10.94
5/5/2021 4:45:00 PM 12.15 53.87 0.287 7.63 6.33 10.89
5/5/2021 5:00:00 PM 12.12 53.816 0.287 7.62 6.14 10.82
5/5/2021 5:15:00 PM 12.09 53.762 0.287 7.61 6.4 10.78
5/5/2021 5:30:00 PM 12.07 53.726 0.288 7.61 6.47 10.75
5/5/2021 5:45:00 PM 12.06 53.708 0.288 7.6 6.29 10.74
5/5/2021 6:00:00 PM 12.04 53.672 0.289 7.6 6.11 10.7
5/5/2021 6:15:00 PM 12.04 53.672 0.29 7.6 6.17 10.69
5/5/2021 6:30:00 PM 12 53.6 0.291 7.58 6.09 10.6
5/5/2021 6:45:00 PM 11.96 53.528 0.293 7.57 6.31 10.53
5/5/2021 7:00:00 PM 11.92 53.456 0.295 7.56 5.84 10.45
5/5/2021 7:15:00 PM 11.88 53.384 0.296 7.54 5.93 10.4
5/5/2021 7:30:00 PM 11.86 53.348 0.298 7.53 6.05 10.34
5/5/2021 7:45:00 PM 11.82 53.276 0.298 7.51 6.03 10.26
5/5/2021 8:00:00 PM 11.78 53.204 0.299 7.5 6.09 10.18
5/5/2021 8:15:00 PM 11.74 53.132 0.299 7.48 5.91 10.13
5/5/2021 8:30:00 PM 11.71 53.078 0.299 7.48 5.98 10.08
5/5/2021 8:45:00 PM 11.68 53.024 0.299 7.47 6.49 10.04
5/5/2021 9:00:00 PM 11.65 52.97 0.299 7.46 6.35 9.99
5/5/2021 9:15:00 PM 11.6 52.88 0.299 7.45 6.34 9.95
5/5/2021 9:30:00 PM 11.56 52.808 0.299 7.44 6.85 9.92
5/5/2021 9:45:00 PM 11.51 52.718 0.298 7.44 6.61 9.89
5/5/2021 10:00:00 PM 11.47 52.646 0.298 7.43 6.46 9.88
5/5/2021 10:15:00 PM 11.43 52.574 0.298 7.43 6.61 9.87
5/5/2021 10:30:00 PM 11.39 52.502 0.298 7.42 6.44 9.86
5/5/2021 10:45:00 PM 11.36 52.448 0.298 7.41 6.53 9.84
5/5/2021 11:00:00 PM 11.31 52.358 0.298 7.41 6.62 9.83
5/5/2021 11:15:00 PM 11.27 52.286 0.298 7.4 6.74 9.82
5/5/2021 11:30:00 PM 11.23 52.214 0.299 7.4 6.78 9.81
5/5/2021 11:45:00 PM 11.2 52.16 0.299 7.39 6.7 9.81
5/6/2021 12:00:00 AM 11.16 52.088 0.299 7.39 6.48 9.8
5/6/2021 12:15:00 AM 11.13 52.034 0.3 7.39 6.55 9.8
5/6/2021 12:30:00 AM 11.09 51.962 0.3 7.38 6.57 9.8
5/6/2021 12:45:00 AM 11.04 51.872 0.3 7.38 6.7 9.81
5/6/2021 1:00:00 AM 10.99 51.782 0.3 7.38 6.77 9.81
5/6/2021 1:15:00 AM 10.94 51.692 0.3 7.38 6.24 9.82
5/6/2021 1:30:00 AM 10.89 51.602 0.301 7.38 6.27 9.82
5/6/2021 1:45:00 AM 10.84 51.512 0.301 7.38 6.4 9.83
5/6/2021 2:00:00 AM 10.78 51.404 0.302 7.38 6.44 9.84
5/6/2021 2:15:00 AM 10.71 51.278 0.302 7.38 6.5 9.85
5/6/2021 2:30:00 AM 10.66 51.188 0.302 7.38 6.4 9.86
5/6/2021 2:45:00 AM 10.61 51.098 0.303 7.38 6.43 9.88
5/6/2021 3:00:00 AM 10.56 51.008 0.303 7.38 6.28 9.88
5/6/2021 3:15:00 AM 10.5 50.9 0.304 7.38 6.31 9.9
5/6/2021 3:30:00 AM 10.44 50.792 0.304 7.38 6.19 9.91
5/6/2021 3:45:00 AM 10.38 50.684 0.305 7.38 6.16 9.93
5/6/2021 4:00:00 AM 10.31 50.558 0.305 7.38 6.4 9.94
5/6/2021 4:15:00 AM 10.25 50.45 0.306 7.38 6.28 9.96
5/6/2021 4:30:00 AM 10.19 50.342 0.306 7.38 6.54 9.97
5/6/2021 4:45:00 AM 10.14 50.252 0.307 7.38 6.26 9.99
5/6/2021 5:00:00 AM 10.08 50.144 0.308 7.38 6.26 10
5/6/2021 5:15:00 AM 10.03 50.054 0.309 7.38 6.3 10.01
5/6/2021 5:30:00 AM 9.99 49.982 0.31 7.39 6.11 10.02
5/6/2021 5:45:00 AM 9.94 49.892 0.31 7.38 23.55 10.04
5/6/2021 6:00:00 AM 9.89 49.802 0.31 7.38 6.77 10.05
5/6/2021 6:15:00 AM 9.84 49.712 0.31 7.39 6.09 10.07
5/6/2021 6:30:00 AM 9.78 49.604 0.31 7.39 6.2 10.1
5/6/2021 6:45:00 AM 9.72 49.496 0.311 7.39 5.96 10.13
5/6/2021 7:00:00 AM 9.67 49.406 0.311 7.4 5.87 10.16
5/6/2021 7:15:00 AM 9.61 49.298 0.312 7.38 5.64 10.19
5/6/2021 7:30:00 AM 9.57 49.226 0.312 7.39 5.67 10.23
5/6/2021 7:45:00 AM 9.52 49.136 0.313 7.39 5.36 10.27
5/6/2021 8:00:00 AM 9.47 49.046 0.313 7.39 5.48 10.31
5/6/2021 8:15:00 AM 9.44 48.992 0.314 7.4 5.46 10.36
5/6/2021 8:30:00 AM 9.41 48.938 0.314 7.41 5.57 10.44
5/6/2021 8:45:00 AM 9.39 48.902 0.315 7.42 5.42 10.52
5/6/2021 9:00:00 AM 9.36 48.848 0.316 7.43 5.28 10.61
5/6/2021 9:15:00 AM 9.4 48.92 0.316 7.45 5.16 10.76
5/6/2021 9:30:00 AM 9.48 49.064 0.316 7.47 4.94 10.9
5/6/2021 9:45:00 AM 9.44 48.992 0.317 7.49 5.11 10.98
5/6/2021 10:00:00 AM 9.59 49.262 0.317 7.51 5.01 11.15
5/6/2021 10:15:00 AM 9.62 49.316 0.317 7.54 4.99 11.25
5/6/2021 10:30:00 AM 9.74 49.532 0.318 7.56 5.14 11.35
5/6/2021 10:45:00 AM 9.92 49.856 0.318 7.59 4.87 11.51
5/6/2021 11:00:00 AM 10.04 50.072 0.318 7.62 4.8 11.6
5/6/2021 11:15:00 AM 10.2 50.36 0.319 7.64 4.85 11.7
5/6/2021 11:30:00 AM 10.26 50.468 0.319 7.66 4.8 11.76
5/6/2021 11:45:00 AM 10.48 50.864 0.319 7.69 4.85 11.85
5/6/2021 12:00:00 PM 10.64 51.152 0.32 7.72 4.75 11.92
5/6/2021 12:15:00 PM 10.78 51.404 0.32 7.74 4.66 12
5/6/2021 12:30:00 PM 11.02 51.836 0.321 7.77 4.68 12.06
5/6/2021 12:45:00 PM 11.21 52.178 0.321 7.79 4.62 12.11
5/6/2021 1:00:00 PM 11.34 52.412 0.321 7.81 4.75 12.16
5/6/2021 1:15:00 PM 11.35 52.43 0.322 7.83 4.93 12.17
5/6/2021 1:30:00 PM 11.59 52.862 0.322 7.85 4.69 12.22
5/6/2021 1:45:00 PM 11.86 53.348 0.322 7.88 4.59 12.26
5/6/2021 2:00:00 PM 11.96 53.528 0.322 7.89 4.74 12.26
5/6/2021 2:15:00 PM 12.09 53.762 0.322 7.91 4.69 12.28
5/6/2021 2:30:00 PM 12.11 53.798 0.322 7.92 4.58 12.26
5/6/2021 2:45:00 PM 12.13 53.834 0.323 7.93 4.5 12.25
5/6/2021 3:00:00 PM 12.21 53.978 0.323 7.95 4.43 12.26
5/6/2021 3:15:00 PM 12.29 54.122 0.323 7.96 4.25 12.26
5/6/2021 3:30:00 PM 12.32 54.176 0.323 7.97 4.38 12.24
5/6/2021 3:45:00 PM 12.38 54.284 0.324 7.98 4.21 12.24
5/6/2021 4:00:00 PM 12.46 54.428 0.324 7.99 4.24 12.23
5/6/2021 4:15:00 PM 12.55 54.59 0.324 8 4.29 12.19
5/6/2021 4:30:00 PM 12.64 54.752 0.325 8 4.32 12.16
5/6/2021 4:45:00 PM 12.73 54.914 0.325 8.01 4.12 12.12
5/6/2021 5:00:00 PM 12.83 55.094 0.326 8.02 4.28 12.09
5/6/2021 5:15:00 PM 12.85 55.13 0.326 8.01 4.26 12.02
5/6/2021 5:30:00 PM 12.87 55.166 0.326 8.01 4.22 11.97
5/6/2021 5:45:00 PM 12.88 55.184 0.327 8 4.28 11.9
5/6/2021 6:00:00 PM 12.9 55.22 0.327 7.99 4.28 11.82
5/6/2021 6:15:00 PM 12.94 55.292 0.328 7.99 4.13 11.74
5/6/2021 6:30:00 PM 12.97 55.346 0.328 7.97 4.26 11.64
5/6/2021 6:45:00 PM 13.01 55.418 0.329 7.95 4.26 11.51
5/6/2021 7:00:00 PM 13.03 55.454 0.329 7.93 4.14 11.39
5/6/2021 7:15:00 PM 13.03 55.454 0.33 7.9 4.11 11.27
5/6/2021 7:30:00 PM 13.03 55.454 0.33 7.88 4.28 11.14
5/6/2021 7:45:00 PM 13.02 55.436 0.331 7.85 4.03 11
5/6/2021 8:00:00 PM 12.99 55.382 0.331 7.82 4.07 10.86
5/6/2021 8:15:00 PM 12.96 55.328 0.332 7.79 8.51 10.72
5/6/2021 8:30:00 PM 12.91 55.238 0.332 7.76 4.34 10.59
5/6/2021 8:45:00 PM 12.86 55.148 0.333 7.73 4.29 10.47
5/6/2021 9:00:00 PM 12.78 55.004 0.333 7.7 4.27 10.35
5/6/2021 9:15:00 PM 12.7 54.86 0.333 7.67 4.53 10.24
5/6/2021 9:30:00 PM 12.61 54.698 0.334 7.64 4.62 10.14
5/6/2021 9:45:00 PM 12.53 54.554 0.334 7.62 4.54 10.04
5/6/2021 10:00:00 PM 12.44 54.392 0.335 7.6 4.73 9.95
5/6/2021 10:15:00 PM 12.34 54.212 0.335 7.58 4.7 9.89
5/6/2021 10:30:00 PM 12.25 54.05 0.336 7.56 4.85 9.82
5/6/2021 10:45:00 PM 12.16 53.888 0.336 7.54 5.15 9.76
5/6/2021 11:00:00 PM 12.07 53.726 0.337 7.53 4.97 9.71
5/6/2021 11:15:00 PM 11.98 53.564 0.337 7.51 4.93 9.67
5/6/2021 11:30:00 PM 11.89 53.402 0.338 7.5 4.8 9.64
5/6/2021 11:45:00 PM 11.8 53.24 0.338 7.49 4.73 9.6
5/7/2021 12:00:00 AM 11.71 53.078 0.338 7.48 4.98 9.58
5/7/2021 12:15:00 AM 11.62 52.916 0.339 7.47 4.92 9.57
5/7/2021 12:30:00 AM 11.53 52.754 0.34 7.46 4.73 9.56
5/7/2021 12:45:00 AM 11.44 52.592 0.34 7.46 5.02 9.56
5/7/2021 1:00:00 AM 11.35 52.43 0.341 7.45 4.94 9.55
5/7/2021 1:15:00 AM 11.26 52.268 0.341 7.45 4.88 9.56
5/7/2021 1:30:00 AM 11.17 52.106 0.341 7.44 4.91 9.57
5/7/2021 1:45:00 AM 11.08 51.944 0.342 7.44 4.87 9.58
5/7/2021 2:00:00 AM 10.99 51.782 0.343 7.44 4.84 9.59
5/7/2021 2:15:00 AM 10.89 51.602 0.343 7.44 4.92 9.6
5/7/2021 2:30:00 AM 10.8 51.44 0.344 7.43 5.02 9.61
5/7/2021 2:45:00 AM 10.7 51.26 0.344 7.43 4.93 9.63
5/7/2021 3:00:00 AM 10.61 51.098 0.345 7.43 4.83 9.65
5/7/2021 3:15:00 AM 10.52 50.936 0.345 7.43 4.94 9.66
5/7/2021 3:30:00 AM 10.43 50.774 0.345 7.43 5.1 9.68
5/7/2021 3:45:00 AM 10.34 50.612 0.345 7.42 4.81 9.7
5/7/2021 4:00:00 AM 10.25 50.45 0.346 7.42 4.75 9.72
5/7/2021 4:15:00 AM 10.16 50.288 0.346 7.42 4.92 9.74
5/7/2021 4:30:00 AM 10.07 50.126 0.346 7.42 4.95 9.77
5/7/2021 4:45:00 AM 9.98 49.964 0.347 7.42 4.72 9.79
5/7/2021 5:00:00 AM 9.89 49.802 0.347 7.42 4.61 9.81
5/7/2021 5:15:00 AM 9.79 49.622 0.348 7.42 4.74 9.83
5/7/2021 5:30:00 AM 9.71 49.478 0.348 7.42 4.72 9.85
5/7/2021 5:45:00 AM 9.62 49.316 0.349 7.42 4.81 9.88
5/7/2021 6:00:00 AM 9.53 49.154 0.349 7.42 4.92 9.91
5/7/2021 6:15:00 AM 9.44 48.992 0.35 7.42 4.83 9.94
5/7/2021 6:30:00 AM 9.36 48.848 0.35 7.42 4.65 9.98
5/7/2021 6:45:00 AM 9.27 48.686 0.35 7.43 4.64 10.03
5/7/2021 7:00:00 AM 9.19 48.542 0.351 7.42 4.82 10.08
5/7/2021 7:15:00 AM 9.12 48.416 0.351 7.42 4.6 10.13
5/7/2021 7:30:00 AM 9.05 48.29 0.352 7.43 4.54 10.21
5/7/2021 7:45:00 AM 9.01 48.218 0.352 7.44 4.46 10.32
5/7/2021 8:00:00 AM 8.97 48.146 0.352 7.45 4.58 10.43
5/7/2021 8:15:00 AM 8.94 48.092 0.352 7.46 4.66 10.55
5/7/2021 8:30:00 AM 8.93 48.074 0.353 7.47 4.22 10.68
5/7/2021 8:45:00 AM 8.91 48.038 0.353 7.49 4.27 10.8
5/7/2021 9:00:00 AM 8.9 48.02 0.353 7.5 4.26 10.92
5/7/2021 9:15:00 AM 8.9 48.02 0.354 7.52 4.03 11.06
5/7/2021 9:30:00 AM 8.94 48.092 0.353 7.54 4.04 11.21
5/7/2021 9:45:00 AM 8.97 48.146 0.353 7.56 4.01 11.35
5/7/2021 10:00:00 AM 9.01 48.218 0.353 7.58 4.1 11.48
5/7/2021 10:15:00 AM 9.01 48.218 0.352 7.6 3.91 11.58
5/7/2021 10:30:00 AM 9.03 48.254 0.352 7.62 3.89 11.68
5/7/2021 10:45:00 AM 9.05 48.29 0.352 7.64 3.93 11.8
5/7/2021 11:00:00 AM 9.12 48.416 0.352 7.67 3.95 11.93
5/7/2021 11:15:00 AM 9.21 48.578 0.352 7.7 3.91 12.06
5/7/2021 11:30:00 AM 9.29 48.722 0.352 7.72 3.83 12.16
5/7/2021 11:45:00 AM 9.35 48.83 0.352 7.75 3.83 12.24
5/7/2021 12:00:00 PM 9.41 48.938 0.352 7.77 3.98 12.31
5/7/2021 12:15:00 PM 9.47 49.046 0.352 7.79 3.84 12.38
5/7/2021 12:30:00 PM 9.55 49.19 0.352 7.82 3.89 12.46
5/7/2021 12:45:00 PM 9.62 49.316 0.352 7.84 3.89 12.51
5/7/2021 1:00:00 PM 9.74 49.532 0.353 7.87 3.89 12.59
5/7/2021 1:15:00 PM 9.8 49.64 0.353 7.88 3.9 12.61
5/7/2021 1:30:00 PM 9.86 49.748 0.354 7.9 3.78 12.63
5/7/2021 1:45:00 PM 9.96 49.928 0.354 7.92 3.81 12.68
5/7/2021 2:00:00 PM 10.01 50.018 0.355 7.93 3.86 12.7
5/7/2021 2:15:00 PM 10.06 50.108 0.355 7.95 3.73 12.69
5/7/2021 2:30:00 PM 10.1 50.18 0.355 7.95 3.73 12.69
5/7/2021 2:45:00 PM 10.14 50.252 0.355 7.96 3.86 12.66
5/7/2021 3:00:00 PM 10.18 50.324 0.355 7.97 3.71 12.63
5/7/2021 3:15:00 PM 10.21 50.378 0.355 7.97 3.71 12.59
5/7/2021 3:30:00 PM 10.25 50.45 0.355 7.97 3.76 12.57
5/7/2021 3:45:00 PM 10.28 50.504 0.355 7.97 3.99 12.53
5/7/2021 4:00:00 PM 10.3 50.54 0.356 7.97 3.69 12.46
5/7/2021 4:15:00 PM 10.33 50.594 0.356 7.97 3.66 12.4
5/7/2021 4:30:00 PM 10.34 50.612 0.356 7.95 3.5 12.31
5/7/2021 4:45:00 PM 10.35 50.63 0.356 7.94 3.52 12.22
5/7/2021 5:00:00 PM 10.37 50.666 0.356 7.93 3.66 12.15
5/7/2021 5:15:00 PM 10.37 50.666 0.356 7.91 3.57 12.03
5/7/2021 5:30:00 PM 10.36 50.648 0.355 7.89 3.61 11.9
5/7/2021 5:45:00 PM 10.36 50.648 0.355 7.87 3.84 11.81
5/7/2021 6:00:00 PM 10.36 50.648 0.355 7.85 3.68 11.71
5/7/2021 6:15:00 PM 10.35 50.63 0.355 7.83 3.71 11.58
5/7/2021 6:30:00 PM 10.34 50.612 0.355 7.8 3.73 11.48
5/7/2021 6:45:00 PM 10.33 50.594 0.355 7.78 3.96 11.37
5/7/2021 7:00:00 PM 10.33 50.594 0.355 7.76 3.83 11.25
5/7/2021 7:15:00 PM 10.32 50.576 0.355 7.73 3.89 11.13
5/7/2021 7:30:00 PM 10.32 50.576 0.355 7.71 3.96 11.02
5/7/2021 7:45:00 PM 10.31 50.558 0.354 7.68 4.04 10.91
5/7/2021 8:00:00 PM 10.3 50.54 0.354 7.67 4.25 10.81
5/7/2021 8:15:00 PM 10.28 50.504 0.355 7.64 4.45 10.71
5/7/2021 8:30:00 PM 10.27 50.486 0.356 7.63 4.56 10.62
5/7/2021 8:45:00 PM 10.25 50.45 0.356 7.61 5.09 10.54
5/7/2021 9:00:00 PM 10.24 50.432 0.356 7.59 5.15 10.45
5/7/2021 9:15:00 PM 10.22 50.396 0.356 7.57 5 10.38
5/7/2021 9:30:00 PM 10.19 50.342 0.355 7.56 5.01 10.33
5/7/2021 9:45:00 PM 10.17 50.306 0.355 7.54 5.13 10.26
5/7/2021 10:00:00 PM 10.15 50.27 0.355 7.53 5 10.21
5/7/2021 10:15:00 PM 10.13 50.234 0.354 7.52 5.03 10.16
5/7/2021 10:30:00 PM 10.11 50.198 0.354 7.51 5.03 10.11
5/7/2021 10:45:00 PM 10.08 50.144 0.354 7.5 5.17 10.06
5/7/2021 11:00:00 PM 10.06 50.108 0.354 7.49 5.4 10.03
5/7/2021 11:15:00 PM 10.04 50.072 0.354 7.49 5.01 9.99
5/7/2021 11:30:00 PM 10.02 50.036 0.354 7.48 4.91 9.97
5/7/2021 11:45:00 PM 10.01 50.018 0.355 7.47 5.18 9.95
5/8/2021 12:00:00 AM 9.99 49.982 0.357 7.46 5.26 9.93
5/8/2021 12:15:00 AM 9.96 49.928 0.359 7.46 5.46 9.92
5/8/2021 12:30:00 AM 9.94 49.892 0.36 7.45 5.67 9.91
5/8/2021 12:45:00 AM 9.91 49.838 0.359 7.45 6.09 9.9
5/8/2021 1:00:00 AM 9.88 49.784 0.356 7.44 6.67 9.91
5/8/2021 1:15:00 AM 9.85 49.73 0.351 7.44 6.77 9.92
5/8/2021 1:30:00 AM 9.81 49.658 0.346 7.43 6.88 9.93
5/8/2021 1:45:00 AM 9.77 49.586 0.342 7.43 7.54 9.93
5/8/2021 2:00:00 AM 9.73 49.514 0.338 7.42 7.71 9.95
5/8/2021 2:15:00 AM 9.68 49.424 0.335 7.41 8.14 9.96
5/8/2021 2:30:00 AM 9.63 49.334 0.333 7.4 8.41 9.97
5/8/2021 2:45:00 AM 9.59 49.262 0.331 7.4 8.56 9.98
5/8/2021 3:00:00 AM 9.53 49.154 0.33 7.39 9.53 9.99
5/8/2021 3:15:00 AM 9.49 49.082 0.331 7.38 10.31 10.01
5/8/2021 3:30:00 AM 9.44 48.992 0.332 7.37 9.16 10.02
5/8/2021 3:45:00 AM 9.39 48.902 0.331 7.36 13.73 10.02
5/8/2021 4:00:00 AM 9.34 48.812 0.328 7.35 15.99 10.03
5/8/2021 4:15:00 AM 9.3 48.74 0.324 7.34 14.49 10.04
5/8/2021 4:30:00 AM 9.24 48.632 0.317 7.34 13.1 10.07
5/8/2021 4:45:00 AM 9.18 48.524 0.308 7.33 15.22 10.11
5/8/2021 5:00:00 AM 9.1 48.38 0.297 7.32 17.57 10.16
5/8/2021 5:15:00 AM 9.01 48.218 0.287 7.32 26.47 10.22
5/8/2021 5:30:00 AM 8.93 48.074 0.28 7.3 30.25 10.27
5/8/2021 5:45:00 AM 8.84 47.912 0.274 7.3 31 10.34
5/8/2021 6:00:00 AM 8.75 47.75 0.267 7.29 31.58 10.4
5/8/2021 6:15:00 AM 8.67 47.606 0.261 7.29 29.35 10.44
5/8/2021 6:30:00 AM 8.6 47.48 0.252 7.29 42.64 10.5
5/8/2021 6:45:00 AM 8.52 47.336 0.241 7.28 66.74 10.56
5/8/2021 7:00:00 AM 8.44 47.192 0.231 7.27 78.16 10.62
5/8/2021 7:15:00 AM 8.37 47.066 0.22 7.24 58.73 10.69
5/8/2021 7:30:00 AM 8.31 46.958 0.209 7.23 53.27 10.76
5/8/2021 7:45:00 AM 8.25 46.85 0.199 7.22 52.64 10.81
5/8/2021 8:00:00 AM 8.21 46.778 0.192 7.18 59.17 10.85
5/8/2021 8:15:00 AM 8.18 46.724 0.186 7.17 66.55 10.88
5/8/2021 8:30:00 AM 8.14 46.652 0.183 7.16 59.43 10.91
5/8/2021 8:45:00 AM 8.11 46.598 0.183 7.17 50.09 10.93
5/8/2021 9:00:00 AM 8.09 46.562 0.184 7.17 59.92 10.94
5/8/2021 9:15:00 AM 8.08 46.544 0.184 7.17 98.09 10.95
5/8/2021 9:30:00 AM 8.07 46.526 0.183 7.17 66.61 10.96
5/8/2021 9:45:00 AM 8.07 46.526 0.183 7.17 76.33 10.96
5/8/2021 10:00:00 AM 8.07 46.526 0.184 7.17 63.79 10.97
5/8/2021 10:15:00 AM 8.08 46.544 0.186 7.17 43.7 10.97
5/8/2021 10:30:00 AM 8.08 46.544 0.187 7.17 54.74 10.98
5/8/2021 10:45:00 AM 8.09 46.562 0.188 7.18 36.85 10.98
5/8/2021 11:00:00 AM 8.1 46.58 0.19 7.18 33.94 10.98
5/8/2021 11:15:00 AM 8.11 46.598 0.192 7.19 34.89 10.99
5/8/2021 11:30:00 AM 8.14 46.652 0.194 7.19 39.08 10.99
5/8/2021 11:45:00 AM 8.16 46.688 0.196 7.2 33.65 10.99
5/8/2021 12:00:00 PM 8.19 46.742 0.198 7.21 34.23 11
5/8/2021 12:15:00 PM 8.22 46.796 0.199 7.22 27.05 11.01
5/8/2021 12:30:00 PM 8.27 46.886 0.201 7.24 29.89 11.02
5/8/2021 12:45:00 PM 8.32 46.976 0.202 7.25 20.7 11.05
5/8/2021 1:00:00 PM 8.36 47.048 0.204 7.27 24.88 11.06
5/8/2021 1:15:00 PM 8.41 47.138 0.206 7.27 23.56 11.09
5/8/2021 1:30:00 PM 8.45 47.21 0.207 7.28 20.97 11.11
5/8/2021 1:45:00 PM 8.5 47.3 0.209 7.28 19.4 11.12
5/8/2021 2:00:00 PM 8.55 47.39 0.21 7.27 29 11.14
5/8/2021 2:15:00 PM 8.61 47.498 0.211 7.28 21.16 11.14
5/8/2021 2:30:00 PM 8.67 47.606 0.213 7.29 21.32 11.15
5/8/2021 2:45:00 PM 8.72 47.696 0.214 7.3 22.88 11.17
5/8/2021 3:00:00 PM 8.75 47.75 0.216 7.31 18.75 11.19
5/8/2021 3:15:00 PM 8.88 47.984 0.217 7.32 20.6 11.22
5/8/2021 3:30:00 PM 8.91 48.038 0.218 7.33 17.2 11.21
5/8/2021 3:45:00 PM 8.95 48.11 0.22 7.34 23.05 11.23
5/8/2021 4:00:00 PM 9.02 48.236 0.221 7.35 20.79 11.25
5/8/2021 4:15:00 PM 9.06 48.308 0.223 7.35 15.81 11.24
5/8/2021 4:30:00 PM 9.13 48.434 0.224 7.37 15.76 11.26
5/8/2021 4:45:00 PM 9.25 48.65 0.225 7.38 15.18 11.3
5/8/2021 5:00:00 PM 9.31 48.758 0.227 7.39 14.81 11.29
5/8/2021 5:15:00 PM 9.41 48.938 0.228 7.4 14.13 11.31
5/8/2021 5:30:00 PM 9.47 49.046 0.229 7.41 14.27 11.32
5/8/2021 5:45:00 PM 9.52 49.136 0.23 7.41 13.35 11.31
5/8/2021 6:00:00 PM 9.57 49.226 0.231 7.42 13.59 11.29
5/8/2021 6:15:00 PM 9.62 49.316 0.232 7.43 13.3 11.27
5/8/2021 6:30:00 PM 9.69 49.442 0.233 7.43 13.36 11.24
5/8/2021 6:45:00 PM 9.76 49.568 0.234 7.43 13.34 11.22
5/8/2021 7:00:00 PM 9.81 49.658 0.235 7.43 12.9 11.2
5/8/2021 7:15:00 PM 9.84 49.712 0.236 7.43 12.72 11.18
5/8/2021 7:30:00 PM 9.86 49.748 0.237 7.43 12.57 11.14
5/8/2021 7:45:00 PM 9.89 49.802 0.238 7.43 12.48 11.09
5/8/2021 8:00:00 PM 9.89 49.802 0.239 7.43 12.22 11.04
5/8/2021 8:15:00 PM 9.9 49.82 0.24 7.42 12.26 10.98
5/8/2021 8:30:00 PM 9.92 49.856 0.24 7.41 12.23 10.92
5/8/2021 8:45:00 PM 9.94 49.892 0.241 7.4 12.36 10.86
5/8/2021 9:00:00 PM 9.95 49.91 0.242 7.4 12.06 10.8
5/8/2021 9:15:00 PM 9.94 49.892 0.243 7.39 11.99 10.73
5/8/2021 9:30:00 PM 9.93 49.874 0.244 7.38 12.04 10.69
5/8/2021 9:45:00 PM 9.91 49.838 0.245 7.37 11.89 10.64
5/8/2021 10:00:00 PM 9.88 49.784 0.246 7.37 11.88 10.59
5/8/2021 10:15:00 PM 9.84 49.712 0.246 7.36 11.98 10.55
5/8/2021 10:30:00 PM 9.81 49.658 0.247 7.34 12.25 10.51
5/8/2021 10:45:00 PM 9.77 49.586 0.247 7.34 11.59 10.49
5/8/2021 11:00:00 PM 9.73 49.514 0.247 7.33 11.86 10.47
5/8/2021 11:15:00 PM 9.69 49.442 0.248 7.33 11.78 10.46
5/8/2021 11:30:00 PM 9.64 49.352 0.248 7.32 11.69 10.45
5/8/2021 11:45:00 PM 9.59 49.262 0.249 7.33 11.66 10.45
5/9/2021 12:00:00 AM 9.54 49.172 0.25 7.32 11.5 10.44
5/9/2021 12:15:00 AM 9.48 49.064 0.25 7.32 11.24 10.44
5/9/2021 12:30:00 AM 9.42 48.956 0.251 7.32 11.47 10.44
5/9/2021 12:45:00 AM 9.37 48.866 0.251 7.32 11.09 10.45
5/9/2021 1:00:00 AM 9.32 48.776 0.252 7.31 11.17 10.45
5/9/2021 1:15:00 AM 9.26 48.668 0.252 7.31 11.14 10.46
5/9/2021 1:30:00 AM 9.19 48.542 0.253 7.31 11.35 10.47
5/9/2021 1:45:00 AM 9.13 48.434 0.253 7.31 11.2 10.48
5/9/2021 2:00:00 AM 9.06 48.308 0.253 7.31 11.02 10.49
5/9/2021 2:15:00 AM 8.99 48.182 0.254 7.31 10.59 10.51
5/9/2021 2:30:00 AM 8.92 48.056 0.254 7.31 10.34 10.52
5/9/2021 2:45:00 AM 8.85 47.93 0.255 7.31 10.63 10.53
5/9/2021 3:00:00 AM 8.79 47.822 0.255 7.3 10.56 10.54
5/9/2021 3:15:00 AM 8.73 47.714 0.256 7.3 10.52 10.56
5/9/2021 3:30:00 AM 8.66 47.588 0.256 7.3 10.3 10.58
5/9/2021 3:45:00 AM 8.6 47.48 0.257 7.3 10.52 10.59
5/9/2021 4:00:00 AM 8.53 47.354 0.257 7.3 10.29 10.61
5/9/2021 4:15:00 AM 8.45 47.21 0.257 7.31 10.51 10.62
5/9/2021 4:30:00 AM 8.38 47.084 0.258 7.3 9.65 10.64
5/9/2021 4:45:00 AM 8.31 46.958 0.258 7.3 10.13 10.66
5/9/2021 5:00:00 AM 8.24 46.832 0.259 7.31 10.07 10.67
5/9/2021 5:15:00 AM 8.17 46.706 0.259 7.3 10.25 10.69
5/9/2021 5:30:00 AM 8.11 46.598 0.259 7.3 9.9 10.71
5/9/2021 5:45:00 AM 8.04 46.472 0.259 7.3 9.91 10.73
5/9/2021 6:00:00 AM 7.98 46.364 0.259 7.3 10.05 10.75
5/9/2021 6:15:00 AM 7.91 46.238 0.26 7.3 9.81 10.77
5/9/2021 6:30:00 AM 7.86 46.148 0.26 7.3 9.85 10.8
5/9/2021 6:45:00 AM 7.8 46.04 0.26 7.3 9.53 10.82
5/9/2021 7:00:00 AM 7.76 45.968 0.261 7.31 9.43 10.86
5/9/2021 7:15:00 AM 7.72 45.896 0.262 7.31 9.02 10.9
5/9/2021 7:30:00 AM 7.68 45.824 0.263 7.31 8.59 10.93
5/9/2021 7:45:00 AM 7.65 45.77 0.263 7.3 8.71 10.96
5/9/2021 8:00:00 AM 7.62 45.716 0.264 7.31 8.7 11.02
5/9/2021 8:15:00 AM 7.6 45.68 0.264 7.32 8.17 11.07
5/9/2021 8:30:00 AM 7.6 45.68 0.265 7.33 8.3 11.14
5/9/2021 8:45:00 AM 7.59 45.662 0.265 7.34 8.25 11.19
5/9/2021 9:00:00 AM 7.61 45.698 0.265 7.35 7.84 11.28
5/9/2021 9:15:00 AM 7.64 45.752 0.265 7.37 7.52 11.37
5/9/2021 9:30:00 AM 7.7 45.86 0.266 7.39 7.95 11.47
5/9/2021 9:45:00 AM 7.77 45.986 0.266 7.41 7.42 11.56
5/9/2021 10:00:00 AM 7.83 46.094 0.266 7.42 7.56 11.64
5/9/2021 10:15:00 AM 7.91 46.238 0.267 7.44 7.27 11.73
5/9/2021 10:30:00 AM 7.97 46.346 0.267 7.46 7.31 11.8
5/9/2021 10:45:00 AM 8.04 46.472 0.268 7.48 6.92 11.86
5/9/2021 11:00:00 AM 8.12 46.616 0.269 7.5 7.03 11.92
5/9/2021 11:15:00 AM 8.21 46.778 0.269 7.52 6.93 11.98
5/9/2021 11:30:00 AM 8.31 46.958 0.27 7.53 6.87 12.03
5/9/2021 11:45:00 AM 8.39 47.102 0.27 7.55 6.86 12.07
5/9/2021 12:00:00 PM 8.46 47.228 0.27 7.56 6.78 12.1
5/9/2021 12:15:00 PM 8.52 47.336 0.271 7.57 6.55 12.12
5/9/2021 12:30:00 PM 8.58 47.444 0.271 7.59 6.68 12.14
5/9/2021 12:45:00 PM 8.64 47.552 0.271 7.6 6.62 12.15
5/9/2021 1:00:00 PM 8.71 47.678 0.272 7.61 6.36 12.16
5/9/2021 1:15:00 PM 8.78 47.804 0.272 7.62 6.5 12.17
5/9/2021 1:30:00 PM 8.84 47.912 0.272 7.63 6.48 12.15
5/9/2021 1:45:00 PM 8.88 47.984 0.272 7.63 6.47 12.12
5/9/2021 2:00:00 PM 8.93 48.074 0.273 7.64 6.27 12.12
5/9/2021 2:15:00 PM 8.98 48.164 0.273 7.64 6.42 12.1
5/9/2021 2:30:00 PM 9.01 48.218 0.273 7.65 6.18 12.07
5/9/2021 2:45:00 PM 9.04 48.272 0.273 7.65 6.29 12.04
5/9/2021 3:00:00 PM 9.06 48.308 0.274 7.65 6.11 12.01
5/9/2021 3:15:00 PM 9.08 48.344 0.274 7.65 6.1 11.97
5/9/2021 3:30:00 PM 9.1 48.38 0.274 7.64 6.41 11.92
5/9/2021 3:45:00 PM 9.13 48.434 0.274 7.64 6.17 11.88
5/9/2021 4:00:00 PM 9.16 48.488 0.274 7.64 6.36 11.84
5/9/2021 4:15:00 PM 9.17 48.506 0.274 7.63 6.3 11.78
5/9/2021 4:30:00 PM 9.19 48.542 0.274 7.62 6.42 11.71
5/9/2021 4:45:00 PM 9.2 48.56 0.274 7.62 6.35 11.65
5/9/2021 5:00:00 PM 9.2 48.56 0.274 7.61 6.19 11.6
5/9/2021 5:15:00 PM 9.21 48.578 0.275 7.6 6.03 11.55
5/9/2021 5:30:00 PM 9.2 48.56 0.275 7.59 6.24 11.49
5/9/2021 5:45:00 PM 9.2 48.56 0.275 7.58 6.61 11.44
5/9/2021 6:00:00 PM 9.19 48.542 0.274 7.56 6.81 11.39
5/9/2021 6:15:00 PM 9.18 48.524 0.275 7.55 7.28 11.33
5/9/2021 6:30:00 PM 9.18 48.524 0.274 7.54 7.37 11.27
5/9/2021 6:45:00 PM 9.16 48.488 0.274 7.52 7.71 11.2
5/9/2021 7:00:00 PM 9.15 48.47 0.274 7.51 7.98 11.14
5/9/2021 7:15:00 PM 9.14 48.452 0.274 7.49 8.39 11.07
5/9/2021 7:30:00 PM 9.13 48.434 0.273 7.48 8.64 11.01
5/9/2021 7:45:00 PM 9.12 48.416 0.273 7.46 9.13 10.95
5/9/2021 8:00:00 PM 9.11 48.398 0.272 7.45 9.97 10.9
5/9/2021 8:15:00 PM 9.08 48.344 0.271 7.44 10.81 10.85
5/9/2021 8:30:00 PM 9.05 48.29 0.27 7.42 12.1 10.8
5/9/2021 8:45:00 PM 9.01 48.218 0.268 7.4 13.12 10.76
5/9/2021 9:00:00 PM 8.97 48.146 0.263 7.39 14.19 10.73
5/9/2021 9:15:00 PM 8.91 48.038 0.258 7.37 15.53 10.7
5/9/2021 9:30:00 PM 8.85 47.93 0.254 7.36 16.93 10.68
5/9/2021 9:45:00 PM 8.78 47.804 0.251 7.34 25.9 10.68
5/9/2021 10:00:00 PM 8.71 47.678 0.249 7.33 24.27 10.68
5/9/2021 10:15:00 PM 8.63 47.534 0.247 7.32 29.46 10.68
5/9/2021 10:30:00 PM 8.54 47.372 0.239 7.3 38.58 10.7
5/9/2021 10:45:00 PM 8.44 47.192 0.229 7.3 69.07 10.73
5/9/2021 11:00:00 PM 8.35 47.03 0.218 7.29 50.04 10.77
5/9/2021 11:15:00 PM 8.25 46.85 0.208 7.28 59.19 10.81
5/9/2021 11:30:00 PM 8.17 46.706 0.199 7.26 65.16 10.86
5/9/2021 11:45:00 PM 8.09 46.562 0.192 7.25 81.54 10.91
5/10/2021 12:00:00 AM 8.03 46.454 0.186 7.24 92.53 10.94
5/10/2021 12:15:00 AM 7.96 46.328 0.18 7.22 102.72 10.97
5/10/2021 12:30:00 AM 7.91 46.238 0.175 7.2 87.94 11.01
5/10/2021 12:45:00 AM 7.85 46.13 0.169 7.16 112.15 11.05
5/10/2021 1:00:00 AM 7.81 46.058 0.165 7.15 115.95 11.06
5/10/2021 1:15:00 AM 7.76 45.968 0.16 7.13 89.9 11.08
5/10/2021 1:30:00 AM 7.72 45.896 0.157 7.12 112.03 11.1
5/10/2021 1:45:00 AM 7.69 45.842 0.154 7.11 129.51 11.11
5/10/2021 2:00:00 AM 7.67 45.806 0.153 7.1 107.15 11.13
5/10/2021 2:15:00 AM 7.65 45.77 0.153 7.1 139.41 11.12
5/10/2021 2:30:00 AM 7.63 45.734 0.154 7.11 128.45 11.13
5/10/2021 2:45:00 AM 7.63 45.734 0.157 7.12 139.71 11.13
5/10/2021 3:00:00 AM 7.62 45.716 0.158 7.13 114.09 11.11
5/10/2021 3:15:00 AM 7.61 45.698 0.157 7.12 129.37 11.12
5/10/2021 3:30:00 AM 7.6 45.68 0.154 7.11 106.22 11.13
5/10/2021 3:45:00 AM 7.58 45.644 0.151 7.11 166.86 11.13
5/10/2021 4:00:00 AM 7.57 45.626 0.148 7.09 153.4 11.15
5/10/2021 4:15:00 AM 7.56 45.608 0.146 7.09 116.27 11.14
5/10/2021 4:30:00 AM 7.56 45.608 0.145 7.08 163.51 11.14
5/10/2021 4:45:00 AM 7.55 45.59 0.144 7.08 130.14 11.15
5/10/2021 5:00:00 AM 7.54 45.572 0.143 7.07 94.57 11.15
5/10/2021 5:15:00 AM 7.53 45.554 0.142 7.07 110.23 11.15
5/10/2021 5:30:00 AM 7.52 45.536 0.142 7.05 132.3 11.15
5/10/2021 5:45:00 AM 7.52 45.536 0.142 7.05 87.25 11.14
5/10/2021 6:00:00 AM 7.51 45.518 0.142 7.05 97.23 11.13
5/10/2021 6:15:00 AM 7.51 45.518 0.142 7.04 79.71 11.13
5/10/2021 6:30:00 AM 7.5 45.5 0.143 7.04 88.85 11.13
5/10/2021 6:45:00 AM 7.5 45.5 0.144 7.04 90.37 11.12
5/10/2021 7:00:00 AM 7.5 45.5 0.145 7.04 80.42 11.1
5/10/2021 7:15:00 AM 7.51 45.518 0.146 7.04 105.55 11.09
5/10/2021 7:30:00 AM 7.51 45.518 0.147 7.04 96.49 11.09
5/10/2021 7:45:00 AM 7.52 45.536 0.149 7.04 53.96 11.08
5/10/2021 8:00:00 AM 7.52 45.536 0.15 7.04 47.94 11.08
5/10/2021 8:15:00 AM 7.53 45.554 0.151 7.05 50.69 11.09
5/10/2021 8:30:00 AM 7.55 45.59 0.153 7.06 55.77 11.09
5/10/2021 8:45:00 AM 7.57 45.626 0.154 7.07 44.43 11.09
5/10/2021 9:00:00 AM 7.59 45.662 0.156 7.07 47.26 11.09
5/10/2021 9:15:00 AM 7.61 45.698 0.157 7.07 52.43 11.09
5/10/2021 9:30:00 AM 7.64 45.752 0.159 7.08 48.11 11.1
5/10/2021 9:45:00 AM 7.67 45.806 0.16 7.09 43.15 11.1
5/10/2021 10:00:00 AM 7.72 45.896 0.161 7.09 47.5 11.11
5/10/2021 10:15:00 AM 7.79 46.022 0.163 7.1 31.87 11.12
5/10/2021 10:30:00 AM 7.86 46.148 0.165 7.11 38.9 11.13
5/10/2021 10:45:00 AM 7.93 46.274 0.166 7.12 29.73 11.14
5/10/2021 11:00:00 AM 8.05 46.49 0.168 7.13 34.67 11.16
5/10/2021 11:15:00 AM 8.19 46.742 0.169 7.14 35.01 11.17
5/10/2021 11:30:00 AM 8.32 46.976 0.171 7.15 33.93 11.18
5/10/2021 11:45:00 AM 8.41 47.138 0.172 7.16 28.4 11.19
5/10/2021 12:00:00 PM 8.54 47.372 0.174 7.17 25.62 11.19
5/10/2021 12:15:00 PM 8.67 47.606 0.175 7.18 34.2 11.19
5/10/2021 12:30:00 PM 8.76 47.768 0.176 7.2 24.79 11.2
5/10/2021 12:45:00 PM 8.97 48.146 0.177 7.21 26.24 11.2
5/10/2021 1:00:00 PM 9.24 48.632 0.178 7.21 19.83 11.21
5/10/2021 1:15:00 PM 9.45 49.01 0.179 7.23 25.53 11.19
5/10/2021 1:30:00 PM 9.59 49.262 0.18 7.23 34.25 11.17
5/10/2021 1:45:00 PM 9.67 49.406 0.181 7.25 27.79 11.17
5/10/2021 2:00:00 PM 9.76 49.568 0.181 7.25 22.35 11.16
5/10/2021 2:15:00 PM 9.78 49.604 0.182 7.26 25.8 11.13
5/10/2021 2:30:00 PM 9.82 49.676 0.183 7.26 20.67 11.11
5/10/2021 2:45:00 PM 9.92 49.856 0.184 7.27 21.33 11.08
5/10/2021 3:00:00 PM 10.05 50.09 0.185 7.27 23.1 11.05
5/10/2021 3:15:00 PM 10.2 50.36 0.185 7.28 19.74 11.02
5/10/2021 3:30:00 PM 10.27 50.486 0.186 7.29 21.34 10.99
5/10/2021 3:45:00 PM 10.32 50.576 0.187 7.29 22.25 10.97
5/10/2021 4:00:00 PM 10.37 50.666 0.187 7.3 20.88 10.96
5/10/2021 4:15:00 PM 10.46 50.828 0.188 7.3 18.84 10.95
5/10/2021 4:30:00 PM 10.54 50.972 0.189 7.3 19.71 10.93
5/10/2021 4:45:00 PM 10.58 51.044 0.19 7.31 26.43 10.9
5/10/2021 5:00:00 PM 10.61 51.098 0.191 7.31 27.88 10.88
5/10/2021 5:15:00 PM 10.67 51.206 0.191 7.32 20.67 10.88
5/10/2021 5:30:00 PM 10.72 51.296 0.192 7.32 18.03 10.86
5/10/2021 5:45:00 PM 10.79 51.422 0.192 7.32 19.31 10.85
5/10/2021 6:00:00 PM 10.83 51.494 0.193 7.32 25.19 10.83
5/10/2021 6:15:00 PM 10.87 51.566 0.194 7.33 17.67 10.8
5/10/2021 6:30:00 PM 10.88 51.584 0.194 7.32 25.78 10.78
5/10/2021 6:45:00 PM 10.86 51.548 0.195 7.32 19.19 10.76
5/10/2021 7:00:00 PM 10.81 51.458 0.196 7.32 17.42 10.74
5/10/2021 7:15:00 PM 10.76 51.368 0.196 7.32 17.58 10.72
5/10/2021 7:30:00 PM 10.72 51.296 0.197 7.32 17.91 10.7
5/10/2021 7:45:00 PM 10.69 51.242 0.198 7.32 17.42 10.69
5/10/2021 8:00:00 PM 10.65 51.17 0.198 7.31 15.52 10.66
5/10/2021 8:15:00 PM 10.61 51.098 0.199 7.31 21.68 10.64
5/10/2021 8:30:00 PM 10.55 50.99 0.2 7.3 16.9 10.61
5/10/2021 8:45:00 PM 10.49 50.882 0.201 7.3 18.73 10.58
5/10/2021 9:00:00 PM 10.43 50.774 0.202 7.29 17.91 10.55
5/10/2021 9:15:00 PM 10.36 50.648 0.202 7.29 17.24 10.53
5/10/2021 9:30:00 PM 10.29 50.522 0.203 7.28 15.81 10.52
5/10/2021 9:45:00 PM 10.2 50.36 0.204 7.27 17.47 10.49
5/10/2021 10:00:00 PM 10.1 50.18 0.205 7.27 16.52 10.49
5/10/2021 10:15:00 PM 9.99 49.982 0.206 7.26 17.52 10.49
5/10/2021 10:30:00 PM 9.9 49.82 0.206 7.26 17.49 10.49
5/10/2021 10:45:00 PM 9.81 49.658 0.207 7.25 15.56 10.48
5/10/2021 11:00:00 PM 9.73 49.514 0.207 7.25 18.02 10.48
5/10/2021 11:15:00 PM 9.65 49.37 0.208 7.25 16.79 10.49
5/10/2021 11:30:00 PM 9.58 49.244 0.209 7.25 17.18 10.49
5/10/2021 11:45:00 PM 9.5 49.1 0.21 7.25 17.01 10.5
5/11/2021 12:00:00 AM 9.43 48.974 0.21 7.24 17.16 10.51
5/11/2021 12:15:00 AM 9.35 48.83 0.211 7.24 31.59 10.51
5/11/2021 12:30:00 AM 9.28 48.704 0.212 7.24 27.74 10.52
5/11/2021 12:45:00 AM 9.21 48.578 0.212 7.23 13.03 10.53
5/11/2021 1:00:00 AM 9.14 48.452 0.213 7.23 18 10.55
5/11/2021 1:15:00 AM 9.07 48.326 0.214 7.23 15.29 10.56
5/11/2021 1:30:00 AM 9 48.2 0.214 7.23 16.28 10.57
5/11/2021 1:45:00 AM 8.94 48.092 0.215 7.23 16.77 10.58
5/11/2021 2:00:00 AM 8.87 47.966 0.216 7.23 15.62 10.59
5/11/2021 2:15:00 AM 8.79 47.822 0.216 7.23 15.68 10.62
5/11/2021 2:30:00 AM 8.73 47.714 0.217 7.23 15.54 10.63
5/11/2021 2:45:00 AM 8.65 47.57 0.218 7.23 17.47 10.65
5/11/2021 3:00:00 AM 8.57 47.426 0.218 7.23 27.36 10.67
5/11/2021 3:15:00 AM 8.5 47.3 0.219 7.23 15.17 10.69
5/11/2021 3:30:00 AM 8.42 47.156 0.219 7.23 14.97 10.71
5/11/2021 3:45:00 AM 8.35 47.03 0.22 7.23 14.83 10.73
5/11/2021 4:00:00 AM 8.28 46.904 0.221 7.23 14.63 10.74
5/11/2021 4:15:00 AM 8.21 46.778 0.221 7.23 13.59 10.75
5/11/2021 4:30:00 AM 8.14 46.652 0.222 7.23 16.02 10.77
5/11/2021 4:45:00 AM 8.08 46.544 0.222 7.23 14.35 10.79
5/11/2021 5:00:00 AM 8.01 46.418 0.223 7.23 13.81 10.81
5/11/2021 5:15:00 AM 7.95 46.31 0.223 7.23 14.16 10.82
5/11/2021 5:30:00 AM 7.88 46.184 0.224 7.23 14.1 10.83
5/11/2021 5:45:00 AM 7.82 46.076 0.225 7.23 14.08 10.84
5/11/2021 6:00:00 AM 7.76 45.968 0.225 7.23 15.36 10.86
5/11/2021 6:15:00 AM 7.71 45.878 0.226 7.23 14.28 10.87
5/11/2021 6:30:00 AM 7.65 45.77 0.227 7.23 13.18 10.88
5/11/2021 6:45:00 AM 7.6 45.68 0.227 7.23 13.54 10.9
5/11/2021 7:00:00 AM 7.55 45.59 0.228 7.23 14.03 10.93
5/11/2021 7:15:00 AM 7.5 45.5 0.228 7.23 15.03 10.95
5/11/2021 7:30:00 AM 7.45 45.41 0.228 7.23 15.85 10.97
5/11/2021 7:45:00 AM 7.41 45.338 0.229 7.24 16.24 10.98
5/11/2021 8:00:00 AM 7.37 45.266 0.229 7.24 14.8 11
5/11/2021 8:15:00 AM 7.34 45.212 0.23 7.24 14.15 11.04
5/11/2021 8:30:00 AM 7.31 45.158 0.23 7.24 13.96 11.06
5/11/2021 8:45:00 AM 7.3 45.14 0.231 7.25 13.65 11.11
5/11/2021 9:00:00 AM 7.31 45.158 0.232 7.26 12.96 11.16
5/11/2021 9:15:00 AM 7.34 45.212 0.232 7.27 12.54 11.22
5/11/2021 9:30:00 AM 7.4 45.32 0.233 7.28 12.37 11.29
5/11/2021 9:45:00 AM 7.48 45.464 0.234 7.29 11.61 11.35
5/11/2021 10:00:00 AM 7.58 45.644 0.234 7.3 11.65 11.41
5/11/2021 10:15:00 AM 7.66 45.788 0.235 7.31 11.12 11.45
5/11/2021 10:30:00 AM 7.72 45.896 0.235 7.33 11.2 11.49
5/11/2021 10:45:00 AM 7.83 46.094 0.235 7.34 11.31 11.56
5/11/2021 11:00:00 AM 7.95 46.31 0.235 7.35 10.93 11.61
5/11/2021 11:15:00 AM 8.08 46.544 0.236 7.37 10.62 11.65
5/11/2021 11:30:00 AM 8.16 46.688 0.236 7.38 10.61 11.67
5/11/2021 11:45:00 AM 8.24 46.832 0.236 7.39 10.28 11.7
5/11/2021 12:00:00 PM 8.33 46.994 0.236 7.39 10.49 11.72
5/11/2021 12:15:00 PM 8.44 47.192 0.237 7.41 10.04 11.74
5/11/2021 12:30:00 PM 8.56 47.408 0.237 7.41 10.18 11.75
5/11/2021 12:45:00 PM 8.72 47.696 0.238 7.43 9.9 11.76
5/11/2021 1:00:00 PM 8.81 47.858 0.238 7.43 10.21 11.75
5/11/2021 1:15:00 PM 8.83 47.894 0.239 7.43 10.39 11.7
5/11/2021 1:30:00 PM 8.85 47.93 0.239 7.44 10.04 11.69
5/11/2021 1:45:00 PM 8.94 48.092 0.24 7.44 9.87 11.69
5/11/2021 2:00:00 PM 8.99 48.182 0.24 7.44 9.79 11.65
5/11/2021 2:15:00 PM 9.05 48.29 0.241 7.44 9.94 11.64
5/11/2021 2:30:00 PM 9.1 48.38 0.241 7.45 9.88 11.64
5/11/2021 2:45:00 PM 9.1 48.38 0.242 7.45 9.31 11.61
5/11/2021 3:00:00 PM 9.13 48.434 0.242 7.45 9.6 11.59
5/11/2021 3:15:00 PM 9.22 48.596 0.243 7.46 9.58 11.59
5/11/2021 3:30:00 PM 9.3 48.74 0.243 7.46 9.8 11.55
5/11/2021 3:45:00 PM 9.38 48.884 0.244 7.46 10.18 11.55
5/11/2021 4:00:00 PM 9.42 48.956 0.244 7.47 10.22 11.54
5/11/2021 4:15:00 PM 9.46 49.028 0.245 7.47 9.49 11.53
5/11/2021 4:30:00 PM 9.52 49.136 0.245 7.47 9.74 11.51
5/11/2021 4:45:00 PM 9.57 49.226 0.246 7.47 9.61 11.5
5/11/2021 5:00:00 PM 9.58 49.244 0.246 7.47 10.62 11.46
5/11/2021 5:15:00 PM 9.62 49.316 0.247 7.47 12.01 11.44
5/11/2021 5:30:00 PM 9.64 49.352 0.247 7.47 11.72 11.42
5/11/2021 5:45:00 PM 9.67 49.406 0.248 7.47 11.7 11.4
5/11/2021 6:00:00 PM 9.71 49.478 0.249 7.47 11.4 11.37
5/11/2021 6:15:00 PM 9.76 49.568 0.249 7.47 12.2 11.36
5/11/2021 6:30:00 PM 9.83 49.694 0.25 7.47 10.96 11.31
5/11/2021 6:45:00 PM 9.89 49.802 0.251 7.47 11.51 11.25
5/11/2021 7:00:00 PM 9.96 49.928 0.251 7.47 11.2 11.22
5/11/2021 7:15:00 PM 10.02 50.036 0.251 7.47 10.65 11.16
5/11/2021 7:30:00 PM 10.06 50.108 0.252 7.46 10.52 11.09
5/11/2021 7:45:00 PM 10.07 50.126 0.253 7.45 10.56 11.03
5/11/2021 8:00:00 PM 10.07 50.126 0.253 7.45 10.05 10.97
5/11/2021 8:15:00 PM 10.06 50.108 0.254 7.44 10.79 10.9
5/11/2021 8:30:00 PM 10.04 50.072 0.254 7.43 10.81 10.84
5/11/2021 8:45:00 PM 10 50 0.255 7.42 10.99 10.78
5/11/2021 9:00:00 PM 9.96 49.928 0.256 7.41 10.58 10.74
5/11/2021 9:15:00 PM 9.92 49.856 0.256 7.4 10.74 10.7
5/11/2021 9:30:00 PM 9.88 49.784 0.257 7.39 10.73 10.65
5/11/2021 9:45:00 PM 9.83 49.694 0.258 7.39 10.67 10.62
5/11/2021 10:00:00 PM 9.77 49.586 0.258 7.38 10.8 10.59
5/11/2021 10:15:00 PM 9.71 49.478 0.259 7.37 10.19 10.56
5/11/2021 10:30:00 PM 9.66 49.388 0.26 7.36 10.65 10.53
5/11/2021 10:45:00 PM 9.61 49.298 0.26 7.36 9.97 10.5
5/11/2021 11:00:00 PM 9.56 49.208 0.261 7.35 10.28 10.48
5/11/2021 11:15:00 PM 9.51 49.118 0.261 7.35 10.26 10.47
5/11/2021 11:30:00 PM 9.45 49.01 0.262 7.35 10.02 10.46
5/11/2021 11:45:00 PM 9.39 48.902 0.262 7.34 10.07 10.46
5/12/2021 12:00:00 AM 9.32 48.776 0.263 7.34 9.93 10.46
5/12/2021 12:15:00 AM 9.25 48.65 0.264 7.33 10.36 10.46
5/12/2021 12:30:00 AM 9.18 48.524 0.264 7.33 10.82 10.46
5/12/2021 12:45:00 AM 9.11 48.398 0.265 7.33 10.25 10.47
5/12/2021 1:00:00 AM 9.03 48.254 0.266 7.33 10.04 10.48
5/12/2021 1:15:00 AM 8.95 48.11 0.266 7.32 9.61 10.49
5/12/2021 1:30:00 AM 8.87 47.966 0.267 7.32 9.68 10.51
5/12/2021 1:45:00 AM 8.78 47.804 0.267 7.32 9.75 10.52
5/12/2021 2:00:00 AM 8.7 47.66 0.268 7.32 10.03 10.55
5/12/2021 2:15:00 AM 8.61 47.498 0.268 7.32 10.21 10.55
5/12/2021 2:30:00 AM 8.53 47.354 0.269 7.32 9.56 10.57
5/12/2021 2:45:00 AM 8.46 47.228 0.269 7.32 9.72 10.59
5/12/2021 3:00:00 AM 8.38 47.084 0.27 7.32 9.43 10.61
5/12/2021 3:15:00 AM 8.3 46.94 0.27 7.32 9.55 10.63
5/12/2021 3:30:00 AM 8.22 46.796 0.27 7.32 9.22 10.66
5/12/2021 3:45:00 AM 8.13 46.634 0.271 7.32 9.22 10.68
5/12/2021 4:00:00 AM 8.05 46.49 0.271 7.31 9.61 10.7
5/12/2021 4:15:00 AM 7.98 46.364 0.272 7.31 9.26 10.72
5/12/2021 4:30:00 AM 7.91 46.238 0.272 7.32 9.74 10.74
5/12/2021 4:45:00 AM 7.85 46.13 0.273 7.31 8.13 10.77
5/12/2021 5:00:00 AM 7.78 46.004 0.273 7.31 7.94 10.79
5/12/2021 5:15:00 AM 7.73 45.914 0.273 7.31 8.36 10.81
5/12/2021 5:30:00 AM 7.67 45.806 0.274 7.31 8.22 10.82
5/12/2021 5:45:00 AM 7.6 45.68 0.274 7.31 8.57 10.85
5/12/2021 6:00:00 AM 7.54 45.572 0.274 7.31 8.16 10.87
5/12/2021 6:15:00 AM 7.48 45.464 0.275 7.32 8.26 10.89
5/12/2021 6:30:00 AM 7.42 45.356 0.275 7.32 8.34 10.91
5/12/2021 6:45:00 AM 7.37 45.266 0.276 7.32 8.06 10.93
5/12/2021 7:00:00 AM 7.32 45.176 0.276 7.32 7.88 10.97
5/12/2021 7:15:00 AM 7.27 45.086 0.277 7.32 8.29 10.99
5/12/2021 7:30:00 AM 7.23 45.014 0.278 7.33 7.77 11.02
5/12/2021 7:45:00 AM 7.19 44.942 0.278 7.33 7.61 11.05
5/12/2021 8:00:00 AM 7.16 44.888 0.279 7.33 6.5 11.08
5/12/2021 8:15:00 AM 7.13 44.834 0.28 7.33 21.88 11.11
5/12/2021 8:30:00 AM 7.1 44.78 0.28 7.33 7.56 11.15
5/12/2021 8:45:00 AM 7.09 44.762 0.28 7.33 7.15 11.19
5/12/2021 9:00:00 AM 7.11 44.798 0.281 7.34 6.84 11.26
5/12/2021 9:15:00 AM 7.15 44.87 0.281 7.36 7.78 11.33
5/12/2021 9:30:00 AM 7.22 44.996 0.281 7.37 6.89 11.41
5/12/2021 9:45:00 AM 7.33 45.194 0.281 7.38 6.86 11.49
5/12/2021 10:00:00 AM 7.46 45.428 0.281 7.4 6.94 11.57
5/12/2021 10:15:00 AM 7.6 45.68 0.281 7.41 7.76 11.65
5/12/2021 10:30:00 AM 7.76 45.968 0.282 7.43 12.98 11.71
5/12/2021 10:45:00 AM 7.94 46.292 0.282 7.44 9.97 11.79
5/12/2021 11:00:00 AM 8.15 46.67 0.282 7.46 6.16 11.85
5/12/2021 11:15:00 AM 8.32 46.976 0.282 7.47 7.59 11.88
5/12/2021 11:30:00 AM 8.48 47.264 0.282 7.49 6.38 11.91
5/12/2021 11:45:00 AM 8.65 47.57 0.283 7.5 6.32 11.92
5/12/2021 12:00:00 PM 8.88 47.984 0.283 7.51 7.77 11.96
5/12/2021 12:15:00 PM 9.05 48.29 0.284 7.52 6.17 11.97
5/12/2021 12:30:00 PM 9.25 48.65 0.284 7.53 5.92 11.97
5/12/2021 12:45:00 PM 9.42 48.956 0.285 7.54 6.02 11.96
5/12/2021 1:00:00 PM 9.55 49.19 0.285 7.55 9.22 11.95
5/12/2021 1:15:00 PM 9.78 49.604 0.285 7.56 5.82 11.96
5/12/2021 1:30:00 PM 9.93 49.874 0.285 7.56 6.05 11.94
5/12/2021 1:45:00 PM 9.99 49.982 0.285 7.57 5.92 11.9
5/12/2021 2:00:00 PM 10.06 50.108 0.285 7.58 5.88 11.87
5/12/2021 2:15:00 PM 10.07 50.126 0.285 7.58 5.8 11.82
5/12/2021 2:30:00 PM 10.21 50.378 0.285 7.58 5.76 11.82
5/12/2021 2:45:00 PM 10.23 50.414 0.285 7.58 5.73 11.76
5/12/2021 3:00:00 PM 10.29 50.522 0.286 7.59 5.91 11.73
5/12/2021 3:15:00 PM 10.36 50.648 0.286 7.59 5.79 11.68
5/12/2021 3:30:00 PM 10.48 50.864 0.286 7.6 5.8 11.66
5/12/2021 3:45:00 PM 10.54 50.972 0.286 7.6 5.68 11.63
5/12/2021 4:00:00 PM 10.6 51.08 0.287 7.6 5.74 11.59
5/12/2021 4:15:00 PM 10.75 51.35 0.287 7.61 5.63 11.59
5/12/2021 4:30:00 PM 10.85 51.53 0.287 7.61 5.71 11.56
5/12/2021 4:45:00 PM 11 51.8 0.288 7.62 5.88 11.54
5/12/2021 5:00:00 PM 11.11 51.998 0.289 7.61 5.89 11.48
5/12/2021 5:15:00 PM 11.18 52.124 0.289 7.62 5.64 11.43
5/12/2021 5:30:00 PM 11.26 52.268 0.29 7.62 5.88 11.4
5/12/2021 5:45:00 PM 11.34 52.412 0.29 7.62 5.86 11.36
5/12/2021 6:00:00 PM 11.44 52.592 0.291 7.62 5.82 11.32
5/12/2021 6:15:00 PM 11.53 52.754 0.291 7.62 5.87 11.27
5/12/2021 6:30:00 PM 11.6 52.88 0.292 7.61 6.02 11.22
5/12/2021 6:45:00 PM 11.63 52.934 0.293 7.61 5.85 11.13
5/12/2021 7:00:00 PM 11.67 53.006 0.293 7.6 5.94 11.07
5/12/2021 7:15:00 PM 11.69 53.042 0.294 7.59 6.02 10.99
5/12/2021 7:30:00 PM 11.7 53.06 0.294 7.59 6.12 10.9
5/12/2021 7:45:00 PM 11.69 53.042 0.295 7.58 6.05 10.83
5/12/2021 8:00:00 PM 11.65 52.97 0.295 7.57 6 10.74
5/12/2021 8:15:00 PM 11.61 52.898 0.296 7.55 5.96 10.66
5/12/2021 8:30:00 PM 11.56 52.808 0.296 7.54 5.85 10.59
5/12/2021 8:45:00 PM 11.52 52.736 0.297 7.53 6.01 10.51
5/12/2021 9:00:00 PM 11.48 52.664 0.298 7.51 6.1 10.44
5/12/2021 9:15:00 PM 11.45 52.61 0.298 7.5 6.09 10.37
5/12/2021 9:30:00 PM 11.41 52.538 0.299 7.49 6.35 10.3
5/12/2021 9:45:00 PM 11.37 52.466 0.299 7.48 6.56 10.23
5/12/2021 10:00:00 PM 11.31 52.358 0.3 7.47 6.5 10.18
5/12/2021 10:15:00 PM 11.25 52.25 0.3 7.46 6.84 10.14
5/12/2021 10:30:00 PM 11.18 52.124 0.301 7.44 6.6 10.09
5/12/2021 10:45:00 PM 11.11 51.998 0.301 7.44 6.7 10.07
5/12/2021 11:00:00 PM 11.04 51.872 0.302 7.43 6.73 10.04
5/12/2021 11:15:00 PM 10.98 51.764 0.302 7.42 6.9 10.01
5/12/2021 11:30:00 PM 10.91 51.638 0.303 7.41 6.88 10
5/12/2021 11:45:00 PM 10.84 51.512 0.303 7.41 7.11 9.98
5/13/2021 12:00:00 AM 10.77 51.386 0.304 7.4 6.8 9.97
5/13/2021 12:15:00 AM 10.69 51.242 0.304 7.4 6.85 9.97
5/13/2021 12:30:00 AM 10.62 51.116 0.305 7.39 6.92 9.97
5/13/2021 12:45:00 AM 10.53 50.954 0.305 7.39 7.79 9.97
5/13/2021 1:00:00 AM 10.45 50.81 0.306 7.39 6.94 9.98
5/13/2021 1:15:00 AM 10.37 50.666 0.306 7.39 6.77 10
5/13/2021 1:30:00 AM 10.28 50.504 0.307 7.39 6.81 10.01
5/13/2021 1:45:00 AM 10.18 50.324 0.307 7.38 6.71 10.02
5/13/2021 2:00:00 AM 10.09 50.162 0.308 7.38 6.59 10.04
5/13/2021 2:15:00 AM 9.99 49.982 0.308 7.38 6.72 10.07
5/13/2021 2:30:00 AM 9.89 49.802 0.309 7.38 6.61 10.08
5/13/2021 2:45:00 AM 9.79 49.622 0.31 7.38 6.8 10.11
5/13/2021 3:00:00 AM 9.68 49.424 0.31 7.38 6.89 10.13
5/13/2021 3:15:00 AM 9.57 49.226 0.311 7.38 6.9 10.16
5/13/2021 3:30:00 AM 9.46 49.028 0.312 7.37 6.7 10.19
5/13/2021 3:45:00 AM 9.35 48.83 0.312 7.37 6.98 10.21
5/13/2021 4:00:00 AM 9.25 48.65 0.313 7.37 7.38 10.24
5/13/2021 4:15:00 AM 9.15 48.47 0.314 7.37 7.48 10.27
5/13/2021 4:30:00 AM 9.05 48.29 0.314 7.37 7.02 10.29
5/13/2021 4:45:00 AM 8.95 48.11 0.314 7.37 6.99 10.32
5/13/2021 5:00:00 AM 8.86 47.948 0.315 7.37 7.09 10.34
5/13/2021 5:15:00 AM 8.77 47.786 0.315 7.37 6.81 10.36
5/13/2021 5:30:00 AM 8.68 47.624 0.315 7.37 6.47 10.4
5/13/2021 5:45:00 AM 8.58 47.444 0.315 7.37 13.11 10.42
5/13/2021 6:00:00 AM 8.49 47.282 0.315 7.37 10.04 10.44
5/13/2021 6:15:00 AM 8.41 47.138 0.316 7.37 11.25 10.48
5/13/2021 6:30:00 AM 8.32 46.976 0.316 7.37 7.65 10.52
5/13/2021 6:45:00 AM 8.24 46.832 0.316 7.37 6.5 10.55
5/13/2021 7:00:00 AM 8.16 46.688 0.317 7.38 6.24 10.59
5/13/2021 7:15:00 AM 8.09 46.562 0.317 7.38 7.35 10.64
5/13/2021 7:30:00 AM 8.01 46.418 0.317 7.38 6.08 10.68
5/13/2021 7:45:00 AM 7.94 46.292 0.318 7.39 6.08 10.72
5/13/2021 8:00:00 AM 7.88 46.184 0.318 7.39 6.14 10.77
5/13/2021 8:15:00 AM 7.83 46.094 0.319 7.39 6.78 10.81
5/13/2021 8:30:00 AM 7.78 46.004 0.319 7.4 6.97 10.87
5/13/2021 8:45:00 AM 7.74 45.932 0.319 7.4 6.67 10.93
5/13/2021 9:00:00 AM 7.74 45.932 0.319 7.41 8.91 11.01
5/13/2021 9:15:00 AM 7.76 45.968 0.319 7.42 6.27 11.11
5/13/2021 9:30:00 AM 7.81 46.058 0.319 7.43 7.35 11.2
5/13/2021 9:45:00 AM 7.9 46.22 0.319 7.44 5.59 11.32
5/13/2021 10:00:00 AM 8.02 46.436 0.32 7.46 5.48 11.44
5/13/2021 10:15:00 AM 8.15 46.67 0.32 7.48 5.52 11.54
5/13/2021 10:30:00 AM 8.3 46.94 0.32 7.49 6.54 11.63
5/13/2021 10:45:00 AM 8.47 47.246 0.321 7.5 8.66 11.7
5/13/2021 11:00:00 AM 8.66 47.588 0.32 7.52 13.81 11.77
5/13/2021 11:15:00 AM 8.9 48.02 0.321 7.54 8.9 11.86
5/13/2021 11:30:00 AM 9.08 48.344 0.321 7.55 7.79 11.93
5/13/2021 11:45:00 AM 9.23 48.614 0.321 7.57 6.77 11.96
5/13/2021 12:00:00 PM 9.29 48.722 0.322 7.58 6.14 11.95
5/13/2021 12:15:00 PM 9.4 48.92 0.322 7.59 5.66 11.98
5/13/2021 12:30:00 PM 9.53 49.154 0.322 7.6 5.38 12.01
5/13/2021 12:45:00 PM 9.67 49.406 0.322 7.62 5.29 12.03
5/13/2021 1:00:00 PM 9.9 49.82 0.322 7.63 5.03 12.07
5/13/2021 1:15:00 PM 10.01 50.018 0.323 7.64 5.95 12.03
5/13/2021 1:30:00 PM 10.07 50.126 0.323 7.64 6.72 12
5/13/2021 1:45:00 PM 10.28 50.504 0.323 7.66 6.28 12.03
5/13/2021 2:00:00 PM 10.33 50.594 0.323 7.66 5.91 11.97
5/13/2021 2:15:00 PM 10.5 50.9 0.323 7.67 5.93 11.97
5/13/2021 2:30:00 PM 10.46 50.828 0.323 7.67 6.75 11.89
5/13/2021 2:45:00 PM 10.56 51.008 0.323 7.66 7.38 11.85
5/13/2021 3:00:00 PM 10.59 51.062 0.324 7.67 6.88 11.82
5/13/2021 3:15:00 PM 10.72 51.296 0.324 7.67 6.59 11.8
5/13/2021 3:30:00 PM 10.9 51.62 0.324 7.68 6.08 11.8
5/13/2021 3:45:00 PM 11.05 51.89 0.324 7.69 5.9 11.8
5/13/2021 4:00:00 PM 11.1 51.98 0.325 7.69 5.62 11.72
5/13/2021 4:15:00 PM 11.24 52.232 0.325 7.69 5.5 11.74
5/13/2021 4:30:00 PM 11.23 52.214 0.325 7.7 5.33 11.68
5/13/2021 4:45:00 PM 11.35 52.43 0.325 7.7 5.09 11.65
5/13/2021 5:00:00 PM 11.41 52.538 0.325 7.7 5.36 11.58
5/13/2021 5:15:00 PM 11.51 52.718 0.326 7.69 5.25 11.5
5/13/2021 5:30:00 PM 11.66 52.988 0.326 7.7 5.15 11.48
5/13/2021 5:45:00 PM 11.76 53.168 0.327 7.7 5.3 11.43
5/13/2021 6:00:00 PM 11.87 53.366 0.327 7.7 5.07 11.38
5/13/2021 6:15:00 PM 11.98 53.564 0.327 7.69 5.27 11.31
5/13/2021 6:30:00 PM 12.06 53.708 0.328 7.69 5 11.22
5/13/2021 6:45:00 PM 12.14 53.852 0.328 7.69 5.2 11.14
5/13/2021 7:00:00 PM 12.21 53.978 0.329 7.68 5.27 11.06
5/13/2021 7:15:00 PM 12.26 54.068 0.329 7.67 5.13 10.97
5/13/2021 7:30:00 PM 12.29 54.122 0.33 7.66 5.39 10.87
5/13/2021 7:45:00 PM 12.31 54.158 0.33 7.65 5.65 10.77
5/13/2021 8:00:00 PM 12.33 54.194 0.331 7.64 5.98 10.67
5/13/2021 8:15:00 PM 12.32 54.176 0.332 7.62 6.57 10.57
5/13/2021 8:30:00 PM 12.31 54.158 0.333 7.61 5.69 10.47
5/13/2021 8:45:00 PM 12.29 54.122 0.333 7.6 5.58 10.39
5/13/2021 9:00:00 PM 12.26 54.068 0.334 7.58 5.54 10.3
5/13/2021 9:15:00 PM 12.23 54.014 0.334 7.57 5.75 10.22
5/13/2021 9:30:00 PM 12.19 53.942 0.335 7.56 5.72 10.13
5/13/2021 9:45:00 PM 12.17 53.906 0.335 7.54 5.67 10.06
5/13/2021 10:00:00 PM 12.14 53.852 0.336 7.53 6.24 9.97
5/13/2021 10:15:00 PM 12.11 53.798 0.337 7.52 5.81 9.9
5/13/2021 10:30:00 PM 12.08 53.744 0.337 7.51 5.88 9.84
5/13/2021 10:45:00 PM 12.05 53.69 0.338 7.49 6.61 9.79
5/13/2021 11:00:00 PM 12.01 53.618 0.338 7.49 6.77 9.74
5/13/2021 11:15:00 PM 11.98 53.564 0.339 7.48 6.77 9.7
5/13/2021 11:30:00 PM 11.94 53.492 0.339 7.47 6.1 9.66
5/13/2021 11:45:00 PM 11.9 53.42 0.34 7.46 6.07 9.63
5/14/2021 12:00:00 AM 11.86 53.348 0.341 7.46 5.92 9.6
5/14/2021 12:15:00 AM 11.81 53.258 0.341 7.45 5.86 9.57
5/14/2021 12:30:00 AM 11.77 53.186 0.342 7.44 6.1 9.56
5/14/2021 12:45:00 AM 11.71 53.078 0.342 7.44 5.84 9.55
5/14/2021 1:00:00 AM 11.66 52.988 0.343 7.43 5.62 9.55
5/14/2021 1:15:00 AM 11.61 52.898 0.343 7.43 5.91 9.55
5/14/2021 1:30:00 AM 11.55 52.79 0.344 7.43 5.63 9.55
5/14/2021 1:45:00 AM 11.48 52.664 0.344 7.43 5.56 9.55
5/14/2021 2:00:00 AM 11.41 52.538 0.345 7.43 5.66 9.56
5/14/2021 2:15:00 AM 11.34 52.412 0.346 7.42 5.69 9.57
5/14/2021 2:30:00 AM 11.26 52.268 0.346 7.42 5.62 9.59
5/14/2021 2:45:00 AM 11.17 52.106 0.347 7.42 5.66 9.6
5/14/2021 3:00:00 AM 11.08 51.944 0.347 7.42 6.23 9.61
5/14/2021 3:15:00 AM 10.99 51.782 0.348 7.42 5.75 9.63
5/14/2021 3:30:00 AM 10.9 51.62 0.348 7.42 5.68 9.65
5/14/2021 3:45:00 AM 10.8 51.44 0.349 7.42 5.69 9.68
5/14/2021 4:00:00 AM 10.71 51.278 0.349 7.42 5.63 9.7
5/14/2021 4:15:00 AM 10.61 51.098 0.349 7.42 5.53 9.73
5/14/2021 4:30:00 AM 10.51 50.918 0.35 7.42 5.88 9.75
5/14/2021 4:45:00 AM 10.41 50.738 0.35 7.42 5.73 9.78
5/14/2021 5:00:00 AM 10.3 50.54 0.351 7.41 5.71 9.8
5/14/2021 5:15:00 AM 10.2 50.36 0.351 7.42 6.04 9.83
5/14/2021 5:30:00 AM 10.1 50.18 0.352 7.42 6.05 9.87
5/14/2021 5:45:00 AM 9.99 49.982 0.352 7.42 6.15 9.9
5/14/2021 6:00:00 AM 9.89 49.802 0.352 7.42 6.3 9.93
5/14/2021 6:15:00 AM 9.79 49.622 0.353 7.42 7.06 9.97
5/14/2021 6:30:00 AM 9.69 49.442 0.353 7.42 7.74 10.01
5/14/2021 6:45:00 AM 9.59 49.262 0.354 7.42 7.39 10.05
5/14/2021 7:00:00 AM 9.5 49.1 0.354 7.42 7.06 10.09
5/14/2021 7:15:00 AM 9.41 48.938 0.354 7.42 6.68 10.14
5/14/2021 7:30:00 AM 9.33 48.794 0.354 7.43 6.75 10.19
5/14/2021 7:45:00 AM 9.24 48.632 0.354 7.43 9.91 10.24
5/14/2021 8:00:00 AM 9.17 48.506 0.354 7.43 6.65 10.3
5/14/2021 8:15:00 AM 9.1 48.38 0.354 7.43 6.44 10.36
5/14/2021 8:30:00 AM 9.05 48.29 0.354 7.44 6.08 10.43
5/14/2021 8:45:00 AM 9 48.2 0.355 7.45 5.86 10.5
5/14/2021 9:00:00 AM 8.98 48.164 0.356 7.45 5.36 10.59
5/14/2021 9:15:00 AM 8.98 48.164 0.356 7.46 5.42 10.7
5/14/2021 9:30:00 AM 9 48.2 0.357 7.48 5.17 10.8
5/14/2021 9:45:00 AM 9.06 48.308 0.357 7.49 5.01 10.93
5/14/2021 10:00:00 AM 9.17 48.506 0.357 7.51 4.76 11.08
5/14/2021 10:15:00 AM 9.29 48.722 0.357 7.52 5.02 11.21
5/14/2021 10:30:00 AM 9.43 48.974 0.357 7.54 5.76 11.35
5/14/2021 10:45:00 AM 9.58 49.244 0.357 7.56 15.3 11.46
5/14/2021 11:00:00 AM 9.76 49.568 0.358 7.58 7.97 11.58
5/14/2021 11:15:00 AM 9.95 49.91 0.355 7.6 4.98 11.69
5/14/2021 11:30:00 AM 10.17 50.306 0.358 7.62 5.48 11.8
5/14/2021 11:45:00 AM 10.42 50.756 0.358 7.64 5.2 11.89
5/14/2021 12:00:00 PM 10.69 51.242 0.358 7.66 5.87 11.97
5/14/2021 12:15:00 PM 10.7 51.26 0.359 7.67 6.47 11.9
5/14/2021 12:30:00 PM 10.75 51.35 0.359 7.67 6.86 11.86
5/14/2021 12:45:00 PM 10.81 51.458 0.359 7.68 6.69 11.84
5/14/2021 1:00:00 PM 10.89 51.602 0.359 7.69 6.09 11.84
5/14/2021 1:15:00 PM 10.96 51.728 0.36 7.7 5.76 11.85
5/14/2021 1:30:00 PM 11.02 51.836 0.36 7.71 7.15 11.84
5/14/2021 1:45:00 PM 11.06 51.908 0.36 7.71 5.37 11.82
5/14/2021 2:00:00 PM 11.13 52.034 0.36 7.72 5.03 11.82
5/14/2021 2:15:00 PM 11.25 52.25 0.36 7.73 4.82 11.84
5/14/2021 2:30:00 PM 11.48 52.664 0.36 7.75 4.77 11.9
5/14/2021 2:45:00 PM 11.71 53.078 0.36 7.76 4.48 11.92
5/14/2021 3:00:00 PM 11.89 53.402 0.36 7.77 4.5 11.95
5/14/2021 3:15:00 PM 11.95 53.51 0.36 7.78 4.45 11.91
5/14/2021 3:30:00 PM 12.09 53.762 0.36 7.79 4.9 11.93
5/14/2021 3:45:00 PM 12.22 53.996 0.36 7.8 4.51 11.95
5/14/2021 4:00:00 PM 12.32 54.176 0.36 7.8 5.16 11.92
5/14/2021 4:15:00 PM 12.48 54.464 0.361 7.82 4.63 11.94
5/14/2021 4:30:00 PM 12.65 54.77 0.361 7.83 4.67 11.97
5/14/2021 4:45:00 PM 12.76 54.968 0.361 7.84 9.98 11.95
5/14/2021 5:00:00 PM 12.89 55.202 0.361 7.85 4.5 11.93
5/14/2021 5:15:00 PM 13.03 55.454 0.361 7.86 4.44 11.93
5/14/2021 5:30:00 PM 13.14 55.652 0.361 7.87 4.35 11.89
5/14/2021 5:45:00 PM 13.2 55.76 0.362 7.87 4.4 11.83
5/14/2021 6:00:00 PM 13.2 55.76 0.362 7.87 4.58 11.75
5/14/2021 6:15:00 PM 13.17 55.706 0.362 7.86 4.5 11.64
5/14/2021 6:30:00 PM 13.16 55.688 0.363 7.85 4.44 11.56
5/14/2021 6:45:00 PM 13.13 55.634 0.363 7.84 4.37 11.44
5/14/2021 7:00:00 PM 13.09 55.562 0.363 7.82 4.41 11.32
5/14/2021 7:15:00 PM 13.08 55.544 0.363 7.81 4.76 11.23
5/14/2021 7:30:00 PM 13.06 55.508 0.364 7.79 4.8 11.1
5/14/2021 7:45:00 PM 13.02 55.436 0.364 7.77 4.6 10.99
5/14/2021 8:00:00 PM 12.96 55.328 0.364 7.75 5.14 10.88
5/14/2021 8:15:00 PM 12.89 55.202 0.365 7.73 4.59 10.75
5/14/2021 8:30:00 PM 12.81 55.058 0.365 7.71 4.59 10.62
5/14/2021 8:45:00 PM 12.73 54.914 0.365 7.69 4.67 10.5
5/14/2021 9:00:00 PM 12.64 54.752 0.366 7.67 4.53 10.4
5/14/2021 9:15:00 PM 12.55 54.59 0.366 7.65 4.78 10.31
5/14/2021 9:30:00 PM 12.46 54.428 0.367 7.63 4.55 10.21
5/14/2021 9:45:00 PM 12.37 54.266 0.367 7.61 4.68 10.13
5/14/2021 10:00:00 PM 12.29 54.122 0.368 7.59 4.96 10.05
5/14/2021 10:15:00 PM 12.21 53.978 0.368 7.57 5.29 9.98
5/14/2021 10:30:00 PM 12.12 53.816 0.369 7.56 4.86 9.92
5/14/2021 10:45:00 PM 12.05 53.69 0.369 7.55 5.03 9.87
5/14/2021 11:00:00 PM 11.98 53.564 0.369 7.53 5.1 9.82
5/14/2021 11:15:00 PM 11.92 53.456 0.37 7.52 5.1 9.77
5/14/2021 11:30:00 PM 11.85 53.33 0.37 7.51 4.98 9.74
5/14/2021 11:45:00 PM 11.77 53.186 0.371 7.5 4.82 9.7
5/15/2021 12:00:00 AM 11.69 53.042 0.372 7.49 4.84 9.68
5/15/2021 12:15:00 AM 11.62 52.916 0.372 7.49 5.03 9.65
5/15/2021 12:30:00 AM 11.55 52.79 0.373 7.48 4.87 9.63
5/15/2021 12:45:00 AM 11.49 52.682 0.373 7.47 4.81 9.62
5/15/2021 1:00:00 AM 11.42 52.556 0.374 7.47 4.7 9.6
5/15/2021 1:15:00 AM 11.36 52.448 0.374 7.46 4.91 9.6
5/15/2021 1:30:00 AM 11.29 52.322 0.375 7.46 4.8 9.59
5/15/2021 1:45:00 AM 11.23 52.214 0.375 7.46 4.92 9.58
5/15/2021 2:00:00 AM 11.17 52.106 0.376 7.46 4.88 9.59
5/15/2021 2:15:00 AM 11.11 51.998 0.376 7.45 5.22 9.59
5/15/2021 2:30:00 AM 11.04 51.872 0.377 7.45 4.96 9.59
5/15/2021 2:45:00 AM 10.98 51.764 0.377 7.45 5.41 9.6
5/15/2021 3:00:00 AM 10.92 51.656 0.378 7.45 5.61 9.61
5/15/2021 3:15:00 AM 10.86 51.548 0.378 7.45 5.17 9.61
5/15/2021 3:30:00 AM 10.79 51.422 0.379 7.44 5.04 9.62
5/15/2021 3:45:00 AM 10.73 51.314 0.379 7.44 4.89 9.63
5/15/2021 4:00:00 AM 10.66 51.188 0.379 7.44 5.23 9.64
5/15/2021 4:15:00 AM 10.59 51.062 0.38 7.44 5.15 9.66
5/15/2021 4:30:00 AM 10.53 50.954 0.38 7.44 5.24 9.67
5/15/2021 4:45:00 AM 10.47 50.846 0.381 7.44 5.09 9.69
5/15/2021 5:00:00 AM 10.4 50.72 0.381 7.44 5.24 9.7
5/15/2021 5:15:00 AM 10.33 50.594 0.382 7.44 5.5 9.71
5/15/2021 5:30:00 AM 10.28 50.504 0.383 7.44 6.2 9.73
5/15/2021 5:45:00 AM 10.22 50.396 0.383 7.44 6.45 9.75
5/15/2021 6:00:00 AM 10.17 50.306 0.384 7.44 7.6 9.77
5/15/2021 6:15:00 AM 10.11 50.198 0.384 7.44 6.34 9.8
5/15/2021 6:30:00 AM 10.06 50.108 0.384 7.45 5.6 9.84
5/15/2021 6:45:00 AM 10.01 50.018 0.384 7.45 5.46 9.87
5/15/2021 7:00:00 AM 9.97 49.946 0.385 7.45 5.45 9.92
5/15/2021 7:15:00 AM 9.93 49.874 0.385 7.46 5.07 9.99
5/15/2021 7:30:00 AM 9.88 49.784 0.386 7.46 5.08 10.04
5/15/2021 7:45:00 AM 9.83 49.694 0.386 7.47 5.06 10.09
5/15/2021 8:00:00 AM 9.78 49.604 0.387 7.47 4.79 10.14
5/15/2021 8:15:00 AM 9.73 49.514 0.387 7.48 4.75 10.21
5/15/2021 8:30:00 AM 9.68 49.424 0.388 7.48 5.02 10.28
5/15/2021 8:45:00 AM 9.65 49.37 0.388 7.49 4.51 10.35
5/15/2021 9:00:00 AM 9.63 49.334 0.389 7.5 4.85 10.45
5/15/2021 9:15:00 AM 9.64 49.352 0.389 7.51 4.31 10.55
5/15/2021 9:30:00 AM 9.66 49.388 0.389 7.52 4.27 10.65
5/15/2021 9:45:00 AM 9.71 49.478 0.389 7.53 4.46 10.76
5/15/2021 10:00:00 AM 9.83 49.694 0.389 7.55 4.15 10.92
5/15/2021 10:15:00 AM 9.96 49.928 0.389 7.57 4.17 11.07
5/15/2021 10:30:00 AM 10.1 50.18 0.389 7.58 4 11.2
5/15/2021 10:45:00 AM 10.26 50.468 0.389 7.6 4.53 11.33
5/15/2021 11:00:00 AM 10.43 50.774 0.389 7.62 4.04 11.45
5/15/2021 11:15:00 AM 10.61 51.098 0.389 7.64 3.98 11.57
5/15/2021 11:30:00 AM 10.82 51.476 0.389 7.67 3.89 11.69
5/15/2021 11:45:00 AM 11.04 51.872 0.389 7.69 3.83 11.79
5/15/2021 12:00:00 PM 11.29 52.322 0.388 7.71 3.89 11.9
5/15/2021 12:15:00 PM 11.54 52.772 0.388 7.73 3.79 11.99
5/15/2021 12:30:00 PM 11.79 53.222 0.388 7.75 3.86 12.07
5/15/2021 12:45:00 PM 12 53.6 0.388 7.78 4.18 12.13
5/15/2021 1:00:00 PM 12.14 53.852 0.388 7.79 3.96 12.17
5/15/2021 1:15:00 PM 12.31 54.158 0.388 7.81 3.82 12.21
5/15/2021 1:30:00 PM 12.43 54.374 0.388 7.83 4.62 12.2
5/15/2021 1:45:00 PM 12.54 54.572 0.388 7.85 3.65 12.2
5/15/2021 2:00:00 PM 12.68 54.824 0.389 7.86 3.69 12.23
5/15/2021 2:15:00 PM 12.85 55.13 0.389 7.88 3.61 12.25
5/15/2021 2:30:00 PM 12.98 55.364 0.389 7.9 3.62 12.24
5/15/2021 2:45:00 PM 13.07 55.526 0.389 7.91 3.57 12.23
5/15/2021 3:00:00 PM 13.13 55.634 0.389 7.92 3.57 12.19
5/15/2021 3:15:00 PM 13.15 55.67 0.39 7.92 5.51 12.16
5/15/2021 3:30:00 PM 13.21 55.778 0.39 7.93 5.21 12.14
5/15/2021 3:45:00 PM 13.37 56.066 0.39 7.94 4.14 12.14
5/15/2021 4:00:00 PM 13.46 56.228 0.39 7.95 3.64 12.12
5/15/2021 4:15:00 PM 13.58 56.444 0.39 7.96 4.09 12.1
5/15/2021 4:30:00 PM 13.65 56.57 0.391 7.96 3.97 12.05
5/15/2021 4:45:00 PM 13.69 56.642 0.391 7.96 3.81 12
5/15/2021 5:00:00 PM 13.74 56.732 0.391 7.96 3.86 11.97
5/15/2021 5:15:00 PM 13.71 56.678 0.391 7.96 3.9 11.86
5/15/2021 5:30:00 PM 13.73 56.714 0.391 7.95 3.66 11.78
5/15/2021 5:45:00 PM 13.77 56.786 0.393 7.95 6.36 11.73
5/15/2021 6:00:00 PM 13.82 56.876 0.393 7.95 3.63 11.7
5/15/2021 6:15:00 PM 13.84 56.912 0.393 7.95 4.03 11.6
5/15/2021 6:30:00 PM 13.88 56.984 0.393 7.94 3.67 11.52
5/15/2021 6:45:00 PM 13.92 57.056 0.393 7.93 3.79 11.42
5/15/2021 7:00:00 PM 13.93 57.074 0.394 7.91 4.21 11.28
5/15/2021 7:15:00 PM 13.97 57.146 0.394 7.9 5.55 11.19
5/15/2021 7:30:00 PM 14 57.2 0.394 7.89 4.34 11.09
5/15/2021 7:45:00 PM 14 57.2 0.394 7.88 4 10.97
5/15/2021 8:00:00 PM 13.99 57.182 0.395 7.86 3.72 10.83
5/15/2021 8:15:00 PM 13.96 57.128 0.395 7.83 3.53 10.68
5/15/2021 8:30:00 PM 13.92 57.056 0.396 7.81 3.79 10.53
5/15/2021 8:45:00 PM 13.87 56.966 0.396 7.78 4 10.4
5/15/2021 9:00:00 PM 13.82 56.876 0.396 7.75 3.89 10.26
5/15/2021 9:15:00 PM 13.77 56.786 0.397 7.73 3.98 10.14
5/15/2021 9:30:00 PM 13.72 56.696 0.397 7.71 3.99 10.04
5/15/2021 9:45:00 PM 13.67 56.606 0.397 7.69 4.25 9.93
5/15/2021 10:00:00 PM 13.61 56.498 0.398 7.67 4.16 9.83
5/15/2021 10:15:00 PM 13.56 56.408 0.398 7.65 4.19 9.74
5/15/2021 10:30:00 PM 13.51 56.318 0.399 7.63 4.23 9.65
5/15/2021 10:45:00 PM 13.45 56.21 0.399 7.61 4.06 9.57
5/15/2021 11:00:00 PM 13.4 56.12 0.4 7.6 4.21 9.49
5/15/2021 11:15:00 PM 13.34 56.012 0.401 7.58 4.15 9.42
5/15/2021 11:30:00 PM 13.28 55.904 0.401 7.57 4.19 9.35
5/15/2021 11:45:00 PM 13.21 55.778 0.402 7.56 4.22 9.29
5/16/2021 12:00:00 AM 13.15 55.67 0.403 7.54 4.38 9.25
5/16/2021 12:15:00 AM 13.09 55.562 0.404 7.53 4.48 9.2
5/16/2021 12:30:00 AM 13.02 55.436 0.404 7.52 4.77 9.17
5/16/2021 12:45:00 AM 12.95 55.31 0.404 7.52 4.76 9.15
5/16/2021 1:00:00 AM 12.88 55.184 0.405 7.51 5.04 9.14
5/16/2021 1:15:00 AM 12.8 55.04 0.405 7.5 5.32 9.12
5/16/2021 1:30:00 AM 12.72 54.896 0.406 7.5 5.4 9.11
5/16/2021 1:45:00 AM 12.65 54.77 0.406 7.49 4.87 9.11
5/16/2021 2:00:00 AM 12.57 54.626 0.406 7.49 5.02 9.11
5/16/2021 2:15:00 AM 12.51 54.518 0.407 7.48 4.71 9.11
5/16/2021 2:30:00 AM 12.43 54.374 0.408 7.48 4.88 9.11
5/16/2021 2:45:00 AM 12.35 54.23 0.408 7.48 4.64 9.12
5/16/2021 3:00:00 AM 12.27 54.086 0.408 7.48 4.61 9.13
5/16/2021 3:15:00 AM 12.2 53.96 0.409 7.48 5.02 9.13
5/16/2021 3:30:00 AM 12.13 53.834 0.409 7.48 4.58 9.14
5/16/2021 3:45:00 AM 12.06 53.708 0.41 7.47 4.38 9.15
5/16/2021 4:00:00 AM 11.99 53.582 0.411 7.47 4.4 9.16
5/16/2021 4:15:00 AM 11.92 53.456 0.412 7.47 4.43 9.18
5/16/2021 4:30:00 AM 11.84 53.312 0.413 7.47 4.5 9.19
5/16/2021 4:45:00 AM 11.76 53.168 0.413 7.47 5.23 9.2
5/16/2021 5:00:00 AM 11.69 53.042 0.414 7.47 4.43 9.22
5/16/2021 5:15:00 AM 11.61 52.898 0.415 7.47 4.41 9.24
5/16/2021 5:30:00 AM 11.53 52.754 0.416 7.47 5.02 9.25
5/16/2021 5:45:00 AM 11.45 52.61 0.417 7.47 4.7 9.27
5/16/2021 6:00:00 AM 11.37 52.466 0.418 7.47 5.09 9.3
5/16/2021 6:15:00 AM 11.29 52.322 0.418 7.47 5.55 9.34
5/16/2021 6:30:00 AM 11.22 52.196 0.419 7.48 4.27 9.38
5/16/2021 6:45:00 AM 11.15 52.07 0.419 7.48 4.52 9.44
5/16/2021 7:00:00 AM 11.1 51.98 0.42 7.49 4.12 9.51
5/16/2021 7:15:00 AM 11.05 51.89 0.419 7.49 4.09 9.6
5/16/2021 7:30:00 AM 11.01 51.818 0.419 7.5 4.19 9.66
5/16/2021 7:45:00 AM 10.97 51.746 0.42 7.5 4.48 9.74
5/16/2021 8:00:00 AM 10.94 51.692 0.42 7.51 4.31 9.83
5/16/2021 8:15:00 AM 10.92 51.656 0.42 7.52 4.55 9.93
5/16/2021 8:30:00 AM 10.9 51.62 0.42 7.53 5.06 10.03
5/16/2021 8:45:00 AM 10.88 51.584 0.42 7.54 6.18 10.13
5/16/2021 9:00:00 AM 10.87 51.566 0.42 7.54 4.96 10.22
5/16/2021 9:15:00 AM 10.87 51.566 0.42 7.56 4.72 10.34
5/16/2021 9:30:00 AM 10.87 51.566 0.42 7.57 4.45 10.46
5/16/2021 9:45:00 AM 10.87 51.566 0.421 7.58 6.46 10.57
5/16/2021 10:00:00 AM 10.9 51.62 0.421 7.6 4.03 10.7
5/16/2021 10:15:00 AM 10.95 51.71 0.422 7.61 4.13 10.87
5/16/2021 10:30:00 AM 11.04 51.872 0.422 7.63 4.31 11
5/16/2021 10:45:00 AM 11.09 51.962 0.422 7.65 4.27 11.13
5/16/2021 11:00:00 AM 11.16 52.088 0.423 7.67 4.56 11.25
5/16/2021 11:15:00 AM 11.21 52.178 0.423 7.69 4.26 11.38
5/16/2021 11:30:00 AM 11.27 52.286 0.423 7.71 4.15 11.51
5/16/2021 11:45:00 AM 11.38 52.484 0.423 7.73 4.33 11.64
5/16/2021 12:00:00 PM 11.51 52.718 0.424 7.75 4.51 11.76
5/16/2021 12:15:00 PM 11.64 52.952 0.424 7.78 4.08 11.88
5/16/2021 12:30:00 PM 11.78 53.204 0.423 7.8 4 11.99
5/16/2021 12:45:00 PM 11.88 53.384 0.424 7.82 4.02 12.06
5/16/2021 1:00:00 PM 11.95 53.51 0.424 7.83 3.87 12.11
5/16/2021 1:15:00 PM 12.12 53.816 0.424 7.86 4.08 12.19
5/16/2021 1:30:00 PM 12.29 54.122 0.424 7.87 3.91 12.26
5/16/2021 1:45:00 PM 12.44 54.392 0.424 7.89 3.8 12.33
5/16/2021 2:00:00 PM 12.59 54.662 0.424 7.91 3.94 12.37
5/16/2021 2:15:00 PM 12.72 54.896 0.424 7.93 3.95 12.39
5/16/2021 2:30:00 PM 12.9 55.22 0.424 7.94 5.19 12.43
5/16/2021 2:45:00 PM 13.11 55.598 0.424 7.96 3.98 12.47
5/16/2021 3:00:00 PM 13.31 55.958 0.423 7.98 8.1 12.5
5/16/2021 3:15:00 PM 13.52 56.336 0.423 8 4.01 12.52
5/16/2021 3:30:00 PM 13.57 56.426 0.423 8.01 3.67 12.51
5/16/2021 3:45:00 PM 13.66 56.588 0.423 8.02 3.5 12.5
5/16/2021 4:00:00 PM 13.75 56.75 0.423 8.03 3.45 12.49
5/16/2021 4:15:00 PM 13.81 56.858 0.423 8.04 3.68 12.47
5/16/2021 4:30:00 PM 13.84 56.912 0.423 8.04 3.47 12.41
5/16/2021 4:45:00 PM 13.88 56.984 0.423 8.05 3.34 12.37
5/16/2021 5:00:00 PM 13.88 56.984 0.423 8.05 3.66 12.32
5/16/2021 5:15:00 PM 13.86 56.948 0.424 8.04 3.39 12.24
5/16/2021 5:30:00 PM 13.86 56.948 0.423 8.04 3.37 12.17
5/16/2021 5:45:00 PM 13.89 57.002 0.423 8.04 3.38 12.14
5/16/2021 6:00:00 PM 13.9 57.02 0.424 8.03 4.51 12.03
5/16/2021 6:15:00 PM 13.9 57.02 0.424 8.02 3.32 11.91
5/16/2021 6:30:00 PM 13.88 56.984 0.424 8.01 3.29 11.79
5/16/2021 6:45:00 PM 13.88 56.984 0.424 8 3.29 11.73
5/16/2021 7:00:00 PM 13.85 56.93 0.424 7.99 3.22 11.61
5/16/2021 7:15:00 PM 13.8 56.84 0.424 7.97 3.36 11.45
5/16/2021 7:30:00 PM 13.75 56.75 0.425 7.95 3.41 11.31
5/16/2021 7:45:00 PM 13.69 56.642 0.425 7.93 3.59 11.19
5/16/2021 8:00:00 PM 13.62 56.516 0.425 7.91 3.39 11.04
5/16/2021 8:15:00 PM 13.52 56.336 0.425 7.88 3.57 10.88
5/16/2021 8:30:00 PM 13.43 56.174 0.426 7.86 3.97 10.74
5/16/2021 8:45:00 PM 13.35 56.03 0.426 7.83 4.05 10.62
5/16/2021 9:00:00 PM 13.27 55.886 0.426 7.81 3.9 10.49
5/16/2021 9:15:00 PM 13.19 55.742 0.427 7.79 3.98 10.37
5/16/2021 9:30:00 PM 13.12 55.616 0.427 7.76 3.98 10.26
5/16/2021 9:45:00 PM 13.05 55.49 0.427 7.74 4.85 10.15
5/16/2021 10:00:00 PM 12.99 55.382 0.428 7.72 3.95 10.05
5/16/2021 10:15:00 PM 12.94 55.292 0.428 7.7 5.51 9.95
5/16/2021 10:30:00 PM 12.88 55.184 0.428 7.69 3.82 9.87
5/16/2021 10:45:00 PM 12.83 55.094 0.429 7.67 3.92 9.77
5/16/2021 11:00:00 PM 12.78 55.004 0.429 7.65 3.99 9.7
5/16/2021 11:15:00 PM 12.74 54.932 0.429 7.64 3.81 9.63
5/16/2021 11:30:00 PM 12.69 54.842 0.43 7.62 3.84 9.56
5/16/2021 11:45:00 PM 12.65 54.77 0.43 7.61 4.01 9.48
5/17/2021 12:00:00 AM 12.6 54.68 0.431 7.6 3.87 9.43
5/17/2021 12:15:00 AM 12.54 54.572 0.431 7.59 3.84 9.38
5/17/2021 12:30:00 AM 12.49 54.482 0.432 7.57 3.84 9.33
5/17/2021 12:45:00 AM 12.42 54.356 0.432 7.56 4.07 9.29
5/17/2021 1:00:00 AM 12.36 54.248 0.433 7.56 4.04 9.26
5/17/2021 1:15:00 AM 12.29 54.122 0.433 7.55 3.89 9.23
5/17/2021 1:30:00 AM 12.24 54.032 0.434 7.54 3.87 9.21
5/17/2021 1:45:00 AM 12.19 53.942 0.434 7.54 4.24 9.2
5/17/2021 2:00:00 AM 12.14 53.852 0.435 7.53 4.14 9.19
5/17/2021 2:15:00 AM 12.09 53.762 0.436 7.53 3.86 9.18
5/17/2021 2:30:00 AM 12.04 53.672 0.437 7.52 3.78 9.17
5/17/2021 2:45:00 AM 12 53.6 0.437 7.52 4.18 9.17
5/17/2021 3:00:00 AM 11.95 53.51 0.438 7.52 3.98 9.17
5/17/2021 3:15:00 AM 11.91 53.438 0.438 7.51 4.13 9.17
5/17/2021 3:30:00 AM 11.87 53.366 0.439 7.51 4.34 9.17
5/17/2021 3:45:00 AM 11.83 53.294 0.439 7.51 4.22 9.17
5/17/2021 4:00:00 AM 11.77 53.186 0.44 7.51 4.04 9.18
5/17/2021 4:15:00 AM 11.72 53.096 0.441 7.51 4.24 9.19
5/17/2021 4:30:00 AM 11.66 52.988 0.442 7.51 4.04 9.19
5/17/2021 4:45:00 AM 11.6 52.88 0.443 7.51 3.87 9.21
5/17/2021 5:00:00 AM 11.54 52.772 0.444 7.51 4 9.22
5/17/2021 5:15:00 AM 11.48 52.664 0.445 7.51 3.94 9.23
5/17/2021 5:30:00 AM 11.42 52.556 0.446 7.51 4.15 9.24
5/17/2021 5:45:00 AM 11.36 52.448 0.447 7.51 4.21 9.26
5/17/2021 6:00:00 AM 11.29 52.322 0.447 7.51 5.19 9.28
5/17/2021 6:15:00 AM 11.23 52.214 0.448 7.51 4.18 9.31
5/17/2021 6:30:00 AM 11.18 52.124 0.448 7.51 3.98 9.34
5/17/2021 6:45:00 AM 11.12 52.016 0.448 7.51 4 9.37
5/17/2021 7:00:00 AM 11.07 51.926 0.449 7.51 4.02 9.41
5/17/2021 7:15:00 AM 11.02 51.836 0.449 7.52 4.75 9.44
5/17/2021 7:30:00 AM 10.97 51.746 0.449 7.52 3.51 9.49
5/17/2021 7:45:00 AM 10.93 51.674 0.449 7.52 4.29 9.53
5/17/2021 8:00:00 AM 10.89 51.602 0.449 7.52 4.91 9.58
5/17/2021 8:15:00 AM 10.85 51.53 0.449 7.53 3.54 9.65
5/17/2021 8:30:00 AM 10.82 51.476 0.449 7.53 3.65 9.72
5/17/2021 8:45:00 AM 10.8 51.44 0.449 7.54 3.39 9.8
5/17/2021 9:00:00 AM 10.8 51.44 0.449 7.55 3.64 9.88
5/17/2021 9:15:00 AM 10.84 51.512 0.45 7.55 4.23 9.97
5/17/2021 9:30:00 AM 10.87 51.566 0.45 7.56 4.18 10.06
5/17/2021 9:45:00 AM 10.92 51.656 0.45 7.57 4.18 10.18
5/17/2021 10:00:00 AM 11.03 51.854 0.449 7.59 3.87 10.31
5/17/2021 10:15:00 AM 11.17 52.106 0.449 7.6 4.34 10.49
5/17/2021 10:30:00 AM 11.34 52.412 0.448 7.62 4.06 10.64
5/17/2021 10:45:00 AM 11.52 52.736 0.448 7.64 3.6 10.79
5/17/2021 11:00:00 AM 11.71 53.078 0.447 7.65 3.74 10.93
5/17/2021 11:15:00 AM 11.93 53.474 0.447 7.68 3.31 11.08
5/17/2021 11:30:00 AM 12.15 53.87 0.446 7.7 3.41 11.22
5/17/2021 11:45:00 AM 12.41 54.338 0.446 7.72 3.2 11.36
5/17/2021 12:00:00 PM 12.59 54.662 0.445 7.74 3.39 11.46
5/17/2021 12:15:00 PM 12.93 55.274 0.445 7.76 3.5 11.61
5/17/2021 12:30:00 PM 13.11 55.598 0.445 7.79 3.22 11.71
5/17/2021 12:45:00 PM 13.29 55.922 0.444 7.81 3.76 11.78
5/17/2021 1:00:00 PM 13.63 56.534 0.444 7.84 3.27 11.9
5/17/2021 1:15:00 PM 13.8 56.84 0.444 7.86 3.17 11.96
5/17/2021 1:30:00 PM 14.05 57.29 0.444 7.88 3.6 12.05
5/17/2021 1:45:00 PM 14.43 57.974 0.444 7.91 3.07 12.15
5/17/2021 2:00:00 PM 14.55 58.19 0.443 7.93 4.14 12.15
5/17/2021 2:15:00 PM 14.79 58.622 0.444 7.94 3.12 12.18
5/17/2021 2:30:00 PM 15.04 59.072 0.444 7.96 3.13 12.23
5/17/2021 2:45:00 PM 15.18 59.324 0.444 7.98 3.21 12.21
5/17/2021 3:00:00 PM 15.34 59.612 0.444 8 3.65 12.21
5/17/2021 3:15:00 PM 15.33 59.594 0.445 8 3.45 12.15
5/17/2021 3:30:00 PM 15.37 59.666 0.445 8.01 2.8 12.12
5/17/2021 3:45:00 PM 15.44 59.792 0.445 8.02 2.79 12.1
5/17/2021 4:00:00 PM 15.51 59.918 0.446 8.03 2.76 12.05
5/17/2021 4:15:00 PM 15.62 60.116 0.446 8.03 2.97 12.03
5/17/2021 4:30:00 PM 15.71 60.278 0.446 8.04 2.97 11.97
5/17/2021 4:45:00 PM 15.74 60.332 0.447 8.04 2.69 11.89
5/17/2021 5:00:00 PM 15.77 60.386 0.447 8.04 3.05 11.83
5/17/2021 5:15:00 PM 15.78 60.404 0.447 8.04 3.44 11.75
5/17/2021 5:30:00 PM 15.83 60.494 0.447 8.04 2.88 11.67
5/17/2021 5:45:00 PM 15.89 60.602 0.448 8.04 4.26 11.6
5/17/2021 6:00:00 PM 15.95 60.71 0.448 8.04 2.71 11.52
5/17/2021 6:15:00 PM 16 60.8 0.448 8.03 2.75 11.45
5/17/2021 6:30:00 PM 16.04 60.872 0.448 8.03 2.7 11.35
5/17/2021 6:45:00 PM 16.04 60.872 0.448 8.02 3.3 11.25
5/17/2021 7:00:00 PM 16 60.8 0.448 8.01 2.93 11.14
5/17/2021 7:15:00 PM 15.94 60.692 0.448 8 2.9 11.02
5/17/2021 7:30:00 PM 15.86 60.548 0.449 7.98 2.93 10.88
5/17/2021 7:45:00 PM 15.78 60.404 0.449 7.96 2.91 10.76
5/17/2021 8:00:00 PM 15.71 60.278 0.449 7.94 2.97 10.63
5/17/2021 8:15:00 PM 15.62 60.116 0.449 7.92 2.94 10.49
5/17/2021 8:30:00 PM 15.54 59.972 0.449 7.9 3.07 10.35
5/17/2021 8:45:00 PM 15.46 59.828 0.449 7.87 3.18 10.2
5/17/2021 9:00:00 PM 15.38 59.684 0.45 7.85 3.26 10.07
5/17/2021 9:15:00 PM 15.3 59.54 0.45 7.83 3.47 9.95
5/17/2021 9:30:00 PM 15.22 59.396 0.45 7.81 3.36 9.83
5/17/2021 9:45:00 PM 15.14 59.252 0.45 7.79 3.44 9.71
5/17/2021 10:00:00 PM 15.07 59.126 0.451 7.77 3.79 9.61
5/17/2021 10:15:00 PM 15.01 59.018 0.451 7.75 3.42 9.48
5/17/2021 10:30:00 PM 14.94 58.892 0.451 7.73 3.96 9.37
5/17/2021 10:45:00 PM 14.88 58.784 0.452 7.71 3.58 9.27
5/17/2021 11:00:00 PM 14.82 58.676 0.452 7.69 3.57 9.18
5/17/2021 11:15:00 PM 14.77 58.586 0.452 7.67 3.71 9.08
5/17/2021 11:30:00 PM 14.72 58.496 0.453 7.66 3.74 8.99
5/17/2021 11:45:00 PM 14.67 58.406 0.453 7.64 3.42 8.92
5/18/2021 12:00:00 AM 14.62 58.316 0.454 7.62 3.43 8.85
5/18/2021 12:15:00 AM 14.57 58.226 0.455 7.61 3.63 8.78
5/18/2021 12:30:00 AM 14.52 58.136 0.455 7.6 3.53 8.72
5/18/2021 12:45:00 AM 14.47 58.046 0.455 7.59 3.38 8.68
5/18/2021 1:00:00 AM 14.42 57.956 0.456 7.58 3.42 8.63
5/18/2021 1:15:00 AM 14.36 57.848 0.456 7.57 3.31 8.6
5/18/2021 1:30:00 AM 14.3 57.74 0.457 7.56 3.36 8.58
5/18/2021 1:45:00 AM 14.22 57.596 0.457 7.55 3.54 8.56
5/18/2021 2:00:00 AM 14.15 57.47 0.457 7.55 3.31 8.56
5/18/2021 2:15:00 AM 14.07 57.326 0.458 7.54 3.59 8.55
5/18/2021 2:30:00 AM 13.98 57.164 0.458 7.54 3.58 8.55
5/18/2021 2:45:00 AM 13.88 56.984 0.458 7.53 3.76 8.55
5/18/2021 3:00:00 AM 13.79 56.822 0.458 7.53 4.09 8.57
5/18/2021 3:15:00 AM 13.7 56.66 0.458 7.52 3.91 8.58
5/18/2021 3:30:00 AM 13.6 56.48 0.458 7.52 3.59 8.6
5/18/2021 3:45:00 AM 13.5 56.3 0.458 7.52 3.51 8.61
5/18/2021 4:00:00 AM 13.41 56.138 0.458 7.51 3.77 8.62
5/18/2021 4:15:00 AM 13.31 55.958 0.458 7.51 3.81 8.64
5/18/2021 4:30:00 AM 13.22 55.796 0.458 7.51 3.74 8.65
5/18/2021 4:45:00 AM 13.14 55.652 0.458 7.51 3.87 8.67
5/18/2021 5:00:00 AM 13.05 55.49 0.459 7.51 3.63 8.68
5/18/2021 5:15:00 AM 12.96 55.328 0.459 7.51 3.92 8.71
5/18/2021 5:30:00 AM 12.87 55.166 0.46 7.51 3.59 8.73
5/18/2021 5:45:00 AM 12.78 55.004 0.461 7.51 3.48 8.76
5/18/2021 6:00:00 AM 12.7 54.86 0.462 7.51 3.59 8.78
5/18/2021 6:15:00 AM 12.61 54.698 0.463 7.51 3.56 8.81
5/18/2021 6:30:00 AM 12.52 54.536 0.464 7.51 3.67 8.86
5/18/2021 6:45:00 AM 12.44 54.392 0.464 7.51 3.45 8.91
5/18/2021 7:00:00 AM 12.37 54.266 0.465 7.51 3.28 8.94
5/18/2021 7:15:00 AM 12.3 54.14 0.465 7.51 3.27 8.99
5/18/2021 7:30:00 AM 12.23 54.014 0.465 7.52 3.34 9.04
5/18/2021 7:45:00 AM 12.17 53.906 0.465 7.52 3.3 9.09
5/18/2021 8:00:00 AM 12.11 53.798 0.465 7.52 3.64 9.14
5/18/2021 8:15:00 AM 12.07 53.726 0.466 7.53 3.29 9.23
5/18/2021 8:30:00 AM 12.02 53.636 0.466 7.53 3.42 9.3
5/18/2021 8:45:00 AM 11.99 53.582 0.466 7.54 4.93 9.36
5/18/2021 9:00:00 AM 11.99 53.582 0.466 7.54 3.44 9.45
5/18/2021 9:15:00 AM 12.02 53.636 0.467 7.55 3.58 9.58
5/18/2021 9:30:00 AM 12.05 53.69 0.467 7.56 3.63 9.69
5/18/2021 9:45:00 AM 12.1 53.78 0.468 7.57 3.69 9.8
5/18/2021 10:00:00 AM 12.18 53.924 0.468 7.59 4.05 9.94
5/18/2021 10:15:00 AM 12.32 54.176 0.469 7.6 3.26 10.1
5/18/2021 10:30:00 AM 12.46 54.428 0.47 7.62 3.34 10.28
5/18/2021 10:45:00 AM 12.64 54.752 0.47 7.64 3.32 10.45
5/18/2021 11:00:00 AM 12.82 55.076 0.471 7.66 3.46 10.61
5/18/2021 11:15:00 AM 13.03 55.454 0.472 7.68 3.24 10.76
5/18/2021 11:30:00 AM 13.23 55.814 0.472 7.7 3.18 10.94
5/18/2021 11:45:00 AM 13.46 56.228 0.473 7.73 3.12 11.09
5/18/2021 12:00:00 PM 13.7 56.66 0.474 7.75 2.92 11.25
5/18/2021 12:15:00 PM 13.94 57.092 0.475 7.77 3.42 11.39
5/18/2021 12:30:00 PM 14.21 57.578 0.476 7.8 2.93 11.53
5/18/2021 12:45:00 PM 14.48 58.064 0.477 7.82 2.83 11.67
5/18/2021 1:00:00 PM 14.76 58.568 0.479 7.85 2.83 11.8
5/18/2021 1:15:00 PM 15.06 59.108 0.48 7.88 3.63 11.92
5/18/2021 1:30:00 PM 15.35 59.63 0.482 7.91 2.88 12.04
5/18/2021 1:45:00 PM 15.63 60.134 0.483 7.93 2.86 12.14
5/18/2021 2:00:00 PM 15.92 60.656 0.485 7.96 2.68 12.22
5/18/2021 2:15:00 PM 16.2 61.16 0.486 7.99 2.76 12.31
5/18/2021 2:30:00 PM 16.45 61.61 0.487 8.01 2.8 12.35
5/18/2021 2:45:00 PM 16.69 62.042 0.488 8.03 2.92 12.41
5/18/2021 3:00:00 PM 16.9 62.42 0.489 8.05 2.76 12.43
5/18/2021 3:15:00 PM 17.11 62.798 0.49 8.06 3.1 12.43
5/18/2021 3:30:00 PM 17.29 63.122 0.49 8.08 2.71 12.45
5/18/2021 3:45:00 PM 17.45 63.41 0.49 8.1 2.64 12.44
5/18/2021 4:00:00 PM 17.59 63.662 0.49 8.1 2.76 12.4
5/18/2021 4:15:00 PM 17.7 63.86 0.49 8.11 2.81 12.36
5/18/2021 4:30:00 PM 17.8 64.04 0.49 8.12 2.65 12.3
5/18/2021 4:45:00 PM 17.87 64.166 0.49 8.13 2.66 12.25
5/18/2021 5:00:00 PM 17.92 64.256 0.49 8.13 2.73 12.14
5/18/2021 5:15:00 PM 17.97 64.346 0.49 8.13 2.65 12.07
5/18/2021 5:30:00 PM 18 64.4 0.49 8.13 2.86 11.99
5/18/2021 5:45:00 PM 18.04 64.472 0.489 8.13 2.83 11.91
5/18/2021 6:00:00 PM 18.05 64.49 0.489 8.13 2.88 11.8
5/18/2021 6:15:00 PM 18.04 64.472 0.489 8.13 2.84 11.67
5/18/2021 6:30:00 PM 18.02 64.436 0.488 8.12 3.31 11.53
5/18/2021 6:45:00 PM 18 64.4 0.488 8.11 2.96 11.4
5/18/2021 7:00:00 PM 17.94 64.292 0.488 8.1 3.19 11.23
5/18/2021 7:15:00 PM 17.9 64.22 0.487 8.08 3.09 11.09
5/18/2021 7:30:00 PM 17.84 64.112 0.487 8.07 3.13 10.92
5/18/2021 7:45:00 PM 17.79 64.022 0.487 8.06 2.92 10.77
5/18/2021 8:00:00 PM 17.73 63.914 0.487 8.04 2.99 10.6
5/18/2021 8:15:00 PM 17.66 63.788 0.487 8.02 3.1 10.44
5/18/2021 8:30:00 PM 17.58 63.644 0.486 8 2.94 10.26
5/18/2021 8:45:00 PM 17.49 63.482 0.486 7.97 3.26 10.1
5/18/2021 9:00:00 PM 17.39 63.302 0.486 7.95 3.48 9.94
5/18/2021 9:15:00 PM 17.28 63.104 0.486 7.92 3.65 9.78
5/18/2021 9:30:00 PM 17.18 62.924 0.486 7.89 3.59 9.63
5/18/2021 9:45:00 PM 17.07 62.726 0.486 7.87 3.57 9.49
5/18/2021 10:00:00 PM 16.96 62.528 0.486 7.84 3.47 9.37
5/18/2021 10:15:00 PM 16.85 62.33 0.485 7.82 3.4 9.24
5/18/2021 10:30:00 PM 16.74 62.132 0.485 7.8 3.6 9.12
5/18/2021 10:45:00 PM 16.63 61.934 0.486 7.77 3.62 9.02
5/18/2021 11:00:00 PM 16.52 61.736 0.486 7.75 3.6 8.91
5/18/2021 11:15:00 PM 16.41 61.538 0.486 7.73 3.67 8.81
5/18/2021 11:30:00 PM 16.3 61.34 0.486 7.71 3.71 8.71
5/18/2021 11:45:00 PM 16.19 61.142 0.486 7.69 4.01 8.63
5/19/2021 12:00:00 AM 16.07 60.926 0.486 7.67 3.6 8.56
5/19/2021 12:15:00 AM 15.96 60.728 0.486 7.66 3.61 8.49
5/19/2021 12:30:00 AM 15.85 60.53 0.486 7.64 3.69 8.42
5/19/2021 12:45:00 AM 15.73 60.314 0.486 7.63 3.7 8.37
5/19/2021 1:00:00 AM 15.63 60.134 0.487 7.61 3.61 8.32
5/19/2021 1:15:00 AM 15.51 59.918 0.487 7.6 3.41 8.28
5/19/2021 1:30:00 AM 15.41 59.738 0.487 7.59 3.5 8.26
5/19/2021 1:45:00 AM 15.29 59.522 0.488 7.58 4.12 8.24
5/19/2021 2:00:00 AM 15.18 59.324 0.488 7.57 3.64 8.23
5/19/2021 2:15:00 AM 15.07 59.126 0.489 7.56 3.7 8.22
5/19/2021 2:30:00 AM 14.96 58.928 0.489 7.56 3.62 8.21
5/19/2021 2:45:00 AM 14.85 58.73 0.489 7.55 4 8.23
5/19/2021 3:00:00 AM 14.74 58.532 0.489 7.55 3.94 8.25
5/19/2021 3:15:00 AM 14.62 58.316 0.489 7.55 3.78 8.27
5/19/2021 3:30:00 AM 14.51 58.118 0.49 7.55 3.83 8.29
5/19/2021 3:45:00 AM 14.41 57.938 0.49 7.54 4.04 8.32
5/19/2021 4:00:00 AM 14.3 57.74 0.49 7.54 3.84 8.35
5/19/2021 4:15:00 AM 14.2 57.56 0.491 7.54 3.9 8.36
5/19/2021 4:30:00 AM 14.09 57.362 0.491 7.54 4 8.39
5/19/2021 4:45:00 AM 13.99 57.182 0.492 7.54 3.92 8.41
5/19/2021 5:00:00 AM 13.89 57.002 0.493 7.53 3.93 8.43
5/19/2021 5:15:00 AM 13.79 56.822 0.494 7.53 4.22 8.46
5/19/2021 5:30:00 AM 13.7 56.66 0.494 7.53 3.71 8.48
5/19/2021 5:45:00 AM 13.61 56.498 0.495 7.53 3.66 8.51
5/19/2021 6:00:00 AM 13.52 56.336 0.495 7.53 10.28 8.54
5/19/2021 6:15:00 AM 13.44 56.192 0.496 7.53 3.45 8.57
5/19/2021 6:30:00 AM 13.36 56.048 0.497 7.53 3.54 8.6
5/19/2021 6:45:00 AM 13.29 55.922 0.497 7.54 3.79 8.63
5/19/2021 7:00:00 AM 13.22 55.796 0.498 7.54 3.49 8.69
5/19/2021 7:15:00 AM 13.15 55.67 0.499 7.54 4.23 8.72
5/19/2021 7:30:00 AM 13.09 55.562 0.499 7.54 3.75 8.76
5/19/2021 7:45:00 AM 13.03 55.454 0.499 7.55 3.91 8.82
5/19/2021 8:00:00 AM 12.97 55.346 0.499 7.55 3.98 8.86
5/19/2021 8:15:00 AM 12.92 55.256 0.498 7.55 3.9 8.93
5/19/2021 8:30:00 AM 12.89 55.202 0.496 7.55 3.67 9
5/19/2021 8:45:00 AM 12.86 55.148 0.493 7.55 3.41 9.07
5/19/2021 9:00:00 AM 12.86 55.148 0.489 7.56 5.76 9.16
5/19/2021 9:15:00 AM 12.9 55.22 0.484 7.56 3.2 9.28
5/19/2021 9:30:00 AM 12.95 55.31 0.479 7.57 3.23 9.38
5/19/2021 9:45:00 AM 13.02 55.436 0.473 7.57 4.88 9.48
5/19/2021 10:00:00 AM 13.13 55.634 0.469 7.58 3.38 9.58
5/19/2021 10:15:00 AM 13.27 55.886 0.465 7.59 4.21 9.74
5/19/2021 10:30:00 AM 13.44 56.192 0.463 7.6 3.41 9.89
5/19/2021 10:45:00 AM 13.65 56.57 0.463 7.61 7.9 10.04
5/19/2021 11:00:00 AM 13.85 56.93 0.463 7.63 5.08 10.2
5/19/2021 11:15:00 AM 14.05 57.29 0.465 7.65 3.61 10.36
5/19/2021 11:30:00 AM 14.28 57.704 0.467 7.67 3.57 10.53
5/19/2021 11:45:00 AM 14.5 58.1 0.47 7.69 3.69 10.68
5/19/2021 12:00:00 PM 14.74 58.532 0.473 7.72 3.18 10.84
5/19/2021 12:15:00 PM 14.98 58.964 0.476 7.74 4.29 11
5/19/2021 12:30:00 PM 15.24 59.432 0.479 7.76 7.38 11.14
5/19/2021 12:45:00 PM 15.51 59.918 0.482 7.79 3.42 11.3
5/19/2021 1:00:00 PM 15.79 60.422 0.485 7.82 4.67 11.44
5/19/2021 1:15:00 PM 16.08 60.944 0.488 7.84 2.99 11.59
5/19/2021 1:30:00 PM 16.38 61.484 0.491 7.88 2.74 11.72
5/19/2021 1:45:00 PM 16.67 62.006 0.493 7.91 4.86 11.84
5/19/2021 2:00:00 PM 16.97 62.546 0.495 7.94 2.87 11.96
5/19/2021 2:15:00 PM 17.24 63.032 0.497 7.97 3.15 12.05
5/19/2021 2:30:00 PM 17.5 63.5 0.499 8.01 2.63 12.14
5/19/2021 2:45:00 PM 17.77 63.986 0.502 8.03 2.65 12.22
5/19/2021 3:00:00 PM 17.97 64.346 0.504 8.06 2.62 12.24
5/19/2021 3:15:00 PM 18.09 64.562 0.506 8.07 2.7 12.25
5/19/2021 3:30:00 PM 18.19 64.742 0.508 8.09 2.59 12.22
5/19/2021 3:45:00 PM 18.36 65.048 0.51 8.1 2.68 12.24
5/19/2021 4:00:00 PM 18.45 65.21 0.511 8.11 2.68 12.19
5/19/2021 4:15:00 PM 18.53 65.354 0.512 8.11 2.7 12.15
5/19/2021 4:30:00 PM 18.52 65.336 0.513 8.12 2.84 12.05
5/19/2021 4:45:00 PM 18.52 65.336 0.514 8.12 2.77 11.95
5/19/2021 5:00:00 PM 18.55 65.39 0.515 8.13 2.63 11.93
5/19/2021 5:15:00 PM 18.61 65.498 0.515 8.13 2.57 11.89
5/19/2021 5:30:00 PM 18.59 65.462 0.517 8.13 2.59 11.77
5/19/2021 5:45:00 PM 18.57 65.426 0.517 8.12 2.88 11.65
5/19/2021 6:00:00 PM 18.55 65.39 0.518 8.12 2.78 11.55
5/19/2021 6:15:00 PM 18.52 65.336 0.519 8.11 2.76 11.42
5/19/2021 6:30:00 PM 18.5 65.3 0.52 8.1 2.92 11.29
5/19/2021 6:45:00 PM 18.45 65.21 0.521 8.08 2.89 11.13
5/19/2021 7:00:00 PM 18.4 65.12 0.521 8.07 3.12 10.98
5/19/2021 7:15:00 PM 18.36 65.048 0.521 8.06 3.1 10.84
5/19/2021 7:30:00 PM 18.31 64.958 0.519 8.04 3.49 10.7
5/19/2021 7:45:00 PM 18.26 64.868 0.517 8.03 3.5 10.54
5/19/2021 8:00:00 PM 18.21 64.778 0.513 8.01 3.2 10.38
5/19/2021 8:15:00 PM 18.14 64.652 0.508 7.98 3.14 10.2
5/19/2021 8:30:00 PM 18.08 64.544 0.502 7.96 2.92 10.03
5/19/2021 8:45:00 PM 18.01 64.418 0.495 7.93 3.22 9.87
5/19/2021 9:00:00 PM 17.94 64.292 0.489 7.9 2.99 9.71
5/19/2021 9:15:00 PM 17.86 64.148 0.482 7.87 2.95 9.55
5/19/2021 9:30:00 PM 17.78 64.004 0.477 7.85 3.23 9.42
5/19/2021 9:45:00 PM 17.7 63.86 0.474 7.82 3.35 9.28
5/19/2021 10:00:00 PM 17.61 63.698 0.473 7.8 3.55 9.16
5/19/2021 10:15:00 PM 17.52 63.536 0.473 7.77 3.72 9.03
5/19/2021 10:30:00 PM 17.43 63.374 0.474 7.76 3.91 8.92
5/19/2021 10:45:00 PM 17.33 63.194 0.476 7.74 3.62 8.81
5/19/2021 11:00:00 PM 17.24 63.032 0.479 7.72 3.63 8.69
5/19/2021 11:15:00 PM 17.15 62.87 0.482 7.7 3.76 8.61
5/19/2021 11:30:00 PM 17.05 62.69 0.486 7.69 3.81 8.51
5/19/2021 11:45:00 PM 16.96 62.528 0.49 7.67 3.94 8.42
5/20/2021 12:00:00 AM 16.86 62.348 0.493 7.66 3.66 8.34
5/20/2021 12:15:00 AM 16.76 62.168 0.497 7.65 3.77 8.26
5/20/2021 12:30:00 AM 16.67 62.006 0.5 7.63 3.8 8.2
5/20/2021 12:45:00 AM 16.57 61.826 0.502 7.62 3.81 8.14
5/20/2021 1:00:00 AM 16.48 61.664 0.505 7.61 3.56 8.09
5/20/2021 1:15:00 AM 16.38 61.484 0.507 7.6 3.61 8.04
5/20/2021 1:30:00 AM 16.29 61.322 0.51 7.59 3.42 7.99
5/20/2021 1:45:00 AM 16.19 61.142 0.511 7.58 3.7 7.97
5/20/2021 2:00:00 AM 16.09 60.962 0.513 7.57 3.79 7.95
5/20/2021 2:15:00 AM 15.99 60.782 0.514 7.57 3.73 7.93
5/20/2021 2:30:00 AM 15.89 60.602 0.515 7.56 3.77 7.92
5/20/2021 2:45:00 AM 15.79 60.422 0.516 7.55 3.91 7.91
5/20/2021 3:00:00 AM 15.69 60.242 0.517 7.55 3.73 7.92
5/20/2021 3:15:00 AM 15.58 60.044 0.518 7.54 3.64 7.92
5/20/2021 3:30:00 AM 15.48 59.864 0.52 7.54 3.66 7.91
5/20/2021 3:45:00 AM 15.38 59.684 0.52 7.54 3.63 7.93
5/20/2021 4:00:00 AM 15.28 59.504 0.521 7.53 3.78 7.95
5/20/2021 4:15:00 AM 15.19 59.342 0.522 7.53 3.74 7.96
5/20/2021 4:30:00 AM 15.1 59.18 0.522 7.53 3.58 7.99
5/20/2021 4:45:00 AM 15 59 0.523 7.53 3.64 8.02
5/20/2021 5:00:00 AM 14.91 58.838 0.523 7.53 3.86 8.02
5/20/2021 5:15:00 AM 14.82 58.676 0.524 7.53 3.45 8.05
5/20/2021 5:30:00 AM 14.72 58.496 0.525 7.52 3.72 8.06
5/20/2021 5:45:00 AM 14.63 58.334 0.525 7.53 3.49 8.09
5/20/2021 6:00:00 AM 14.54 58.172 0.526 7.53 3.52 8.13
5/20/2021 6:15:00 AM 14.46 58.028 0.527 7.52 4.08 8.16
5/20/2021 6:30:00 AM 14.39 57.902 0.528 7.53 3.98 8.21
5/20/2021 6:45:00 AM 14.33 57.794 0.529 7.53 4.01 8.23
5/20/2021 7:00:00 AM 14.27 57.686 0.53 7.53 4.28 8.28
5/20/2021 7:15:00 AM 14.21 57.578 0.531 7.53 3.17 8.34
5/20/2021 7:30:00 AM 14.16 57.488 0.533 7.54 4.16 8.41
5/20/2021 7:45:00 AM 14.12 57.416 0.534 7.54 4.8 8.5
5/20/2021 8:00:00 AM 14.09 57.362 0.535 7.55 3.32 8.57
5/20/2021 8:15:00 AM 14.07 57.326 0.536 7.55 3.34 8.66
5/20/2021 8:30:00 AM 14.06 57.308 0.537 7.56 3.39 8.77
5/20/2021 8:45:00 AM 14.05 57.29 0.538 7.57 5.06 8.9
5/20/2021 9:00:00 AM 14.07 57.326 0.539 7.58 3.31 9.02
5/20/2021 9:15:00 AM 14.09 57.362 0.54 7.59 3.16 9.14
5/20/2021 9:30:00 AM 14.13 57.434 0.54 7.6 3.66 9.27
5/20/2021 9:45:00 AM 14.2 57.56 0.541 7.61 3.39 9.43
5/20/2021 10:00:00 AM 14.29 57.722 0.542 7.62 3.4 9.54
5/20/2021 10:15:00 AM 14.38 57.884 0.542 7.64 3.06 9.71
5/20/2021 10:30:00 AM 14.52 58.136 0.543 7.66 3.02 9.87
5/20/2021 10:45:00 AM 14.6 58.28 0.543 7.67 9.79 9.96
5/20/2021 11:00:00 AM 14.7 58.46 0.543 7.69 4.05 10.12
5/20/2021 11:15:00 AM 14.84 58.712 0.544 7.7 2.89 10.26
5/20/2021 11:30:00 AM 15.02 59.036 0.543 7.72 2.96 10.42
5/20/2021 11:45:00 AM 15.11 59.198 0.544 7.73 2.76 10.55
5/20/2021 12:00:00 PM 15.26 59.468 0.543 7.75 2.81 10.7
5/20/2021 12:15:00 PM 15.46 59.828 0.543 7.77 2.77 10.82
5/20/2021 12:30:00 PM 15.73 60.314 0.543 7.79 2.79 10.98
5/20/2021 12:45:00 PM 15.98 60.764 0.543 7.81 2.69 11.15
5/20/2021 1:00:00 PM 16.31 61.358 0.543 7.83 2.65 11.29
5/20/2021 1:15:00 PM 16.61 61.898 0.543 7.85 2.54 11.45
5/20/2021 1:30:00 PM 16.93 62.474 0.544 7.88 2.59 11.57
5/20/2021 1:45:00 PM 17.21 62.978 0.544 7.89 2.59 11.67
5/20/2021 2:00:00 PM 17.48 63.464 0.544 7.92 2.49 11.82
5/20/2021 2:15:00 PM 17.64 63.752 0.545 7.94 2.54 11.93
5/20/2021 2:30:00 PM 17.84 64.112 0.545 7.96 2.56 12
5/20/2021 2:45:00 PM 18.09 64.562 0.546 7.99 2.47 12.08
5/20/2021 3:00:00 PM 18.32 64.976 0.547 8 2.41 12.09
5/20/2021 3:15:00 PM 18.52 65.336 0.547 8.02 2.57 12.17
5/20/2021 3:30:00 PM 18.7 65.66 0.548 8.04 2.47 12.17
5/20/2021 3:45:00 PM 18.87 65.966 0.548 8.06 2.54 12.17
5/20/2021 4:00:00 PM 19 66.2 0.548 8.07 2.57 12.15
5/20/2021 4:15:00 PM 19.05 66.29 0.548 8.08 2.75 12.09
5/20/2021 4:30:00 PM 19.11 66.398 0.548 8.1 2.87 12.03
5/20/2021 4:45:00 PM 19.2 66.56 0.548 8.1 2.69 11.98
5/20/2021 5:00:00 PM 19.23 66.614 0.549 8.1 2.67 11.88
5/20/2021 5:15:00 PM 19.25 66.65 0.549 8.1 2.76 11.76
5/20/2021 5:30:00 PM 19.25 66.65 0.549 8.09 3.1 11.64
5/20/2021 5:45:00 PM 19.26 66.668 0.549 8.09 2.74 11.53
5/20/2021 6:00:00 PM 19.28 66.704 0.549 8.08 16.18 11.38
5/20/2021 6:15:00 PM 19.29 66.722 0.549 8.09 2.65 11.31
5/20/2021 6:30:00 PM 19.27 66.686 0.549 8.08 2.59 11.15
5/20/2021 6:45:00 PM 19.23 66.614 0.549 8.08 2.56 11.05
5/20/2021 7:00:00 PM 19.2 66.56 0.549 8.07 2.65 10.9
5/20/2021 7:15:00 PM 19.17 66.506 0.549 8.06 2.47 10.78
5/20/2021 7:30:00 PM 19.12 66.416 0.549 8.04 2.56 10.6
5/20/2021 7:45:00 PM 19.07 66.326 0.549 8.03 2.6 10.46
5/20/2021 8:00:00 PM 19.01 66.218 0.549 8.02 2.51 10.3
5/20/2021 8:15:00 PM 18.96 66.128 0.548 8.01 2.5 10.16
5/20/2021 8:30:00 PM 18.9 66.02 0.548 8 2.44 10
5/20/2021 8:45:00 PM 18.83 65.894 0.548 7.98 2.51 9.83
5/20/2021 9:00:00 PM 18.76 65.768 0.548 7.96 2.88 9.68
5/20/2021 9:15:00 PM 18.69 65.642 0.548 7.94 2.95 9.52
5/20/2021 9:30:00 PM 18.63 65.534 0.547 7.92 3.07 9.38
5/20/2021 9:45:00 PM 18.56 65.408 0.547 7.91 2.95 9.26
5/20/2021 10:00:00 PM 18.48 65.264 0.546 7.88 3.39 9.11
5/20/2021 10:15:00 PM 18.4 65.12 0.546 7.86 3.71 8.98
5/20/2021 10:30:00 PM 18.31 64.958 0.545 7.84 3.53 8.86
5/20/2021 10:45:00 PM 18.22 64.796 0.544 7.83 3.37 8.74
5/20/2021 11:00:00 PM 18.13 64.634 0.543 7.81 3.33 8.63
5/20/2021 11:15:00 PM 18.03 64.454 0.542 7.79 3.53 8.53
5/20/2021 11:30:00 PM 17.94 64.292 0.54 7.77 3.46 8.43
5/20/2021 11:45:00 PM 17.83 64.094 0.538 7.75 3.5 8.33
5/21/2021 12:00:00 AM 17.75 63.95 0.537 7.73 3.29 8.24
5/21/2021 12:15:00 AM 17.65 63.77 0.535 7.71 3.7 8.17
5/21/2021 12:30:00 AM 17.56 63.608 0.533 7.69 3.62 8.08
5/21/2021 12:45:00 AM 17.47 63.446 0.531 7.67 3.66 8
5/21/2021 1:00:00 AM 17.38 63.284 0.531 7.66 3.56 7.94
5/21/2021 1:15:00 AM 17.29 63.122 0.53 7.64 3.68 7.87
5/21/2021 1:30:00 AM 17.2 62.96 0.531 7.63 3.77 7.83
5/21/2021 1:45:00 AM 17.1 62.78 0.532 7.62 3.63 7.77
5/21/2021 2:00:00 AM 17.01 62.618 0.533 7.61 3.69 7.74
5/21/2021 2:15:00 AM 16.92 62.456 0.535 7.59 3.51 7.69
5/21/2021 2:30:00 AM 16.82 62.276 0.537 7.59 3.83 7.68
5/21/2021 2:45:00 AM 16.72 62.096 0.539 7.58 3.74 7.64
5/21/2021 3:00:00 AM 16.63 61.934 0.54 7.57 3.75 7.62
5/21/2021 3:15:00 AM 16.53 61.754 0.542 7.57 3.48 7.63
5/21/2021 3:30:00 AM 16.43 61.574 0.544 7.56 3.54 7.63
5/21/2021 3:45:00 AM 16.33 61.394 0.546 7.55 4.38 7.63
5/21/2021 4:00:00 AM 16.23 61.214 0.547 7.55 3.65 7.65
5/21/2021 4:15:00 AM 16.13 61.034 0.549 7.55 3.52 7.65
5/21/2021 4:30:00 AM 16.04 60.872 0.551 7.55 3.62 7.67
5/21/2021 4:45:00 AM 15.95 60.71 0.552 7.54 4.04 7.68
5/21/2021 5:00:00 AM 15.86 60.548 0.553 7.54 3.8 7.7
5/21/2021 5:15:00 AM 15.76 60.368 0.554 7.54 3.84 7.72
5/21/2021 5:30:00 AM 15.66 60.188 0.555 7.54 3.85 7.76
5/21/2021 5:45:00 AM 15.56 60.008 0.556 7.54 3.52 7.77
5/21/2021 6:00:00 AM 15.46 59.828 0.556 7.54 3.4 7.8
5/21/2021 6:15:00 AM 15.37 59.666 0.557 7.54 3.56 7.84
5/21/2021 6:30:00 AM 15.27 59.486 0.557 7.54 3.45 7.9
5/21/2021 6:45:00 AM 15.19 59.342 0.558 7.54 3.42 7.94
5/21/2021 7:00:00 AM 15.11 59.198 0.558 7.54 3.3 7.99
5/21/2021 7:15:00 AM 15.03 59.054 0.558 7.55 3.59 8.06
5/21/2021 7:30:00 AM 14.95 58.91 0.559 7.55 3.35 8.1
5/21/2021 7:45:00 AM 14.88 58.784 0.559 7.55 3.27 8.16
5/21/2021 8:00:00 AM 14.81 58.658 0.56 7.55 3.36 8.21
5/21/2021 8:15:00 AM 14.76 58.568 0.56 7.55 7.15 8.21
5/21/2021 8:30:00 AM 14.7 58.46 0.56 7.56 3.71 8.34
5/21/2021 8:45:00 AM 14.65 58.37 0.561 7.56 3.07 8.44
5/21/2021 9:00:00 AM 14.63 58.334 0.561 7.57 3.14 8.54
5/21/2021 9:15:00 AM 14.65 58.37 0.561 7.58 3.61 8.65
5/21/2021 9:30:00 AM 14.68 58.424 0.562 7.58 3.08 8.75
5/21/2021 9:45:00 AM 14.71 58.478 0.562 7.59 5.72 8.88
5/21/2021 10:00:00 AM 14.76 58.568 0.562 7.61 4.63 9.02
5/21/2021 10:15:00 AM 14.88 58.784 0.563 7.62 2.8 9.14
5/21/2021 10:30:00 AM 15 59 0.563 7.63 2.85 9.3
5/21/2021 10:45:00 AM 15.17 59.306 0.563 7.65 4.19 9.45
5/21/2021 11:00:00 AM 15.35 59.63 0.564 7.66 2.58 9.61
5/21/2021 11:15:00 AM 15.54 59.972 0.564 7.67 7 9.75
5/21/2021 11:30:00 AM 15.75 60.35 0.565 7.69 2.54 9.9
5/21/2021 11:45:00 AM 15.97 60.746 0.565 7.71 2.77 10.09
5/21/2021 12:00:00 PM 16.2 61.16 0.566 7.73 3.19 10.24
5/21/2021 12:15:00 PM 16.43 61.574 0.566 7.74 2.92 10.38
5/21/2021 12:30:00 PM 16.66 61.988 0.567 7.76 5.2 10.53
5/21/2021 12:45:00 PM 16.92 62.456 0.567 7.77 2.65 10.66
5/21/2021 1:00:00 PM 17.17 62.906 0.568 7.79 2.42 10.79
5/21/2021 1:15:00 PM 17.43 63.374 0.568 7.81 2.41 10.96
5/21/2021 1:30:00 PM 17.69 63.842 0.568 7.82 2.43 11.07
5/21/2021 1:45:00 PM 18 64.4 0.569 7.85 2.38 11.24
5/21/2021 2:00:00 PM 18.28 64.904 0.569 7.86 3.29 11.36
5/21/2021 2:15:00 PM 18.56 65.408 0.569 7.89 2.43 11.46
5/21/2021 2:30:00 PM 18.8 65.84 0.57 7.89 13 11.52
5/21/2021 2:45:00 PM 19.08 66.344 0.57 7.93 2.82 11.71
5/21/2021 3:00:00 PM 19.3 66.74 0.57 7.94 2.16 11.76
5/21/2021 3:15:00 PM 19.5 67.1 0.57 7.96 2.33 11.81
5/21/2021 3:30:00 PM 19.72 67.496 0.571 7.98 2.25 11.85
5/21/2021 3:45:00 PM 19.88 67.784 0.571 7.98 2.38 11.82
5/21/2021 4:00:00 PM 19.99 67.982 0.571 7.99 2.25 11.79
5/21/2021 4:15:00 PM 20.17 68.306 0.571 8.01 2.5 11.82
5/21/2021 4:30:00 PM 20.25 68.45 0.572 8.01 2.28 11.68
5/21/2021 4:45:00 PM 20.38 68.684 0.571 8.02 2.5 11.71
5/21/2021 5:00:00 PM 20.34 68.612 0.572 8.01 2.39 11.5
5/21/2021 5:15:00 PM 20.36 68.648 0.572 8.02 2.44 11.4
5/21/2021 5:30:00 PM 20.42 68.756 0.572 8.03 2.47 11.37
5/21/2021 5:45:00 PM 20.45 68.81 0.572 8.02 2.41 11.29
5/21/2021 6:00:00 PM 20.49 68.882 0.572 8.02 2.48 11.17
5/21/2021 6:15:00 PM 20.5 68.9 0.572 8.02 2.41 11.02
5/21/2021 6:30:00 PM 20.49 68.882 0.572 8.02 2.24 10.91
5/21/2021 6:45:00 PM 20.47 68.846 0.572 8.01 2.47 10.77
5/21/2021 7:00:00 PM 20.45 68.81 0.572 8.01 2.37 10.63
5/21/2021 7:15:00 PM 20.42 68.756 0.572 8 2.44 10.48
5/21/2021 7:30:00 PM 20.38 68.684 0.572 7.99 2.56 10.35
5/21/2021 7:45:00 PM 20.31 68.558 0.573 7.98 2.6 10.17
5/21/2021 8:00:00 PM 20.24 68.432 0.573 7.96 2.43 9.98
5/21/2021 8:15:00 PM 20.16 68.288 0.574 7.95 2.73 9.79
5/21/2021 8:30:00 PM 20.07 68.126 0.574 7.94 2.63 9.68
5/21/2021 8:45:00 PM 19.98 67.964 0.575 7.93 2.61 9.52
5/21/2021 9:00:00 PM 19.89 67.802 0.575 7.91 2.73 9.38
5/21/2021 9:15:00 PM 19.8 67.64 0.576 7.9 2.58 9.24
5/21/2021 9:30:00 PM 19.71 67.478 0.577 7.88 2.88 9.11
5/21/2021 9:45:00 PM 19.62 67.316 0.577 7.87 2.9 8.98
5/21/2021 10:00:00 PM 19.53 67.154 0.578 7.86 3.03 8.85
5/21/2021 10:15:00 PM 19.44 66.992 0.578 7.84 3.31 8.7
5/21/2021 10:30:00 PM 19.34 66.812 0.579 7.82 3.48 8.56
5/21/2021 10:45:00 PM 19.25 66.65 0.58 7.81 3.16 8.46
5/21/2021 11:00:00 PM 19.15 66.47 0.581 7.79 3.08 8.34
5/21/2021 11:15:00 PM 19.05 66.29 0.581 7.78 3.42 8.25
5/21/2021 11:30:00 PM 18.96 66.128 0.581 7.77 3.49 8.15
5/21/2021 11:45:00 PM 18.86 65.948 0.581 7.75 4.4 8.06
5/22/2021 12:00:00 AM 18.77 65.786 0.582 7.74 4.51 7.97
5/22/2021 12:15:00 AM 18.67 65.606 0.581 7.73 3.56 7.9
5/22/2021 12:30:00 AM 18.57 65.426 0.581 7.71 4.06 7.83
5/22/2021 12:45:00 AM 18.48 65.264 0.581 7.7 3.65 7.75
5/22/2021 1:00:00 AM 18.4 65.12 0.581 7.69 3.91 7.7
5/22/2021 1:15:00 AM 18.31 64.958 0.581 7.67 3.9 7.62
5/22/2021 1:30:00 AM 18.22 64.796 0.581 7.66 3.73 7.54
5/22/2021 1:45:00 AM 18.13 64.634 0.581 7.65 3.58 7.49
5/22/2021 2:00:00 AM 18.06 64.508 0.581 7.64 3.64 7.43
5/22/2021 2:15:00 AM 17.98 64.364 0.58 7.63 3.68 7.38
5/22/2021 2:30:00 AM 17.91 64.238 0.58 7.62 3.68 7.35
5/22/2021 2:45:00 AM 17.83 64.094 0.58 7.61 3.62 7.31
5/22/2021 3:00:00 AM 17.75 63.95 0.581 7.6 3.7 7.28
5/22/2021 3:15:00 AM 17.67 63.806 0.581 7.59 3.69 7.27
5/22/2021 3:30:00 AM 17.6 63.68 0.582 7.58 4 7.23
5/22/2021 3:45:00 AM 17.52 63.536 0.582 7.58 3.84 7.25
5/22/2021 4:00:00 AM 17.44 63.392 0.582 7.57 3.81 7.24
5/22/2021 4:15:00 AM 17.35 63.23 0.583 7.57 3.61 7.24
5/22/2021 4:30:00 AM 17.26 63.068 0.583 7.56 3.72 7.24
5/22/2021 4:45:00 AM 17.16 62.888 0.584 7.56 3.79 7.26
5/22/2021 5:00:00 AM 17.07 62.726 0.584 7.56 3.87 7.27
5/22/2021 5:15:00 AM 16.98 62.564 0.585 7.55 4.05 7.26
5/22/2021 5:30:00 AM 16.88 62.384 0.585 7.55 7.36 7.29
5/22/2021 5:45:00 AM 16.79 62.222 0.586 7.55 4.06 7.3
5/22/2021 6:00:00 AM 16.68 62.024 0.586 7.55 24 7.33
5/22/2021 6:15:00 AM 16.6 61.88 0.586 7.55 4.3 7.37
5/22/2021 6:30:00 AM 16.51 61.718 0.587 7.55 3.52 7.43
5/22/2021 6:45:00 AM 16.43 61.574 0.588 7.55 3.91 7.5
5/22/2021 7:00:00 AM 16.34 61.412 0.588 7.56 3.28 7.55
5/22/2021 7:15:00 AM 16.27 61.286 0.588 7.56 3.26 7.65
5/22/2021 7:30:00 AM 16.2 61.16 0.589 7.56 3.51 7.72
5/22/2021 7:45:00 AM 16.15 61.07 0.589 7.57 3.73 7.83
5/22/2021 8:00:00 AM 16.11 60.998 0.59 7.57 3.49 7.94
5/22/2021 8:15:00 AM 16.06 60.908 0.59 7.58 3.39 8.04
5/22/2021 8:30:00 AM 16.01 60.818 0.591 7.59 3.63 8.1
5/22/2021 8:45:00 AM 15.97 60.746 0.591 7.59 3.2 8.16
5/22/2021 9:00:00 AM 15.94 60.692 0.592 7.6 2.98 8.3
5/22/2021 9:15:00 AM 15.93 60.674 0.592 7.61 2.72 8.42
5/22/2021 9:30:00 AM 15.94 60.692 0.593 7.62 2.68 8.57
5/22/2021 9:45:00 AM 15.97 60.746 0.593 7.63 2.85 8.73
5/22/2021 10:00:00 AM 15.99 60.782 0.593 7.64 2.79 8.85
5/22/2021 10:15:00 AM 16.02 60.836 0.594 7.65 4.8 8.98
5/22/2021 10:30:00 AM 16.04 60.872 0.594 7.66 4.33 9.09
5/22/2021 10:45:00 AM 16.13 61.034 0.594 7.67 2.85 9.27
5/22/2021 11:00:00 AM 16.2 61.16 0.595 7.69 2.46 9.44
5/22/2021 11:15:00 AM 16.3 61.34 0.595 7.7 2.59 9.58
5/22/2021 11:30:00 AM 16.36 61.448 0.595 7.71 2.59 9.68
5/22/2021 11:45:00 AM 16.45 61.61 0.595 7.73 2.79 9.83
5/22/2021 12:00:00 PM 16.54 61.772 0.596 7.74 2.68 9.98
5/22/2021 12:15:00 PM 16.65 61.97 0.596 7.75 2.64 10.09
5/22/2021 12:30:00 PM 16.76 62.168 0.596 7.77 2.47 10.24
5/22/2021 12:45:00 PM 16.9 62.42 0.597 7.78 2.61 10.36
5/22/2021 1:00:00 PM 17.06 62.708 0.597 7.8 2.64 10.53
5/22/2021 1:15:00 PM 17.27 63.086 0.597 7.81 2.53 10.66
5/22/2021 1:30:00 PM 17.31 63.158 0.597 7.83 2.84 10.7
5/22/2021 1:45:00 PM 17.36 63.248 0.597 7.84 2.61 10.77
5/22/2021 2:00:00 PM 17.47 63.446 0.597 7.85 2.79 10.9
5/22/2021 2:15:00 PM 17.62 63.716 0.598 7.87 2.71 11
5/22/2021 2:30:00 PM 17.77 63.986 0.598 7.88 2.65 11.14
5/22/2021 2:45:00 PM 17.9 64.22 0.598 7.9 2.68 11.21
5/22/2021 3:00:00 PM 17.92 64.256 0.598 7.91 2.35 11.17
5/22/2021 3:15:00 PM 17.93 64.274 0.598 7.92 2.39 11.18
5/22/2021 3:30:00 PM 18.02 64.436 0.598 7.93 2.4 11.24
5/22/2021 3:45:00 PM 18.22 64.796 0.598 7.94 2.38 11.34
5/22/2021 4:00:00 PM 18.3 64.94 0.598 7.95 2.31 11.34
5/22/2021 4:15:00 PM 18.36 65.048 0.598 7.96 2.29 11.33
5/22/2021 4:30:00 PM 18.43 65.174 0.597 7.97 2.28 11.37
5/22/2021 4:45:00 PM 18.59 65.462 0.597 7.99 2.21 11.39
5/22/2021 5:00:00 PM 18.66 65.588 0.597 7.99 2.3 11.32
5/22/2021 5:15:00 PM 18.67 65.606 0.597 7.99 2.37 11.24
5/22/2021 5:30:00 PM 18.71 65.67799 0.597 8 2.46 11.21
5/22/2021 5:45:00 PM 18.72 65.696 0.597 8 2.41 11.16
5/22/2021 6:00:00 PM 18.73 65.714 0.597 8 2.42 11.06
5/22/2021 6:15:00 PM 18.72 65.696 0.598 7.99 2.77 10.93
5/22/2021 6:30:00 PM 18.72 65.696 0.598 7.99 3.42 10.79
5/22/2021 6:45:00 PM 18.71 65.67799 0.598 7.98 2.77 10.7
5/22/2021 7:00:00 PM 18.68 65.624 0.599 7.98 2.87 10.58
5/22/2021 7:15:00 PM 18.64 65.552 0.599 7.97 2.89 10.44
5/22/2021 7:30:00 PM 18.62 65.516 0.6 7.97 3.44 10.35
5/22/2021 7:45:00 PM 18.58 65.444 0.601 7.96 2.89 10.19
5/22/2021 8:00:00 PM 18.54 65.372 0.601 7.95 3.25 10.06
5/22/2021 8:15:00 PM 18.5 65.3 0.602 7.94 3.33 9.9
5/22/2021 8:30:00 PM 18.45 65.21 0.603 7.93 3.88 9.76
5/22/2021 8:45:00 PM 18.4 65.12 0.604 7.91 3.21 9.62
5/22/2021 9:00:00 PM 18.36 65.048 0.605 7.9 3.16 9.49
5/22/2021 9:15:00 PM 18.31 64.958 0.605 7.89 2.93 9.37
5/22/2021 9:30:00 PM 18.25 64.85 0.606 7.89 3.49 9.25
5/22/2021 9:45:00 PM 18.2 64.76 0.606 7.88 3.45 9.11
5/22/2021 10:00:00 PM 18.15 64.67 0.607 7.87 3.32 9
5/22/2021 10:15:00 PM 18.1 64.58 0.607 7.86 3.81 8.89
5/22/2021 10:30:00 PM 18.05 64.49 0.607 7.85 3.77 8.79
5/22/2021 10:45:00 PM 18 64.4 0.608 7.84 3.33 8.68
5/22/2021 11:00:00 PM 17.95 64.31 0.608 7.83 3.84 8.58
5/22/2021 11:15:00 PM 17.89 64.202 0.609 7.82 3.41 8.52
5/22/2021 11:30:00 PM 17.83 64.094 0.609 7.81 3.43 8.44
5/22/2021 11:45:00 PM 17.78 64.004 0.61 7.79 3.36 8.33
5/23/2021 12:00:00 AM 17.72 63.896 0.61 7.78 3.17 8.26
5/23/2021 12:15:00 AM 17.65 63.77 0.611 7.77 3.64 8.18
5/23/2021 12:30:00 AM 17.6 63.68 0.611 7.75 3.77 8.09
5/23/2021 12:45:00 AM 17.54 63.572 0.611 7.74 3.59 8
5/23/2021 1:00:00 AM 17.48 63.464 0.612 7.73 3.33 7.91
5/23/2021 1:15:00 AM 17.42 63.356 0.612 7.72 3.35 7.85
5/23/2021 1:30:00 AM 17.35 63.23 0.611 7.7 3.37 7.79
5/23/2021 1:45:00 AM 17.29 63.122 0.611 7.69 3.93 7.71
5/23/2021 2:00:00 AM 17.24 63.032 0.611 7.68 3.99 7.67
5/23/2021 2:15:00 AM 17.19 62.942 0.61 7.67 3.61 7.62
5/23/2021 2:30:00 AM 17.13 62.834 0.61 7.66 3.67 7.58
5/23/2021 2:45:00 AM 17.08 62.744 0.61 7.66 3.64 7.54
5/23/2021 3:00:00 AM 17.03 62.654 0.61 7.65 3.81 7.51
5/23/2021 3:15:00 AM 16.98 62.564 0.61 7.64 3.65 7.49
5/23/2021 3:30:00 AM 16.93 62.474 0.61 7.64 3.87 7.46
5/23/2021 3:45:00 AM 16.88 62.384 0.609 7.63 3.61 7.44
5/23/2021 4:00:00 AM 16.82 62.276 0.61 7.62 3.88 7.43
5/23/2021 4:15:00 AM 16.77 62.186 0.61 7.62 3.81 7.42
5/23/2021 4:30:00 AM 16.72 62.096 0.61 7.62 3.77 7.42
5/23/2021 4:45:00 AM 16.66 61.988 0.61 7.61 4.07 7.41
5/23/2021 5:00:00 AM 16.61 61.898 0.61 7.61 3.6 7.41
5/23/2021 5:15:00 AM 16.55 61.79 0.61 7.61 3.72 7.4
5/23/2021 5:30:00 AM 16.5 61.7 0.61 7.6 3.82 7.42
5/23/2021 5:45:00 AM 16.45 61.61 0.61 7.6 4.31 7.4
5/23/2021 6:00:00 AM 16.4 61.52 0.609 7.6 4 7.42
5/23/2021 6:15:00 AM 16.34 61.412 0.608 7.59 5.84 7.45
5/23/2021 6:30:00 AM 16.28 61.304 0.607 7.59 3.83 7.48
5/23/2021 6:45:00 AM 16.24 61.232 0.606 7.59 3.8 7.52
5/23/2021 7:00:00 AM 16.18 61.124 0.605 7.59 3.61 7.57
5/23/2021 7:15:00 AM 16.12 61.016 0.603 7.59 3.69 7.6
5/23/2021 7:30:00 AM 16.07 60.926 0.601 7.59 4.16 7.64
5/23/2021 7:45:00 AM 16.03 60.854 0.598 7.59 3.81 7.67
5/23/2021 8:00:00 AM 15.98 60.764 0.596 7.59 3.57 7.71
5/23/2021 8:15:00 AM 15.95 60.71 0.594 7.59 3.74 7.77
5/23/2021 8:30:00 AM 15.93 60.674 0.592 7.59 3.4 7.81
5/23/2021 8:45:00 AM 15.91 60.638 0.59 7.59 3.6 7.88
5/23/2021 9:00:00 AM 15.92 60.656 0.589 7.59 3.33 7.94
5/23/2021 9:15:00 AM 15.96 60.728 0.588 7.6 3.21 8.04
5/23/2021 9:30:00 AM 16.02 60.836 0.588 7.6 2.95 8.17
5/23/2021 9:45:00 AM 16.08 60.944 0.588 7.61 3.15 8.26
5/23/2021 10:00:00 AM 16.16 61.088 0.589 7.62 4.41 8.38
5/23/2021 10:15:00 AM 16.26 61.268 0.59 7.63 2.96 8.5
5/23/2021 10:30:00 AM 16.38 61.484 0.591 7.64 2.73 8.65
5/23/2021 10:45:00 AM 16.58 61.844 0.593 7.66 2.79 8.83
5/23/2021 11:00:00 AM 16.72 62.096 0.595 7.67 2.94 8.95
5/23/2021 11:15:00 AM 16.82 62.276 0.597 7.68 3.12 9.07
5/23/2021 11:30:00 AM 16.86 62.348 0.599 7.69 3.13 9.1
5/23/2021 11:45:00 AM 16.93 62.474 0.6 7.7 2.84 9.2
5/23/2021 12:00:00 PM 17.03 62.654 0.602 7.71 3.03 9.34
5/23/2021 12:15:00 PM 17.08 62.744 0.604 7.72 2.74 9.43
5/23/2021 12:30:00 PM 17.25 63.05 0.605 7.74 2.6 9.6
5/23/2021 12:45:00 PM 17.36 63.248 0.607 7.75 3.83 9.69
5/23/2021 1:00:00 PM 17.51 63.518 0.608 7.76 2.67 9.8
5/23/2021 1:15:00 PM 17.63 63.734 0.609 7.77 2.65 9.9
5/23/2021 1:30:00 PM 17.69 63.842 0.61 7.78 2.52 9.93
5/23/2021 1:45:00 PM 17.75 63.95 0.611 7.79 2.63 9.98
5/23/2021 2:00:00 PM 17.85 64.13 0.612 7.8 2.51 10.09
5/23/2021 2:15:00 PM 17.97 64.346 0.613 7.82 2.57 10.21
5/23/2021 2:30:00 PM 18.09 64.562 0.614 7.83 2.58 10.34
5/23/2021 2:45:00 PM 18.16 64.688 0.614 7.84 2.55 10.33
5/23/2021 3:00:00 PM 18.13 64.634 0.608 7.85 4.68 10.13
5/23/2021 3:15:00 PM 18.15 64.67 0.609 7.85 4.49 10.17
5/23/2021 3:30:00 PM 18.19 64.742 0.609 7.86 5.22 10.18
5/23/2021 3:45:00 PM 18.21 64.778 0.61 7.86 4.27 10.18
5/23/2021 4:00:00 PM 18.25 64.85 0.61 7.86 5.3 10.14
5/23/2021 4:15:00 PM 18.24 64.832 0.611 7.87 5.11 10.1
5/23/2021 4:30:00 PM 18.22 64.796 0.611 7.86 4.89 9.97
5/23/2021 4:45:00 PM 18.19 64.742 0.612 7.85 4.32 9.9
5/23/2021 5:00:00 PM 18.15 64.67 0.612 7.85 4.65 9.81
5/23/2021 5:15:00 PM 18.11 64.598 0.612 7.84 5.12 9.72
5/23/2021 5:30:00 PM 18.06 64.508 0.613 7.84 4.55 9.66
5/23/2021 5:45:00 PM 18.01 64.418 0.614 7.84 4.05 9.59
5/23/2021 6:00:00 PM 17.96 64.328 0.614 7.83 3.67 9.5
5/23/2021 6:15:00 PM 17.91 64.238 0.615 7.83 3.65 9.41
5/23/2021 6:30:00 PM 17.85 64.13 0.615 7.83 3.34 9.34
5/23/2021 6:45:00 PM 17.8 64.04 0.616 7.83 3.21 9.29
5/23/2021 7:00:00 PM 17.76 63.968 0.616 7.83 2.77 9.27
5/23/2021 7:15:00 PM 17.72 63.896 0.616 7.83 2.9 9.2
5/23/2021 7:30:00 PM 17.68 63.824 0.616 7.83 4.62 9.16
5/23/2021 7:45:00 PM 17.64 63.752 0.616 7.83 4.03 9.08
5/23/2021 8:00:00 PM 17.59 63.662 0.616 7.82 3.07 8.98
5/23/2021 8:15:00 PM 17.53 63.554 0.617 7.81 2.57 8.87
5/23/2021 8:30:00 PM 17.47 63.446 0.617 7.8 2.46 8.79
5/23/2021 8:45:00 PM 17.4 63.32 0.617 7.8 2.52 8.71
5/23/2021 9:00:00 PM 17.33 63.194 0.617 7.79 2.82 8.64
5/23/2021 9:15:00 PM 17.25 63.05 0.617 7.78 3.13 8.59
5/23/2021 9:30:00 PM 17.17 62.906 0.618 7.77 3.34 8.53
5/23/2021 9:45:00 PM 17.08 62.744 0.618 7.77 3.54 8.46
5/23/2021 10:00:00 PM 17.01 62.618 0.619 7.76 3.33 8.42
5/23/2021 10:15:00 PM 16.93 62.474 0.619 7.76 3.46 8.37
5/23/2021 10:30:00 PM 16.85 62.33 0.619 7.75 3.56 8.3
5/23/2021 10:45:00 PM 16.77 62.186 0.62 7.74 3.63 8.25
5/23/2021 11:00:00 PM 16.68 62.024 0.62 7.74 3.65 8.2
5/23/2021 11:15:00 PM 16.61 61.898 0.62 7.73 3.64 8.12
5/23/2021 11:30:00 PM 16.52 61.736 0.62 7.72 3.85 8.08
5/23/2021 11:45:00 PM 16.44 61.592 0.62 7.71 3.74 8.04
5/24/2021 12:00:00 AM 16.35 61.43 0.621 7.7 3.92 7.99
5/24/2021 12:15:00 AM 16.28 61.304 0.621 7.7 3.82 7.95
5/24/2021 12:30:00 AM 16.2 61.16 0.621 7.69 4.08 7.92
5/24/2021 12:45:00 AM 16.12 61.016 0.621 7.69 3.93 7.89
5/24/2021 1:00:00 AM 16.04 60.872 0.622 7.68 3.99 7.86
5/24/2021 1:15:00 AM 15.96 60.728 0.622 7.68 3.99 7.85
5/24/2021 1:30:00 AM 15.88 60.584 0.623 7.67 3.92 7.83
5/24/2021 1:45:00 AM 15.8 60.44 0.623 7.67 3.86 7.81
5/24/2021 2:00:00 AM 15.72 60.296 0.623 7.66 3.81 7.79
5/24/2021 2:15:00 AM 15.63 60.134 0.624 7.66 3.89 7.79
5/24/2021 2:30:00 AM 15.55 59.99 0.624 7.65 3.98 7.77
5/24/2021 2:45:00 AM 15.47 59.846 0.624 7.65 3.95 7.77
5/24/2021 3:00:00 AM 15.38 59.684 0.624 7.65 4.35 7.77
5/24/2021 3:15:00 AM 15.29 59.522 0.624 7.64 4 7.77
5/24/2021 3:30:00 AM 15.22 59.396 0.624 7.64 4.23 7.77
5/24/2021 3:45:00 AM 15.13 59.234 0.624 7.64 4.59 7.77
5/24/2021 4:00:00 AM 15.05 59.09 0.625 7.64 4.17 7.79
5/24/2021 4:15:00 AM 14.97 58.946 0.625 7.63 4.35 7.78
5/24/2021 4:30:00 AM 14.89 58.802 0.625 7.63 3.96 7.78
5/24/2021 4:45:00 AM 14.81 58.658 0.625 7.63 4.12 7.81
5/24/2021 5:00:00 AM 14.74 58.532 0.625 7.63 4.22 7.82
5/24/2021 5:15:00 AM 14.67 58.406 0.625 7.62 4.31 7.82
5/24/2021 5:30:00 AM 14.61 58.298 0.625 7.62 4.12 7.83
5/24/2021 5:45:00 AM 14.54 58.172 0.624 7.62 4.46 7.85
5/24/2021 6:00:00 AM 14.47 58.046 0.624 7.62 4.44 7.86
5/24/2021 6:15:00 AM 14.41 57.938 0.624 7.62 4.25 7.9
5/24/2021 6:30:00 AM 14.35 57.83 0.624 7.62 3.75 7.95
5/24/2021 6:45:00 AM 14.3 57.74 0.624 7.62 4.05 8
5/24/2021 7:00:00 AM 14.25 57.65 0.624 7.62 5.04 8.05
5/24/2021 7:15:00 AM 14.21 57.578 0.625 7.63 3.61 8.13
5/24/2021 7:30:00 AM 14.18 57.524 0.625 7.63 3.55 8.18
5/24/2021 7:45:00 AM 14.16 57.488 0.626 7.64 4.32 8.29
5/24/2021 8:00:00 AM 14.14 57.452 0.627 7.64 3.71 8.38
5/24/2021 8:15:00 AM 14.13 57.434 0.627 7.65 3.38 8.46
5/24/2021 8:30:00 AM 14.12 57.416 0.629 7.65 3.26 8.57
5/24/2021 8:45:00 AM 14.12 57.416 0.63 7.66 3.23 8.66
5/24/2021 9:00:00 AM 14.13 57.434 0.631 7.67 3.38 8.78
5/24/2021 9:15:00 AM 14.16 57.488 0.632 7.68 3.19 8.91
5/24/2021 9:30:00 AM 14.19 57.542 0.633 7.68 3.33 9.03
5/24/2021 9:45:00 AM 14.23 57.614 0.634 7.69 3.11 9.13
5/24/2021 10:00:00 AM 14.3 57.74 0.634 7.7 3.13 9.27
5/24/2021 10:15:00 AM 14.4 57.92 0.635 7.71 3.05 9.41
5/24/2021 10:30:00 AM 14.52 58.136 0.635 7.72 3.06 9.56
5/24/2021 10:45:00 AM 14.61 58.298 0.635 7.73 3.1 9.69
5/24/2021 11:00:00 AM 14.69 58.442 0.635 7.74 2.93 9.79
5/24/2021 11:15:00 AM 14.74 58.532 0.635 7.76 3.22 9.95
5/24/2021 11:30:00 AM 14.87 58.766 0.635 7.77 2.99 10.08
5/24/2021 11:45:00 AM 14.94 58.892 0.635 7.78 7.16 10.17
5/24/2021 12:00:00 PM 15.02 59.036 0.635 7.79 3.09 10.26
5/24/2021 12:15:00 PM 15.11 59.198 0.634 7.8 2.88 10.4
5/24/2021 12:30:00 PM 15.26 59.468 0.634 7.81 2.81 10.5
5/24/2021 12:45:00 PM 15.42 59.756 0.634 7.82 2.8 10.6
5/24/2021 1:00:00 PM 15.6 60.08 0.634 7.84 2.96 10.75
5/24/2021 1:15:00 PM 15.77 60.386 0.633 7.85 3 10.86
5/24/2021 1:30:00 PM 16.01 60.818 0.633 7.86 3.09 10.99
5/24/2021 1:45:00 PM 16.12 61.016 0.633 7.87 2.92 11.06
5/24/2021 2:00:00 PM 16.19 61.142 0.633 7.88 2.86 11.1
5/24/2021 2:15:00 PM 16.3 61.34 0.632 7.9 2.85 11.18
5/24/2021 2:30:00 PM 16.42 61.556 0.632 7.91 2.78 11.29
5/24/2021 2:45:00 PM 16.71 62.078 0.632 7.92 2.96 11.39
5/24/2021 3:00:00 PM 16.87 62.366 0.632 7.93 2.82 11.43
5/24/2021 3:15:00 PM 17.01 62.618 0.632 7.94 3.08 11.49
5/24/2021 3:30:00 PM 17.09 62.762 0.631 7.95 3.05 11.54
5/24/2021 3:45:00 PM 17.36 63.248 0.632 7.96 3.12 11.6
5/24/2021 4:00:00 PM 17.48 63.464 0.631 7.97 3.12 11.64
5/24/2021 4:15:00 PM 17.55 63.59 0.631 7.97 2.88 11.59
5/24/2021 4:30:00 PM 17.57 63.626 0.63 7.98 2.93 11.56
5/24/2021 4:45:00 PM 17.61 63.698 0.63 7.99 2.93 11.52
5/24/2021 5:00:00 PM 17.71 63.878 0.63 8 3.12 11.56
5/24/2021 5:15:00 PM 17.76 63.968 0.63 8 3.19 11.53
5/24/2021 5:30:00 PM 17.85 64.13 0.63 8 2.81 11.46
5/24/2021 5:45:00 PM 17.94 64.292 0.629 8.01 2.88 11.44
5/24/2021 6:00:00 PM 17.95 64.31 0.629 8 3.01 11.28
5/24/2021 6:15:00 PM 17.93 64.274 0.629 8 2.97 11.22
5/24/2021 6:30:00 PM 17.88 64.184 0.629 8 2.94 11.07
5/24/2021 6:45:00 PM 17.83 64.094 0.629 7.99 3.21 10.91
5/24/2021 7:00:00 PM 17.82 64.076 0.63 7.99 3.21 10.85
5/24/2021 7:15:00 PM 17.81 64.058 0.629 7.98 3.05 10.68
5/24/2021 7:30:00 PM 17.78 64.004 0.63 7.97 3.21 10.57
5/24/2021 7:45:00 PM 17.75 63.95 0.63 7.97 3.06 10.45
5/24/2021 8:00:00 PM 17.7 63.86 0.63 7.96 3.35 10.34
5/24/2021 8:15:00 PM 17.63 63.734 0.631 7.94 3.06 10.13
5/24/2021 8:30:00 PM 17.55 63.59 0.631 7.94 3.17 10.05
5/24/2021 8:45:00 PM 17.48 63.464 0.632 7.93 3.15 9.89
5/24/2021 9:00:00 PM 17.42 63.356 0.632 7.92 4.11 9.75
5/24/2021 9:15:00 PM 17.36 63.248 0.633 7.91 4.36 9.63
5/24/2021 9:30:00 PM 17.3 63.14 0.633 7.9 4.56 9.49
5/24/2021 9:45:00 PM 17.23 63.014 0.634 7.89 5.76 9.38
5/24/2021 10:00:00 PM 17.16 62.888 0.634 7.88 4.7 9.26
5/24/2021 10:15:00 PM 17.1 62.78 0.635 7.87 5 9.15
5/24/2021 10:30:00 PM 17.03 62.654 0.636 7.86 4.7 9.04
5/24/2021 10:45:00 PM 16.97 62.546 0.636 7.85 4.87 8.94
5/24/2021 11:00:00 PM 16.9 62.42 0.637 7.84 4.76 8.87
5/24/2021 11:15:00 PM 16.84 62.312 0.637 7.83 4.77 8.79
5/24/2021 11:30:00 PM 16.78 62.204 0.638 7.82 5.4 8.67
5/24/2021 11:45:00 PM 16.71 62.078 0.638 7.82 4.95 8.64
5/25/2021 12:00:00 AM 16.66 61.988 0.638 7.81 4.98 8.57
5/25/2021 12:15:00 AM 16.59 61.862 0.639 7.8 5.16 8.48
5/25/2021 12:30:00 AM 16.54 61.772 0.639 7.79 5.27 8.42
5/25/2021 12:45:00 AM 16.48 61.664 0.639 7.78 5.31 8.36
5/25/2021 1:00:00 AM 16.41 61.538 0.64 7.78 5.53 8.29
5/25/2021 1:15:00 AM 16.35 61.43 0.64 7.77 5.28 8.22
5/25/2021 1:30:00 AM 16.28 61.304 0.64 7.76 5.2 8.18
5/25/2021 1:45:00 AM 16.21 61.178 0.64 7.75 5.25 8.11
5/25/2021 2:00:00 AM 16.15 61.07 0.641 7.75 5.26 8.06
5/25/2021 2:15:00 AM 16.08 60.944 0.641 7.74 5.44 8
5/25/2021 2:30:00 AM 16.02 60.836 0.641 7.73 5.41 7.95
5/25/2021 2:45:00 AM 15.96 60.728 0.641 7.72 5.21 7.9
5/25/2021 3:00:00 AM 15.89 60.602 0.641 7.71 5.6 7.86
5/25/2021 3:15:00 AM 15.84 60.512 0.641 7.7 5.44 7.82
5/25/2021 3:30:00 AM 15.78 60.404 0.642 7.69 5.43 7.79
5/25/2021 3:45:00 AM 15.73 60.314 0.642 7.69 5.67 7.75
5/25/2021 4:00:00 AM 15.68 60.224 0.642 7.68 5.45 7.72
5/25/2021 4:15:00 AM 15.64 60.152 0.642 7.67 5.61 7.71
5/25/2021 4:30:00 AM 15.59 60.062 0.642 7.67 5.3 7.68
5/25/2021 4:45:00 AM 15.55 59.99 0.642 7.66 5.03 7.67
5/25/2021 5:00:00 AM 15.52 59.936 0.642 7.66 5.18 7.66
5/25/2021 5:15:00 AM 15.48 59.864 0.641 7.65 5.14 7.65
5/25/2021 5:30:00 AM 15.45 59.81 0.641 7.65 5.06 7.65
5/25/2021 5:45:00 AM 15.42 59.756 0.641 7.65 5.02 7.64
5/25/2021 6:00:00 AM 15.39 59.702 0.64 7.64 5.01 7.63
5/25/2021 6:15:00 AM 15.36 59.648 0.64 7.64 5.12 7.64
5/25/2021 6:30:00 AM 15.33 59.594 0.64 7.64 4.61 7.67
5/25/2021 6:45:00 AM 15.31 59.558 0.64 7.64 4.76 7.69
5/25/2021 7:00:00 AM 15.28 59.504 0.639 7.64 4.71 7.73
5/25/2021 7:15:00 AM 15.26 59.468 0.639 7.64 4.45 7.79
5/25/2021 7:30:00 AM 15.24 59.432 0.639 7.64 4.48 7.8
5/25/2021 7:45:00 AM 15.22 59.396 0.639 7.65 4.46 7.9
5/25/2021 8:00:00 AM 15.22 59.396 0.639 7.65 3.97 8.01
5/25/2021 8:15:00 AM 15.22 59.396 0.639 7.66 3.95 8.1
5/25/2021 8:30:00 AM 15.24 59.432 0.64 7.66 4.17 8.21
5/25/2021 8:45:00 AM 15.24 59.432 0.64 7.67 3.87 8.3
5/25/2021 9:00:00 AM 15.26 59.468 0.64 7.68 3.54 8.4
5/25/2021 9:15:00 AM 15.28 59.504 0.64 7.69 3.56 8.54
5/25/2021 9:30:00 AM 15.3 59.54 0.64 7.69 3.7 8.65
5/25/2021 9:45:00 AM 15.33 59.594 0.64 7.7 3.68 8.77
5/25/2021 10:00:00 AM 15.37 59.666 0.64 7.71 3.67 8.91
5/25/2021 10:15:00 AM 15.43 59.774 0.64 7.72 3.64 9.04
5/25/2021 10:30:00 AM 15.49 59.882 0.64 7.73 3.84 9.17
5/25/2021 10:45:00 AM 15.6 60.08 0.639 7.74 4.12 9.33
5/25/2021 11:00:00 AM 15.66 60.188 0.639 7.75 3.86 9.45
5/25/2021 11:15:00 AM 15.7 60.26 0.639 7.76 3.9 9.56
5/25/2021 11:30:00 AM 15.85 60.53 0.638 7.77 3.74 9.74
5/25/2021 11:45:00 AM 15.99 60.782 0.637 7.78 3.66 9.86
5/25/2021 12:00:00 PM 16.17 61.106 0.637 7.79 3.41 10.02
5/25/2021 12:15:00 PM 16.4 61.52 0.636 7.8 3.56 10.12
5/25/2021 12:30:00 PM 16.6 61.88 0.636 7.8 3.48 10.22
5/25/2021 12:45:00 PM 16.82 62.276 0.634 7.82 3.6 10.36
5/25/2021 1:00:00 PM 17.06 62.708 0.634 7.83 3.8 10.47
5/25/2021 1:15:00 PM 17.29 63.122 0.633 7.84 4.11 10.57
5/25/2021 1:30:00 PM 17.47 63.446 0.633 7.85 3.89 10.72
5/25/2021 1:45:00 PM 17.73 63.914 0.632 7.86 4.15 10.79
5/25/2021 2:00:00 PM 17.94 64.292 0.632 7.88 3.79 10.96
5/25/2021 2:15:00 PM 18.12 64.616 0.632 7.89 3.82 11.02
5/25/2021 2:30:00 PM 18.2 64.76 0.632 7.88 3.66 10.98
5/25/2021 2:45:00 PM 18.21 64.778 0.632 7.91 3.63 11.02
5/25/2021 3:00:00 PM 18.39 65.102 0.632 7.91 3.5 11.1
5/25/2021 3:15:00 PM 18.65 65.57 0.632 7.92 3.36 11.18
5/25/2021 3:30:00 PM 18.84 65.912 0.633 7.93 3.48 11.21
5/25/2021 3:45:00 PM 19.07 66.326 0.633 7.95 3.48 11.34
5/25/2021 4:00:00 PM 19.28 66.704 0.633 7.96 3.53 11.37
5/25/2021 4:15:00 PM 19.45 67.01 0.634 7.97 3.49 11.38
5/25/2021 4:30:00 PM 19.61 67.298 0.634 7.98 3.48 11.42
5/25/2021 4:45:00 PM 19.67 67.406 0.635 7.99 3.61 11.46
5/25/2021 5:00:00 PM 19.79 67.622 0.635 7.99 3.65 11.47
5/25/2021 5:15:00 PM 19.88 67.784 0.635 8 3.64 11.43
5/25/2021 5:30:00 PM 19.92 67.856 0.636 7.99 3.87 11.26
5/25/2021 5:45:00 PM 19.96 67.92799 0.636 8.01 3.74 11.26
5/25/2021 6:00:00 PM 19.97 67.946 0.636 7.99 3.82 11.03
5/25/2021 6:15:00 PM 19.95 67.91 0.637 7.99 3.87 10.94
5/25/2021 6:30:00 PM 19.94 67.892 0.637 8 3.69 10.87
5/25/2021 6:45:00 PM 19.94 67.892 0.637 7.99 3.78 10.8
5/25/2021 7:00:00 PM 19.94 67.892 0.638 7.98 8.3 10.64
5/25/2021 7:15:00 PM 19.94 67.892 0.638 7.98 3.69 10.5
5/25/2021 7:30:00 PM 19.94 67.892 0.638 7.97 3.39 10.36
5/25/2021 7:45:00 PM 19.92 67.856 0.638 7.96 3.35 10.21
5/25/2021 8:00:00 PM 19.89 67.802 0.639 7.95 3.92 10.04
5/25/2021 8:15:00 PM 19.85 67.73 0.639 7.94 3.98 9.88
5/25/2021 8:30:00 PM 19.81 67.658 0.639 7.93 3.71 9.69
5/25/2021 8:45:00 PM 19.75 67.55 0.639 7.91 3.71 9.52
5/25/2021 9:00:00 PM 19.69 67.442 0.639 7.9 4.1 9.36
5/25/2021 9:15:00 PM 19.64 67.352 0.64 7.89 6.02 9.2
5/25/2021 9:30:00 PM 19.58 67.244 0.64 7.88 4.22 9.05
5/25/2021 9:45:00 PM 19.52 67.136 0.64 7.86 5.46 8.9
5/25/2021 10:00:00 PM 19.45 67.01 0.64 7.85 4.46 8.78
5/25/2021 10:15:00 PM 19.39 66.902 0.641 7.85 4.62 8.67
5/25/2021 10:30:00 PM 19.33 66.794 0.64 7.83 4.89 8.54
5/25/2021 10:45:00 PM 19.26 66.668 0.64 7.82 4.7 8.43
5/25/2021 11:00:00 PM 19.18 66.524 0.641 7.81 4.46 8.33
5/25/2021 11:15:00 PM 19.11 66.398 0.641 7.8 4.64 8.23
5/25/2021 11:30:00 PM 19.04 66.272 0.641 7.79 5.16 8.14
5/25/2021 11:45:00 PM 18.97 66.146 0.641 7.78 4.44 8.04
5/26/2021 12:00:00 AM 18.89 66.002 0.641 7.77 4.62 7.96
5/26/2021 12:15:00 AM 18.8 65.84 0.643 7.76 4.79 7.86
5/26/2021 12:30:00 AM 18.73 65.714 0.642 7.75 4.73 7.79
5/26/2021 12:45:00 AM 18.64 65.552 0.643 7.75 5.09 7.72
5/26/2021 1:00:00 AM 18.56 65.408 0.643 7.74 4.96 7.64
5/26/2021 1:15:00 AM 18.46 65.228 0.644 7.73 4.68 7.58
5/26/2021 1:30:00 AM 18.37 65.066 0.644 7.73 4.88 7.52
5/26/2021 1:45:00 AM 18.28 64.904 0.645 7.72 4.68 7.45
5/26/2021 2:00:00 AM 18.2 64.76 0.645 7.71 4.42 7.4
5/26/2021 2:15:00 AM 18.1 64.58 0.645 7.7 5.15 7.33
5/26/2021 2:30:00 AM 18.01 64.418 0.646 7.69 5.31 7.29
5/26/2021 2:45:00 AM 17.92 64.256 0.646 7.69 5.05 7.24
5/26/2021 3:00:00 AM 17.84 64.112 0.646 7.68 5.05 7.2
5/26/2021 3:15:00 AM 17.76 63.968 0.646 7.67 5.16 7.13
5/26/2021 3:30:00 AM 17.68 63.824 0.646 7.66 5.01 7.12
5/26/2021 3:45:00 AM 17.6 63.68 0.646 7.65 4.91 7.09
5/26/2021 4:00:00 AM 17.52 63.536 0.646 7.65 5.28 7.06
5/26/2021 4:15:00 AM 17.45 63.41 0.646 7.64 4.92 7.03
5/26/2021 4:30:00 AM 17.39 63.302 0.646 7.63 5.22 7.03
5/26/2021 4:45:00 AM 17.33 63.194 0.645 7.63 5.3 7.02
5/26/2021 5:00:00 AM 17.28 63.104 0.645 7.62 5.28 6.99
5/26/2021 5:15:00 AM 17.22 62.996 0.644 7.62 5.07 6.99
5/26/2021 5:30:00 AM 17.16 62.888 0.644 7.61 4.89 6.99
5/26/2021 5:45:00 AM 17.11 62.798 0.643 7.61 4.92 6.98
5/26/2021 6:00:00 AM 17.06 62.708 0.642 7.61 4.74 6.99
5/26/2021 6:15:00 AM 17 62.6 0.642 7.61 4.91 7.02
5/26/2021 6:30:00 AM 16.96 62.528 0.641 7.6 5.15 7.03
5/26/2021 6:45:00 AM 16.92 62.456 0.641 7.61 5.25 7.08
5/26/2021 7:00:00 AM 16.87 62.366 0.641 7.61 3.68 7.11
5/26/2021 7:15:00 AM 16.83 62.294 0.641 7.61 4.84 7.15
5/26/2021 7:30:00 AM 16.8 62.24 0.64 7.61 4.45 7.25
5/26/2021 7:45:00 AM 16.77 62.186 0.64 7.61 4.6 7.31
5/26/2021 8:00:00 AM 16.75 62.15 0.64 7.62 4.46 7.39
5/26/2021 8:15:00 AM 16.76 62.168 0.64 7.62 4.95 7.52
5/26/2021 8:30:00 AM 16.77 62.186 0.641 7.63 5.52 7.62
5/26/2021 8:45:00 AM 16.77 62.186 0.641 7.63 4.89 7.7
5/26/2021 9:00:00 AM 16.78 62.204 0.641 7.64 4.7 7.82
5/26/2021 9:15:00 AM 16.78 62.204 0.642 7.64 4.83 7.9
5/26/2021 9:30:00 AM 16.81 62.258 0.642 7.66 4.56 8.07
5/26/2021 9:45:00 AM 16.88 62.384 0.642 7.67 4.41 8.21
5/26/2021 10:00:00 AM 16.98 62.564 0.643 7.68 4.45 8.39
5/26/2021 10:15:00 AM 17.04 62.672 0.643 7.69 4.04 8.51
5/26/2021 10:30:00 AM 17.14 62.852 0.644 7.7 4.14 8.67
5/26/2021 10:45:00 AM 17.26 63.068 0.644 7.71 4.28 8.82
5/26/2021 11:00:00 AM 17.4 63.32 0.645 7.72 4.44 8.95
5/26/2021 11:15:00 AM 17.58 63.644 0.645 7.74 4.16 9.16
5/26/2021 11:30:00 AM 17.75 63.95 0.646 7.74 5.55 9.3
5/26/2021 11:45:00 AM 17.91 64.238 0.646 7.76 7.65 9.47
5/26/2021 12:00:00 PM 18.11 64.598 0.647 7.77 3.43 9.61
5/26/2021 12:15:00 PM 18.25 64.85 0.647 7.78 3.43 9.7
5/26/2021 12:30:00 PM 18.44 65.192 0.648 7.79 3.38 9.83
5/26/2021 12:45:00 PM 18.65 65.57 0.648 7.79 3.2 9.94
5/26/2021 1:00:00 PM 18.85 65.93 0.649 7.82 3.34 10.09
5/26/2021 1:15:00 PM 19.01 66.218 0.649 7.83 3.23 10.16
5/26/2021 1:30:00 PM 19.19 66.542 0.649 7.83 3.19 10.28
5/26/2021 1:45:00 PM 19.46 67.028 0.65 7.85 3.49 10.4
5/26/2021 2:00:00 PM 19.33 66.794 0.65 7.84 3.34 10.22
5/26/2021 2:15:00 PM 19.31 66.758 0.65 7.84 3.55 10.13
5/26/2021 2:30:00 PM 19.56 67.208 0.65 7.86 3.5 10.39
5/26/2021 2:45:00 PM 19.71 67.478 0.65 7.87 3.45 10.47
5/26/2021 3:00:00 PM 19.65 67.37 0.651 7.87 3.33 10.39
5/26/2021 3:15:00 PM 19.96 67.92799 0.651 7.89 3.49 10.58
5/26/2021 3:30:00 PM 20.03 68.054 0.651 7.9 3.69 10.58
5/26/2021 3:45:00 PM 20.07 68.126 0.651 7.9 3.68 10.61
5/26/2021 4:00:00 PM 20.13 68.234 0.651 7.91 3.85 10.58
5/26/2021 4:15:00 PM 20.09 68.162 0.651 7.9 3.82 10.4
5/26/2021 4:30:00 PM 20.13 68.234 0.651 7.91 3.94 10.41
5/26/2021 4:45:00 PM 20.25 68.45 0.651 7.92 4.64 10.48
5/26/2021 5:00:00 PM 20.3 68.54 0.65 7.93 3.87 10.43
5/26/2021 5:15:00 PM 20.24 68.432 0.649 7.91 3.97 10.18
5/26/2021 5:30:00 PM 20.21 68.378 0.639 7.91 6.86 9.9
5/26/2021 5:45:00 PM 20.17 68.306 0.641 7.9 7.69 9.84
5/26/2021 6:00:00 PM 20.14 68.252 0.64 7.9 7.77 9.77
5/26/2021 6:15:00 PM 20.14 68.252 0.642 7.9 7.15 9.76
5/26/2021 6:30:00 PM 20.17 68.306 0.642 7.9 7.02 9.68
5/26/2021 6:45:00 PM 20.19 68.342 0.642 7.89 7.83 9.6
5/26/2021 7:00:00 PM 20.18 68.324 0.642 7.88 7.26 9.45
5/26/2021 7:15:00 PM 20.17 68.306 0.642 7.88 6.77 9.29
5/26/2021 7:30:00 PM 20.13 68.234 0.642 7.87 6.88 9.12
5/26/2021 7:45:00 PM 20.09 68.162 0.642 7.86 7.13 8.96
5/26/2021 8:00:00 PM 20.04 68.07201 0.642 7.85 7.02 8.83
5/26/2021 8:15:00 PM 19.98 67.964 0.642 7.83 7.24 8.66
5/26/2021 8:30:00 PM 19.92 67.856 0.642 7.81 6.89 8.51
5/26/2021 8:45:00 PM 19.85 67.73 0.642 7.8 6.5 8.39
5/26/2021 9:00:00 PM 19.77 67.586 0.642 7.79 6.49 8.29
5/26/2021 9:15:00 PM 19.69 67.442 0.643 7.78 6.29 8.18
5/26/2021 9:30:00 PM 19.61 67.298 0.644 7.77 6.35 8.09
5/26/2021 9:45:00 PM 19.52 67.136 0.644 7.77 6.56 8.02
5/26/2021 10:00:00 PM 19.43 66.974 0.645 7.76 6.36 7.95
5/26/2021 10:15:00 PM 19.34 66.812 0.646 7.75 6.19 7.87
5/26/2021 10:30:00 PM 19.23 66.614 0.646 7.74 6.33 7.77
5/26/2021 10:45:00 PM 19.13 66.434 0.646 7.74 6.23 7.68
5/26/2021 11:00:00 PM 19.03 66.254 0.646 7.73 6.5 7.57
5/26/2021 11:15:00 PM 18.92 66.056 0.645 7.72 6.09 7.52
5/26/2021 11:30:00 PM 18.82 65.876 0.646 7.71 6.35 7.43
5/26/2021 11:45:00 PM 18.72 65.696 0.645 7.7 6.25 7.38
5/27/2021 12:00:00 AM 18.63 65.534 0.645 7.69 6.24 7.28
5/27/2021 12:15:00 AM 18.52 65.336 0.646 7.69 6.33 7.27
5/27/2021 12:30:00 AM 18.41 65.138 0.646 7.68 5.96 7.23
5/27/2021 12:45:00 AM 18.32 64.976 0.646 7.67 6.17 7.19
5/27/2021 1:00:00 AM 18.23 64.814 0.647 7.67 5.92 7.14
5/27/2021 1:15:00 AM 18.14 64.652 0.647 7.67 6.24 7.1
5/27/2021 1:30:00 AM 18.06 64.508 0.648 7.66 5.88 7.07
5/27/2021 1:45:00 AM 17.97 64.346 0.648 7.65 5.22 7.03
5/27/2021 2:00:00 AM 17.89 64.202 0.649 7.65 5.48 7
5/27/2021 2:15:00 AM 17.8 64.04 0.65 7.64 5.51 6.97
5/27/2021 2:30:00 AM 17.73 63.914 0.65 7.64 5.68 6.93
5/27/2021 2:45:00 AM 17.65 63.77 0.65 7.64 5.28 6.93
5/27/2021 3:00:00 AM 17.58 63.644 0.651 7.63 5.28 6.9
5/27/2021 3:15:00 AM 17.51 63.518 0.651 7.63 5.36 6.89
5/27/2021 3:30:00 AM 17.44 63.392 0.652 7.62 5.35 6.87
5/27/2021 3:45:00 AM 17.38 63.284 0.652 7.62 5.36 6.86
5/27/2021 4:00:00 AM 17.32 63.176 0.652 7.62 5.02 6.85
5/27/2021 4:15:00 AM 17.25 63.05 0.653 7.61 5.22 6.83
5/27/2021 4:30:00 AM 17.18 62.924 0.653 7.61 5.53 6.82
5/27/2021 4:45:00 AM 17.1 62.78 0.653 7.61 5.64 6.83
5/27/2021 5:00:00 AM 17.02 62.636 0.652 7.61 5.54 6.85
5/27/2021 5:15:00 AM 16.95 62.51 0.652 7.6 5.24 6.85
5/27/2021 5:30:00 AM 16.87 62.366 0.652 7.6 5.49 6.88
5/27/2021 5:45:00 AM 16.8 62.24 0.652 7.6 5.31 6.89
5/27/2021 6:00:00 AM 16.71 62.078 0.652 7.6 5.77 6.92
5/27/2021 6:15:00 AM 16.64 61.952 0.651 7.6 5.34 6.94
5/27/2021 6:30:00 AM 16.56 61.808 0.651 7.6 4.94 6.99
5/27/2021 6:45:00 AM 16.48 61.664 0.651 7.6 5.34 7.01
5/27/2021 7:00:00 AM 16.41 61.538 0.651 7.6 5.46 7.03
5/27/2021 7:15:00 AM 16.32 61.376 0.65 7.6 4.76 7.07
5/27/2021 7:30:00 AM 16.23 61.214 0.65 7.6 4.98 7.13
5/27/2021 7:45:00 AM 16.15 61.07 0.65 7.6 4.71 7.11
5/27/2021 8:00:00 AM 16.07 60.926 0.65 7.6 4.52 7.19
5/27/2021 8:15:00 AM 15.99 60.782 0.65 7.61 4.32 7.27
5/27/2021 8:30:00 AM 15.93 60.674 0.65 7.61 4.75 7.34
5/27/2021 8:45:00 AM 15.87 60.566 0.651 7.61 4.02 7.39
5/27/2021 9:00:00 AM 15.83 60.494 0.651 7.61 4.26 7.44
5/27/2021 9:15:00 AM 15.81 60.458 0.651 7.62 4.44 7.53
5/27/2021 9:30:00 AM 15.8 60.44 0.651 7.63 3.73 7.65
5/27/2021 9:45:00 AM 15.83 60.494 0.652 7.63 3.94 7.82
5/27/2021 10:00:00 AM 15.87 60.566 0.652 7.64 4.57 7.91
5/27/2021 10:15:00 AM 15.93 60.674 0.652 7.66 5.28 8.12
5/27/2021 10:30:00 AM 16.04 60.872 0.652 7.67 4.03 8.29
5/27/2021 10:45:00 AM 16.1 60.98 0.652 7.68 5.55 8.45
5/27/2021 11:00:00 AM 16.14 61.052 0.652 7.69 2.69 8.57
5/27/2021 11:15:00 AM 16.29 61.322 0.652 7.71 2.62 8.81
5/27/2021 11:30:00 AM 16.27 61.286 0.653 7.72 2.68 8.88
5/27/2021 11:45:00 AM 16.48 61.664 0.653 7.73 3.4 9.07
5/27/2021 12:00:00 PM 16.59 61.862 0.653 7.75 2.48 9.23
5/27/2021 12:15:00 PM 16.82 62.276 0.654 7.76 2.37 9.42
5/27/2021 12:30:00 PM 17.04 62.672 0.654 7.77 3.15 9.58
5/27/2021 12:45:00 PM 17.27 63.086 0.654 7.78 2.31 9.74
5/27/2021 1:00:00 PM 17.49 63.482 0.654 7.8 2.31 9.87
5/27/2021 1:15:00 PM 17.72 63.896 0.654 7.81 2.36 10.01
5/27/2021 1:30:00 PM 17.95 64.31 0.654 7.82 2.41 10.17
5/27/2021 1:45:00 PM 18.2 64.76 0.654 7.84 2.47 10.33
5/27/2021 2:00:00 PM 18.41 65.138 0.654 7.86 2.49 10.48
5/27/2021 2:15:00 PM 18.61 65.498 0.654 7.87 2.33 10.58
5/27/2021 2:30:00 PM 18.77 65.786 0.654 7.88 2.36 10.69
5/27/2021 2:45:00 PM 18.93 66.074 0.653 7.89 2.33 10.82
5/27/2021 3:00:00 PM 19.02 66.236 0.653 7.91 2.38 10.86
5/27/2021 3:15:00 PM 19.06 66.308 0.653 7.92 2.37 10.92
5/27/2021 3:30:00 PM 19.21 66.578 0.653 7.93 2.23 11.01
5/27/2021 3:45:00 PM 19.3 66.74 0.653 7.94 2.38 11.04
5/27/2021 4:00:00 PM 19.3 66.74 0.652 7.95 2.21 11.08
5/27/2021 4:15:00 PM 19.45 67.01 0.652 7.96 2.51 11.12
5/27/2021 4:30:00 PM 19.52 67.136 0.652 7.97 2.37 11.12
5/27/2021 4:45:00 PM 19.59 67.262 0.651 7.98 2.98 11.11
5/27/2021 5:00:00 PM 19.6 67.28 0.652 7.98 2.92 11.08
5/27/2021 5:15:00 PM 19.57 67.226 0.652 7.98 3.14 11
5/27/2021 5:30:00 PM 19.57 67.226 0.653 7.99 3.16 10.94
5/27/2021 5:45:00 PM 19.51 67.118 0.653 7.99 3.15 10.87
5/27/2021 6:00:00 PM 19.46 67.028 0.653 7.99 12.91 10.79
5/27/2021 6:15:00 PM 19.41 66.938 0.654 7.99 2.83 10.73
5/27/2021 6:30:00 PM 19.34 66.812 0.655 7.98 3.16 10.62
5/27/2021 6:45:00 PM 19.26 66.668 0.655 7.98 2.95 10.5
5/27/2021 7:00:00 PM 19.18 66.524 0.655 7.97 3.01 10.35
5/27/2021 7:15:00 PM 19.08 66.344 0.656 7.97 3.14 10.27
5/27/2021 7:30:00 PM 18.99 66.182 0.656 7.96 3.01 10.12
5/27/2021 7:45:00 PM 18.89 66.002 0.657 7.95 3.1 9.98
5/27/2021 8:00:00 PM 18.78 65.804 0.657 7.95 3.12 9.87
5/27/2021 8:15:00 PM 18.66 65.588 0.657 7.94 3.15 9.71
5/27/2021 8:30:00 PM 18.54 65.372 0.657 7.93 3.27 9.59
5/27/2021 8:45:00 PM 18.42 65.156 0.656 7.92 3.21 9.46
5/27/2021 9:00:00 PM 18.31 64.958 0.655 7.91 3.25 9.32
5/27/2021 9:15:00 PM 18.2 64.76 0.654 7.9 3.38 9.21
5/27/2021 9:30:00 PM 18.1 64.58 0.653 7.88 3.86 9.07
5/27/2021 9:45:00 PM 18 64.4 0.651 7.88 3.95 8.97
5/27/2021 10:00:00 PM 17.9 64.22 0.649 7.86 4.21 8.86
5/27/2021 10:15:00 PM 17.8 64.04 0.647 7.85 4.22 8.75
5/27/2021 10:30:00 PM 17.71 63.878 0.645 7.84 4.28 8.64
5/27/2021 10:45:00 PM 17.62 63.716 0.642 7.83 3.97 8.54
5/27/2021 11:00:00 PM 17.52 63.536 0.64 7.82 4.27 8.43
5/27/2021 11:15:00 PM 17.43 63.374 0.638 7.81 4.18 8.35
5/27/2021 11:30:00 PM 17.34 63.212 0.636 7.8 4.78 8.26
5/27/2021 11:45:00 PM 17.24 63.032 0.634 7.79 4.2 8.17
5/28/2021 12:00:00 AM 17.13 62.834 0.632 7.78 4.78 8.09
5/28/2021 12:15:00 AM 17.01 62.618 0.631 7.77 4.32 8.02
5/28/2021 12:30:00 AM 16.92 62.456 0.63 7.75 4.73 7.96
5/28/2021 12:45:00 AM 16.81 62.258 0.629 7.75 4.52 7.9
5/28/2021 1:00:00 AM 16.7 62.06 0.627 7.74 4.55 7.85
5/28/2021 1:15:00 AM 16.59 61.862 0.627 7.73 4.9 7.8
5/28/2021 1:30:00 AM 16.48 61.664 0.626 7.72 4.6 7.75
5/28/2021 1:45:00 AM 16.37 61.466 0.626 7.71 4.69 7.7
5/28/2021 2:00:00 AM 16.27 61.286 0.626 7.7 4.95 7.66
5/28/2021 2:15:00 AM 16.16 61.088 0.626 7.7 4.83 7.64
5/28/2021 2:30:00 AM 16.06 60.908 0.625 7.69 4.41 7.58
5/28/2021 2:45:00 AM 15.96 60.728 0.626 7.68 4.88 7.57
5/28/2021 3:00:00 AM 15.86 60.548 0.626 7.67 5.16 7.54
5/28/2021 3:15:00 AM 15.77 60.386 0.626 7.67 5.12 7.5
5/28/2021 3:30:00 AM 15.68 60.224 0.626 7.66 4.64 7.5
5/28/2021 3:45:00 AM 15.6 60.08 0.626 7.66 4.93 7.47
5/28/2021 4:00:00 AM 15.51 59.918 0.626 7.65 5.53 7.47
5/28/2021 4:15:00 AM 15.43 59.774 0.627 7.65 4.75 7.45
5/28/2021 4:30:00 AM 15.35 59.63 0.627 7.64 5.05 7.43
5/28/2021 4:45:00 AM 15.28 59.504 0.627 7.64 4.81 7.41
5/28/2021 5:00:00 AM 15.2 59.36 0.627 7.63 4.44 7.42
5/28/2021 5:15:00 AM 15.13 59.234 0.628 7.63 4.86 7.43
5/28/2021 5:30:00 AM 15.06 59.108 0.628 7.63 4.54 7.43
5/28/2021 5:45:00 AM 14.99 58.982 0.628 7.63 4.46 7.44
5/28/2021 6:00:00 AM 14.92 58.856 0.629 7.63 4.47 7.47
5/28/2021 6:15:00 AM 14.86 58.748 0.629 7.62 8.27 7.48
5/28/2021 6:30:00 AM 14.8 58.64 0.629 7.62 4.14 7.5
5/28/2021 6:45:00 AM 14.75 58.55 0.63 7.62 4.19 7.54
5/28/2021 7:00:00 AM 14.69 58.442 0.63 7.62 3.68 7.57
5/28/2021 7:15:00 AM 14.63 58.334 0.63 7.62 10.41 7.62
5/28/2021 7:30:00 AM 14.57 58.226 0.63 7.62 4.63 7.65
5/28/2021 7:45:00 AM 14.52 58.136 0.631 7.62 4.04 7.68
5/28/2021 8:00:00 AM 14.46 58.028 0.631 7.62 3.83 7.73
5/28/2021 8:15:00 AM 14.41 57.938 0.631 7.63 3.35 7.81
5/28/2021 8:30:00 AM 14.36 57.848 0.632 7.63 3.48 7.9
5/28/2021 8:45:00 AM 14.31 57.758 0.632 7.63 3.26 7.95
5/28/2021 9:00:00 AM 14.25 57.65 0.632 7.63 3.31 8.01
5/28/2021 9:15:00 AM 14.2 57.56 0.632 7.64 3.5 8.07
5/28/2021 9:30:00 AM 14.15 57.47 0.632 7.64 3.55 8.16
5/28/2021 9:45:00 AM 14.12 57.416 0.632 7.65 2.93 8.32
5/28/2021 10:00:00 AM 14.1 57.38 0.632 7.66 2.94 8.45
5/28/2021 10:15:00 AM 14.06